<?xml version="1.0" encoding="UTF-8" standalone="no" ?>
<gpx xmlns="http://www.topografix.com/GPX/1/1" xmlns:xsi="http://www.w3.org/2001/XMLSchema-instance" xsi:schemaLocation="http://www.topografix.com/GPX/1/1 http://www.topografix.com/GPX/1/1/gpx.xsd" version="1.1" creator="VisuGPX - https://www.visugpx.com">
  <metadata>
    <name>Cyclo Un petit tour dans l'Avance </name>
    <desc><![CDATA[A noter les petites route parallèles à la D 942. Deux cols : Sentinelle et Tourrond pour se réchauffer  en cette froide journée hivernale ]]></desc>
  </metadata>
  <trk>
    <name><![CDATA[ACTIVE LOG 004]]></name>
    <trkseg>
      <trkpt lat="44.55816" lon="6.07462">
        <ele>727.3747559</ele>
        <time>2013-12-05T09:51:35Z</time>
      </trkpt>
      <trkpt lat="44.5582" lon="6.07444">
        <ele>726.894043</ele>
        <time>2013-12-05T09:51:50Z</time>
      </trkpt>
      <trkpt lat="44.55807" lon="6.07451">
        <ele>724.9714355</ele>
        <time>2013-12-05T09:51:58Z</time>
      </trkpt>
      <trkpt lat="44.55783" lon="6.07453">
        <ele>723.529541</ele>
        <time>2013-12-05T09:52:05Z</time>
      </trkpt>
      <trkpt lat="44.5577" lon="6.07458">
        <ele>722.5681152</ele>
        <time>2013-12-05T09:52:07Z</time>
      </trkpt>
      <trkpt lat="44.55746" lon="6.07481">
        <ele>721.1262207</ele>
        <time>2013-12-05T09:52:09Z</time>
      </trkpt>
      <trkpt lat="44.5572" lon="6.07528">
        <ele>720.1647949</ele>
        <time>2013-12-05T09:52:15Z</time>
      </trkpt>
      <trkpt lat="44.5571" lon="6.07551">
        <ele>718.7229004</ele>
        <time>2013-12-05T09:52:18Z</time>
      </trkpt>
      <trkpt lat="44.55697" lon="6.07576">
        <ele>718.7229004</ele>
        <time>2013-12-05T09:52:21Z</time>
      </trkpt>
      <trkpt lat="44.5567" lon="6.07629">
        <ele>716.800293</ele>
        <time>2013-12-05T09:52:31Z</time>
      </trkpt>
      <trkpt lat="44.55662" lon="6.07645">
        <ele>716.800293</ele>
        <time>2013-12-05T09:52:35Z</time>
      </trkpt>
      <trkpt lat="44.55653" lon="6.07651">
        <ele>718.2421875</ele>
        <time>2013-12-05T09:52:39Z</time>
      </trkpt>
      <trkpt lat="44.55646" lon="6.07649">
        <ele>716.800293</ele>
        <time>2013-12-05T09:52:41Z</time>
      </trkpt>
      <trkpt lat="44.55638" lon="6.07649">
        <ele>716.800293</ele>
        <time>2013-12-05T09:52:45Z</time>
      </trkpt>
      <trkpt lat="44.55638" lon="6.07649">
        <ele>716.800293</ele>
        <time>2013-12-05T09:52:48Z</time>
      </trkpt>
      <trkpt lat="44.55638" lon="6.07649">
        <ele>716.3195801</ele>
        <time>2013-12-05T09:52:58Z</time>
      </trkpt>
      <trkpt lat="44.55558" lon="6.07551">
        <ele>717.2810059</ele>
        <time>2013-12-05T09:53:11Z</time>
      </trkpt>
      <trkpt lat="44.55535" lon="6.07525">
        <ele>716.800293</ele>
        <time>2013-12-05T09:53:24Z</time>
      </trkpt>
      <trkpt lat="44.55509" lon="6.07481">
        <ele>717.2810059</ele>
        <time>2013-12-05T09:53:30Z</time>
      </trkpt>
      <trkpt lat="44.55493" lon="6.07486">
        <ele>717.2810059</ele>
        <time>2013-12-05T09:53:34Z</time>
      </trkpt>
      <trkpt lat="44.55493" lon="6.07485">
        <ele>717.2810059</ele>
        <time>2013-12-05T09:53:52Z</time>
      </trkpt>
      <trkpt lat="44.55493" lon="6.07486">
        <ele>715.8388672</ele>
        <time>2013-12-05T09:53:59Z</time>
      </trkpt>
      <trkpt lat="44.55482" lon="6.07503">
        <ele>713.4355469</ele>
        <time>2013-12-05T09:54:04Z</time>
      </trkpt>
      <trkpt lat="44.55494" lon="6.07543">
        <ele>714.8774414</ele>
        <time>2013-12-05T09:54:06Z</time>
      </trkpt>
      <trkpt lat="44.55499" lon="6.07561">
        <ele>713.4355469</ele>
        <time>2013-12-05T09:54:08Z</time>
      </trkpt>
      <trkpt lat="44.55512" lon="6.07628">
        <ele>710.0708008</ele>
        <time>2013-12-05T09:54:19Z</time>
      </trkpt>
      <trkpt lat="44.55518" lon="6.07652">
        <ele>709.1096191</ele>
        <time>2013-12-05T09:54:22Z</time>
      </trkpt>
      <trkpt lat="44.55523" lon="6.07663">
        <ele>707.6677246</ele>
        <time>2013-12-05T09:54:24Z</time>
      </trkpt>
      <trkpt lat="44.55517" lon="6.07701">
        <ele>708.1484375</ele>
        <time>2013-12-05T09:54:27Z</time>
      </trkpt>
      <trkpt lat="44.55537" lon="6.07732">
        <ele>710.0708008</ele>
        <time>2013-12-05T09:54:32Z</time>
      </trkpt>
      <trkpt lat="44.5554" lon="6.07742">
        <ele>709.590332</ele>
        <time>2013-12-05T09:54:34Z</time>
      </trkpt>
      <trkpt lat="44.55544" lon="6.07759">
        <ele>710.0708008</ele>
        <time>2013-12-05T09:54:37Z</time>
      </trkpt>
      <trkpt lat="44.55548" lon="6.07771">
        <ele>709.590332</ele>
        <time>2013-12-05T09:54:39Z</time>
      </trkpt>
      <trkpt lat="44.55562" lon="6.07806">
        <ele>710.5515137</ele>
        <time>2013-12-05T09:54:45Z</time>
      </trkpt>
      <trkpt lat="44.55574" lon="6.07832">
        <ele>710.5515137</ele>
        <time>2013-12-05T09:54:50Z</time>
      </trkpt>
      <trkpt lat="44.55591" lon="6.07844">
        <ele>710.5515137</ele>
        <time>2013-12-05T09:54:55Z</time>
      </trkpt>
      <trkpt lat="44.55565" lon="6.07891">
        <ele>710.0708008</ele>
        <time>2013-12-05T09:55:01Z</time>
      </trkpt>
      <trkpt lat="44.55557" lon="6.079">
        <ele>710.5515137</ele>
        <time>2013-12-05T09:55:03Z</time>
      </trkpt>
      <trkpt lat="44.55506" lon="6.07906">
        <ele>711.9936523</ele>
        <time>2013-12-05T09:55:12Z</time>
      </trkpt>
      <trkpt lat="44.55433" lon="6.07888">
        <ele>714.8774414</ele>
        <time>2013-12-05T09:55:31Z</time>
      </trkpt>
      <trkpt lat="44.55388" lon="6.07879">
        <ele>717.2810059</ele>
        <time>2013-12-05T09:55:47Z</time>
      </trkpt>
      <trkpt lat="44.5536" lon="6.07872">
        <ele>719.2036133</ele>
        <time>2013-12-05T09:55:57Z</time>
      </trkpt>
      <trkpt lat="44.55325" lon="6.07876">
        <ele>721.6066895</ele>
        <time>2013-12-05T09:56:13Z</time>
      </trkpt>
      <trkpt lat="44.55304" lon="6.07881">
        <ele>722.0874023</ele>
        <time>2013-12-05T09:56:21Z</time>
      </trkpt>
      <trkpt lat="44.55281" lon="6.07884">
        <ele>724.4907227</ele>
        <time>2013-12-05T09:56:31Z</time>
      </trkpt>
      <trkpt lat="44.55278" lon="6.07885">
        <ele>724.4907227</ele>
        <time>2013-12-05T09:56:33Z</time>
      </trkpt>
      <trkpt lat="44.55268" lon="6.07885">
        <ele>724.9714355</ele>
        <time>2013-12-05T09:56:38Z</time>
      </trkpt>
      <trkpt lat="44.55241" lon="6.07876">
        <ele>727.3747559</ele>
        <time>2013-12-05T09:56:52Z</time>
      </trkpt>
      <trkpt lat="44.55237" lon="6.07875">
        <ele>727.3747559</ele>
        <time>2013-12-05T09:56:54Z</time>
      </trkpt>
      <trkpt lat="44.5523" lon="6.07872">
        <ele>727.8552246</ele>
        <time>2013-12-05T09:56:57Z</time>
      </trkpt>
      <trkpt lat="44.55225" lon="6.0787">
        <ele>728.3359375</ele>
        <time>2013-12-05T09:57:01Z</time>
      </trkpt>
      <trkpt lat="44.55205" lon="6.07864">
        <ele>729.777832</ele>
        <time>2013-12-05T09:57:13Z</time>
      </trkpt>
      <trkpt lat="44.55203" lon="6.07863">
        <ele>730.2585449</ele>
        <time>2013-12-05T09:57:14Z</time>
      </trkpt>
      <trkpt lat="44.55182" lon="6.0786">
        <ele>731.7004395</ele>
        <time>2013-12-05T09:57:25Z</time>
      </trkpt>
      <trkpt lat="44.55182" lon="6.0786">
        <ele>732.1813965</ele>
        <time>2013-12-05T09:57:26Z</time>
      </trkpt>
      <trkpt lat="44.55165" lon="6.07861">
        <ele>733.1425781</ele>
        <time>2013-12-05T09:57:32Z</time>
      </trkpt>
      <trkpt lat="44.55129" lon="6.07864">
        <ele>736.0266113</ele>
        <time>2013-12-05T09:57:49Z</time>
      </trkpt>
      <trkpt lat="44.55105" lon="6.07863">
        <ele>736.987793</ele>
        <time>2013-12-05T09:57:59Z</time>
      </trkpt>
      <trkpt lat="44.5508" lon="6.07858">
        <ele>739.3911133</ele>
        <time>2013-12-05T09:58:12Z</time>
      </trkpt>
      <trkpt lat="44.55076" lon="6.07857">
        <ele>739.3911133</ele>
        <time>2013-12-05T09:58:14Z</time>
      </trkpt>
      <trkpt lat="44.55051" lon="6.07852">
        <ele>740.8330078</ele>
        <time>2013-12-05T09:58:27Z</time>
      </trkpt>
      <trkpt lat="44.55036" lon="6.07847">
        <ele>742.2751465</ele>
        <time>2013-12-05T09:58:35Z</time>
      </trkpt>
      <trkpt lat="44.54998" lon="6.07836">
        <ele>744.6782227</ele>
        <time>2013-12-05T09:58:53Z</time>
      </trkpt>
      <trkpt lat="44.54957" lon="6.0782">
        <ele>747.5622559</ele>
        <time>2013-12-05T09:59:12Z</time>
      </trkpt>
      <trkpt lat="44.54932" lon="6.07817">
        <ele>750.4465332</ele>
        <time>2013-12-05T09:59:28Z</time>
      </trkpt>
      <trkpt lat="44.54905" lon="6.07838">
        <ele>752.3688965</ele>
        <time>2013-12-05T09:59:44Z</time>
      </trkpt>
      <trkpt lat="44.54878" lon="6.07863">
        <ele>754.7722168</ele>
        <time>2013-12-05T09:59:59Z</time>
      </trkpt>
      <trkpt lat="44.54853" lon="6.0787">
        <ele>756.2141113</ele>
        <time>2013-12-05T10:00:11Z</time>
      </trkpt>
      <trkpt lat="44.54828" lon="6.07859">
        <ele>758.1369629</ele>
        <time>2013-12-05T10:00:24Z</time>
      </trkpt>
      <trkpt lat="44.54802" lon="6.0784">
        <ele>760.5400391</ele>
        <time>2013-12-05T10:00:38Z</time>
      </trkpt>
      <trkpt lat="44.54765" lon="6.0781">
        <ele>762.9433594</ele>
        <time>2013-12-05T10:00:56Z</time>
      </trkpt>
      <trkpt lat="44.5474" lon="6.07798">
        <ele>764.385498</ele>
        <time>2013-12-05T10:01:09Z</time>
      </trkpt>
      <trkpt lat="44.54735" lon="6.07795">
        <ele>764.8662109</ele>
        <time>2013-12-05T10:01:12Z</time>
      </trkpt>
      <trkpt lat="44.54729" lon="6.07792">
        <ele>765.8276367</ele>
        <time>2013-12-05T10:01:15Z</time>
      </trkpt>
      <trkpt lat="44.54725" lon="6.0779">
        <ele>766.3081055</ele>
        <time>2013-12-05T10:01:17Z</time>
      </trkpt>
      <trkpt lat="44.54718" lon="6.07787">
        <ele>766.7888184</ele>
        <time>2013-12-05T10:01:21Z</time>
      </trkpt>
      <trkpt lat="44.54685" lon="6.07775">
        <ele>768.7114258</ele>
        <time>2013-12-05T10:01:37Z</time>
      </trkpt>
      <trkpt lat="44.54651" lon="6.07761">
        <ele>772.0759277</ele>
        <time>2013-12-05T10:01:54Z</time>
      </trkpt>
      <trkpt lat="44.54618" lon="6.07748">
        <ele>774.9599609</ele>
        <time>2013-12-05T10:02:11Z</time>
      </trkpt>
      <trkpt lat="44.54579" lon="6.0775">
        <ele>777.3632813</ele>
        <time>2013-12-05T10:02:30Z</time>
      </trkpt>
      <trkpt lat="44.5454" lon="6.07779">
        <ele>780.2473145</ele>
        <time>2013-12-05T10:02:50Z</time>
      </trkpt>
      <trkpt lat="44.54505" lon="6.07808">
        <ele>783.1311035</ele>
        <time>2013-12-05T10:03:09Z</time>
      </trkpt>
      <trkpt lat="44.54499" lon="6.07825">
        <ele>784.0925293</ele>
        <time>2013-12-05T10:03:15Z</time>
      </trkpt>
      <trkpt lat="44.545" lon="6.07885">
        <ele>786.0151367</ele>
        <time>2013-12-05T10:03:35Z</time>
      </trkpt>
      <trkpt lat="44.54513" lon="6.07939">
        <ele>785.5344238</ele>
        <time>2013-12-05T10:03:51Z</time>
      </trkpt>
      <trkpt lat="44.54539" lon="6.08025">
        <ele>785.0539551</ele>
        <time>2013-12-05T10:04:09Z</time>
      </trkpt>
      <trkpt lat="44.54542" lon="6.08037">
        <ele>784.5732422</ele>
        <time>2013-12-05T10:04:11Z</time>
      </trkpt>
      <trkpt lat="44.54548" lon="6.08106">
        <ele>782.1699219</ele>
        <time>2013-12-05T10:04:22Z</time>
      </trkpt>
      <trkpt lat="44.54554" lon="6.0815">
        <ele>780.7280273</ele>
        <time>2013-12-05T10:04:28Z</time>
      </trkpt>
      <trkpt lat="44.54555" lon="6.08158">
        <ele>780.2473145</ele>
        <time>2013-12-05T10:04:29Z</time>
      </trkpt>
      <trkpt lat="44.54562" lon="6.0819">
        <ele>777.84375</ele>
        <time>2013-12-05T10:04:33Z</time>
      </trkpt>
      <trkpt lat="44.54566" lon="6.08208">
        <ele>776.8825684</ele>
        <time>2013-12-05T10:04:35Z</time>
      </trkpt>
      <trkpt lat="44.54585" lon="6.08304">
        <ele>773.5180664</ele>
        <time>2013-12-05T10:04:45Z</time>
      </trkpt>
      <trkpt lat="44.54589" lon="6.08325">
        <ele>772.0759277</ele>
        <time>2013-12-05T10:04:47Z</time>
      </trkpt>
      <trkpt lat="44.54597" lon="6.08369">
        <ele>770.6340332</ele>
        <time>2013-12-05T10:04:51Z</time>
      </trkpt>
      <trkpt lat="44.54601" lon="6.08391">
        <ele>769.1921387</ele>
        <time>2013-12-05T10:04:53Z</time>
      </trkpt>
      <trkpt lat="44.54612" lon="6.08445">
        <ele>766.3081055</ele>
        <time>2013-12-05T10:04:58Z</time>
      </trkpt>
      <trkpt lat="44.54619" lon="6.08489">
        <ele>762.9433594</ele>
        <time>2013-12-05T10:05:02Z</time>
      </trkpt>
      <trkpt lat="44.54619" lon="6.08521">
        <ele>761.5014648</ele>
        <time>2013-12-05T10:05:05Z</time>
      </trkpt>
      <trkpt lat="44.54615" lon="6.08552">
        <ele>762.9433594</ele>
        <time>2013-12-05T10:05:08Z</time>
      </trkpt>
      <trkpt lat="44.54602" lon="6.08581">
        <ele>760.5400391</ele>
        <time>2013-12-05T10:05:12Z</time>
      </trkpt>
      <trkpt lat="44.54599" lon="6.08587">
        <ele>760.0593262</ele>
        <time>2013-12-05T10:05:13Z</time>
      </trkpt>
      <trkpt lat="44.54571" lon="6.08632">
        <ele>763.4240723</ele>
        <time>2013-12-05T10:05:25Z</time>
      </trkpt>
      <trkpt lat="44.54551" lon="6.08663">
        <ele>765.8276367</ele>
        <time>2013-12-05T10:05:39Z</time>
      </trkpt>
      <trkpt lat="44.54527" lon="6.08707">
        <ele>768.2307129</ele>
        <time>2013-12-05T10:05:56Z</time>
      </trkpt>
      <trkpt lat="44.54519" lon="6.08753">
        <ele>770.1533203</ele>
        <time>2013-12-05T10:06:10Z</time>
      </trkpt>
      <trkpt lat="44.54512" lon="6.08812">
        <ele>773.0373535</ele>
        <time>2013-12-05T10:06:30Z</time>
      </trkpt>
      <trkpt lat="44.54503" lon="6.08869">
        <ele>774.9599609</ele>
        <time>2013-12-05T10:06:49Z</time>
      </trkpt>
      <trkpt lat="44.54497" lon="6.0892">
        <ele>776.8825684</ele>
        <time>2013-12-05T10:07:06Z</time>
      </trkpt>
      <trkpt lat="44.54487" lon="6.08995">
        <ele>779.7663574</ele>
        <time>2013-12-05T10:07:29Z</time>
      </trkpt>
      <trkpt lat="44.54481" lon="6.09047">
        <ele>781.689209</ele>
        <time>2013-12-05T10:07:46Z</time>
      </trkpt>
      <trkpt lat="44.54473" lon="6.09111">
        <ele>782.6506348</ele>
        <time>2013-12-05T10:08:07Z</time>
      </trkpt>
      <trkpt lat="44.54458" lon="6.09151">
        <ele>785.0539551</ele>
        <time>2013-12-05T10:08:24Z</time>
      </trkpt>
      <trkpt lat="44.54435" lon="6.09153">
        <ele>788.418457</ele>
        <time>2013-12-05T10:08:33Z</time>
      </trkpt>
      <trkpt lat="44.54423" lon="6.09145">
        <ele>789.3796387</ele>
        <time>2013-12-05T10:08:38Z</time>
      </trkpt>
      <trkpt lat="44.54401" lon="6.09111">
        <ele>791.3022461</ele>
        <time>2013-12-05T10:08:52Z</time>
      </trkpt>
      <trkpt lat="44.54374" lon="6.09077">
        <ele>793.7055664</ele>
        <time>2013-12-05T10:09:09Z</time>
      </trkpt>
      <trkpt lat="44.54334" lon="6.0906">
        <ele>795.6281738</ele>
        <time>2013-12-05T10:09:26Z</time>
      </trkpt>
      <trkpt lat="44.54294" lon="6.09045">
        <ele>798.512207</ele>
        <time>2013-12-05T10:09:45Z</time>
      </trkpt>
      <trkpt lat="44.54248" lon="6.09033">
        <ele>802.3574219</ele>
        <time>2013-12-05T10:10:05Z</time>
      </trkpt>
      <trkpt lat="44.54206" lon="6.09049">
        <ele>804.2802734</ele>
        <time>2013-12-05T10:10:25Z</time>
      </trkpt>
      <trkpt lat="44.54172" lon="6.09069">
        <ele>807.1640625</ele>
        <time>2013-12-05T10:10:43Z</time>
      </trkpt>
      <trkpt lat="44.54128" lon="6.09095">
        <ele>810.5285645</ele>
        <time>2013-12-05T10:11:04Z</time>
      </trkpt>
      <trkpt lat="44.54088" lon="6.09114">
        <ele>813.4128418</ele>
        <time>2013-12-05T10:11:23Z</time>
      </trkpt>
      <trkpt lat="44.54049" lon="6.09103">
        <ele>816.7773438</ele>
        <time>2013-12-05T10:11:42Z</time>
      </trkpt>
      <trkpt lat="44.54003" lon="6.09067">
        <ele>819.661377</ele>
        <time>2013-12-05T10:12:06Z</time>
      </trkpt>
      <trkpt lat="44.5395" lon="6.0905">
        <ele>822.0644531</ele>
        <time>2013-12-05T10:12:29Z</time>
      </trkpt>
      <trkpt lat="44.53909" lon="6.09043">
        <ele>823.9870605</ele>
        <time>2013-12-05T10:12:48Z</time>
      </trkpt>
      <trkpt lat="44.53866" lon="6.0902">
        <ele>827.8322754</ele>
        <time>2013-12-05T10:13:09Z</time>
      </trkpt>
      <trkpt lat="44.53825" lon="6.09006">
        <ele>829.2744141</ele>
        <time>2013-12-05T10:13:26Z</time>
      </trkpt>
      <trkpt lat="44.53777" lon="6.09">
        <ele>832.6391602</ele>
        <time>2013-12-05T10:13:47Z</time>
      </trkpt>
      <trkpt lat="44.53731" lon="6.09001">
        <ele>835.5229492</ele>
        <time>2013-12-05T10:14:08Z</time>
      </trkpt>
      <trkpt lat="44.53697" lon="6.09019">
        <ele>836.484375</ele>
        <time>2013-12-05T10:14:23Z</time>
      </trkpt>
      <trkpt lat="44.53659" lon="6.09047">
        <ele>836.9648438</ele>
        <time>2013-12-05T10:14:40Z</time>
      </trkpt>
      <trkpt lat="44.53619" lon="6.09075">
        <ele>838.4069824</ele>
        <time>2013-12-05T10:14:57Z</time>
      </trkpt>
      <trkpt lat="44.53574" lon="6.09108">
        <ele>838.4069824</ele>
        <time>2013-12-05T10:15:14Z</time>
      </trkpt>
      <trkpt lat="44.53498" lon="6.09166">
        <ele>839.3681641</ele>
        <time>2013-12-05T10:15:38Z</time>
      </trkpt>
      <trkpt lat="44.53463" lon="6.09214">
        <ele>840.8100586</ele>
        <time>2013-12-05T10:15:53Z</time>
      </trkpt>
      <trkpt lat="44.5342" lon="6.09244">
        <ele>841.7714844</ele>
        <time>2013-12-05T10:16:09Z</time>
      </trkpt>
      <trkpt lat="44.53366" lon="6.09269">
        <ele>841.2907715</ele>
        <time>2013-12-05T10:16:25Z</time>
      </trkpt>
      <trkpt lat="44.53321" lon="6.09296">
        <ele>839.848877</ele>
        <time>2013-12-05T10:16:37Z</time>
      </trkpt>
      <trkpt lat="44.53307" lon="6.09314">
        <ele>837.9262695</ele>
        <time>2013-12-05T10:16:41Z</time>
      </trkpt>
      <trkpt lat="44.533" lon="6.09348">
        <ele>836.9648438</ele>
        <time>2013-12-05T10:16:46Z</time>
      </trkpt>
      <trkpt lat="44.53302" lon="6.0939">
        <ele>834.5617676</ele>
        <time>2013-12-05T10:16:51Z</time>
      </trkpt>
      <trkpt lat="44.53302" lon="6.09419">
        <ele>832.1584473</ele>
        <time>2013-12-05T10:16:54Z</time>
      </trkpt>
      <trkpt lat="44.53315" lon="6.09501">
        <ele>829.755127</ele>
        <time>2013-12-05T10:17:03Z</time>
      </trkpt>
      <trkpt lat="44.53295" lon="6.09529">
        <ele>827.8322754</ele>
        <time>2013-12-05T10:17:09Z</time>
      </trkpt>
      <trkpt lat="44.53277" lon="6.09528">
        <ele>827.3518066</ele>
        <time>2013-12-05T10:17:12Z</time>
      </trkpt>
      <trkpt lat="44.53247" lon="6.09555">
        <ele>824.4677734</ele>
        <time>2013-12-05T10:17:17Z</time>
      </trkpt>
      <trkpt lat="44.53234" lon="6.09606">
        <ele>821.5837402</ele>
        <time>2013-12-05T10:17:23Z</time>
      </trkpt>
      <trkpt lat="44.53235" lon="6.09631">
        <ele>821.5837402</ele>
        <time>2013-12-05T10:17:26Z</time>
      </trkpt>
      <trkpt lat="44.53211" lon="6.09652">
        <ele>821.5837402</ele>
        <time>2013-12-05T10:17:33Z</time>
      </trkpt>
      <trkpt lat="44.53208" lon="6.09646">
        <ele>822.545166</ele>
        <time>2013-12-05T10:17:35Z</time>
      </trkpt>
      <trkpt lat="44.53193" lon="6.09608">
        <ele>824.9484863</ele>
        <time>2013-12-05T10:17:49Z</time>
      </trkpt>
      <trkpt lat="44.53178" lon="6.0957">
        <ele>826.3903809</ele>
        <time>2013-12-05T10:18:03Z</time>
      </trkpt>
      <trkpt lat="44.53165" lon="6.09543">
        <ele>827.3518066</ele>
        <time>2013-12-05T10:18:13Z</time>
      </trkpt>
      <trkpt lat="44.53133" lon="6.09506">
        <ele>829.755127</ele>
        <time>2013-12-05T10:18:29Z</time>
      </trkpt>
      <trkpt lat="44.53091" lon="6.09484">
        <ele>832.6391602</ele>
        <time>2013-12-05T10:18:48Z</time>
      </trkpt>
      <trkpt lat="44.53073" lon="6.09514">
        <ele>834.0810547</ele>
        <time>2013-12-05T10:19:01Z</time>
      </trkpt>
      <trkpt lat="44.5308" lon="6.09561">
        <ele>843.2109375</ele>
      </trkpt>
      <trkpt lat="44.53062" lon="6.09615">
        <ele>850.765625</ele>
      </trkpt>
      <trkpt lat="44.53017" lon="6.09637">
        <ele>848.3320313</ele>
      </trkpt>
      <trkpt lat="44.52963" lon="6.09637">
        <ele>849.46875</ele>
      </trkpt>
      <trkpt lat="44.52918" lon="6.09615">
        <ele>851.109375</ele>
      </trkpt>
      <trkpt lat="44.52864" lon="6.09615">
        <ele>855.3164063</ele>
      </trkpt>
      <trkpt lat="44.52819" lon="6.09637">
        <ele>857.8789063</ele>
      </trkpt>
      <trkpt lat="44.52783" lon="6.0967">
        <ele>862.0390625</ele>
      </trkpt>
      <trkpt lat="44.52739" lon="6.09703">
        <ele>859</ele>
      </trkpt>
      <trkpt lat="44.52694" lon="6.09725">
        <ele>862.2070313</ele>
      </trkpt>
      <trkpt lat="44.52649" lon="6.09747">
        <ele>865.765625</ele>
      </trkpt>
      <trkpt lat="44.52604" lon="6.09769">
        <ele>865.375</ele>
      </trkpt>
      <trkpt lat="44.52586" lon="6.09824">
        <ele>868.7226563</ele>
      </trkpt>
      <trkpt lat="44.52604" lon="6.0989">
        <ele>879.2226563</ele>
      </trkpt>
      <trkpt lat="44.52613" lon="6.09966">
        <ele>891.4140625</ele>
      </trkpt>
      <trkpt lat="44.52613" lon="6.10043">
        <ele>898.5117188</ele>
      </trkpt>
      <trkpt lat="44.52604" lon="6.10109">
        <ele>899.6601563</ele>
      </trkpt>
      <trkpt lat="44.52568" lon="6.10153">
        <ele>887.0703125</ele>
      </trkpt>
      <trkpt lat="44.52523" lon="6.10131">
        <ele>879.9257813</ele>
      </trkpt>
      <trkpt lat="44.52523" lon="6.10054">
        <ele>876.1953125</ele>
      </trkpt>
      <trkpt lat="44.52505" lon="6.09999">
        <ele>876.421875</ele>
      </trkpt>
      <trkpt lat="44.52478" lon="6.09955">
        <ele>880.9414063</ele>
      </trkpt>
      <trkpt lat="44.52424" lon="6.09944">
        <ele>894.9179688</ele>
      </trkpt>
      <trkpt lat="44.5237" lon="6.09944">
        <ele>901.9960938</ele>
      </trkpt>
      <trkpt lat="44.52307" lon="6.09944">
        <ele>903.3242188</ele>
      </trkpt>
      <trkpt lat="44.52249" lon="6.09983">
        <ele>910.9335938</ele>
      </trkpt>
      <trkpt lat="44.52222" lon="6.09983">
        <ele>909.0742188</ele>
      </trkpt>
      <trkpt lat="44.52195" lon="6.09983">
        <ele>910.2890625</ele>
      </trkpt>
      <trkpt lat="44.52173" lon="6.09966">
        <ele>908.0039063</ele>
      </trkpt>
      <trkpt lat="44.52155" lon="6.0995">
        <ele>905.3789063</ele>
      </trkpt>
      <trkpt lat="44.52123" lon="6.0995">
        <ele>908.9023438</ele>
      </trkpt>
      <trkpt lat="44.52092" lon="6.0995">
        <ele>913.9179688</ele>
      </trkpt>
      <trkpt lat="44.5206" lon="6.0995">
        <ele>918.171875</ele>
      </trkpt>
      <trkpt lat="44.52033" lon="6.09955">
        <ele>922.2421875</ele>
      </trkpt>
      <trkpt lat="44.52002" lon="6.09955">
        <ele>924.0078125</ele>
      </trkpt>
      <trkpt lat="44.51975" lon="6.09961">
        <ele>926.7578125</ele>
      </trkpt>
      <trkpt lat="44.51957" lon="6.09944">
        <ele>924.6054688</ele>
      </trkpt>
      <trkpt lat="44.5193" lon="6.09933">
        <ele>924.4570313</ele>
      </trkpt>
      <trkpt lat="44.51908" lon="6.09928">
        <ele>924.0976563</ele>
      </trkpt>
      <trkpt lat="44.51903" lon="6.09961">
        <ele>932.78125</ele>
      </trkpt>
      <trkpt lat="44.51899" lon="6.09999">
        <ele>941.453125</ele>
      </trkpt>
      <trkpt lat="44.5189" lon="6.10032">
        <ele>946.8320313</ele>
      </trkpt>
      <trkpt lat="44.51881" lon="6.1006">
        <ele>949.9726563</ele>
      </trkpt>
      <trkpt lat="44.51872" lon="6.10103">
        <ele>952.625</ele>
      </trkpt>
      <trkpt lat="44.51863" lon="6.10136">
        <ele>950.953125</ele>
      </trkpt>
      <trkpt lat="44.51863" lon="6.10175">
        <ele>949.9804688</ele>
      </trkpt>
      <trkpt lat="44.51858" lon="6.10213">
        <ele>949.984375</ele>
      </trkpt>
      <trkpt lat="44.51836" lon="6.10224">
        <ele>948.1015625</ele>
      </trkpt>
      <trkpt lat="44.51818" lon="6.10208">
        <ele>944.3867188</ele>
      </trkpt>
      <trkpt lat="44.51813" lon="6.10169">
        <ele>938.3867188</ele>
      </trkpt>
      <trkpt lat="44.51791" lon="6.10158">
        <ele>936.4257813</ele>
      </trkpt>
      <trkpt lat="44.51777" lon="6.10131">
        <ele>937.6757813</ele>
      </trkpt>
      <trkpt lat="44.51764" lon="6.10098">
        <ele>939.0351563</ele>
      </trkpt>
      <trkpt lat="44.5175" lon="6.10071">
        <ele>941</ele>
      </trkpt>
      <trkpt lat="44.51737" lon="6.10043">
        <ele>941.5117188</ele>
      </trkpt>
      <trkpt lat="44.51719" lon="6.10027">
        <ele>945.5625</ele>
      </trkpt>
      <trkpt lat="44.51696" lon="6.10016">
        <ele>951.0625</ele>
      </trkpt>
      <trkpt lat="44.51674" lon="6.10005">
        <ele>954.1328125</ele>
      </trkpt>
      <trkpt lat="44.51647" lon="6.09994">
        <ele>957.0976563</ele>
      </trkpt>
      <trkpt lat="44.51625" lon="6.09983">
        <ele>960.4609375</ele>
      </trkpt>
      <trkpt lat="44.51598" lon="6.09977">
        <ele>966.8242188</ele>
      </trkpt>
      <trkpt lat="44.51571" lon="6.09972">
        <ele>971.6953125</ele>
      </trkpt>
      <trkpt lat="44.51544" lon="6.09966">
        <ele>974.09375</ele>
      </trkpt>
      <trkpt lat="44.51517" lon="6.09961">
        <ele>975.6523438</ele>
      </trkpt>
      <trkpt lat="44.5149" lon="6.09961">
        <ele>978.1015625</ele>
      </trkpt>
      <trkpt lat="44.51463" lon="6.09961">
        <ele>979.3789063</ele>
      </trkpt>
      <trkpt lat="44.51431" lon="6.09966">
        <ele>980.6992188</ele>
      </trkpt>
      <trkpt lat="44.51409" lon="6.09977">
        <ele>982.0664063</ele>
      </trkpt>
      <trkpt lat="44.51391" lon="6.09999">
        <ele>985.2265625</ele>
      </trkpt>
      <trkpt lat="44.51373" lon="6.10021">
        <ele>987.0625</ele>
      </trkpt>
      <trkpt lat="44.51355" lon="6.10038">
        <ele>987.9375</ele>
      </trkpt>
      <trkpt lat="44.51333" lon="6.10049">
        <ele>987.2773438</ele>
      </trkpt>
      <trkpt lat="44.5131" lon="6.10065">
        <ele>987.015625</ele>
      </trkpt>
      <trkpt lat="44.51297" lon="6.10087">
        <ele>985.9414063</ele>
      </trkpt>
      <trkpt lat="44.51279" lon="6.10103">
        <ele>984.1171875</ele>
      </trkpt>
      <trkpt lat="44.51256" lon="6.10114">
        <ele>982.0859375</ele>
      </trkpt>
      <trkpt lat="44.51238" lon="6.10142">
        <ele>981.1328125</ele>
      </trkpt>
      <trkpt lat="44.5122" lon="6.10164">
        <ele>980.4140625</ele>
      </trkpt>
      <trkpt lat="44.51207" lon="6.10191">
        <ele>980.4296875</ele>
      </trkpt>
      <trkpt lat="44.51202" lon="6.10224">
        <ele>981.3359375</ele>
      </trkpt>
      <trkpt lat="44.51202" lon="6.1024">
        <ele>981.8828125</ele>
      </trkpt>
      <trkpt lat="44.51224" lon="6.10222">
        <ele>970.1074219</ele>
        <time>2013-12-05T10:39:18Z</time>
      </trkpt>
      <trkpt lat="44.51225" lon="6.1022">
        <ele>972.5109863</ele>
        <time>2013-12-05T10:39:37Z</time>
      </trkpt>
      <trkpt lat="44.51225" lon="6.1022">
        <ele>970.5881348</ele>
        <time>2013-12-05T10:39:39Z</time>
      </trkpt>
      <trkpt lat="44.51226" lon="6.10219">
        <ele>969.6269531</ele>
        <time>2013-12-05T10:39:52Z</time>
      </trkpt>
      <trkpt lat="44.51226" lon="6.1022">
        <ele>971.5493164</ele>
        <time>2013-12-05T10:39:54Z</time>
      </trkpt>
      <trkpt lat="44.51226" lon="6.1022">
        <ele>971.0688477</ele>
        <time>2013-12-05T10:40:19Z</time>
      </trkpt>
      <trkpt lat="44.51226" lon="6.1022">
        <ele>972.5109863</ele>
        <time>2013-12-05T10:40:30Z</time>
      </trkpt>
      <trkpt lat="44.51225" lon="6.10222">
        <ele>972.5109863</ele>
        <time>2013-12-05T10:40:35Z</time>
      </trkpt>
      <trkpt lat="44.51206" lon="6.10231">
        <ele>970.1074219</ele>
        <time>2013-12-05T10:40:42Z</time>
      </trkpt>
      <trkpt lat="44.51201" lon="6.10236">
        <ele>971.5493164</ele>
        <time>2013-12-05T10:40:44Z</time>
      </trkpt>
      <trkpt lat="44.5117" lon="6.10261">
        <ele>971.5493164</ele>
        <time>2013-12-05T10:40:53Z</time>
      </trkpt>
      <trkpt lat="44.51162" lon="6.1027">
        <ele>969.1462402</ele>
        <time>2013-12-05T10:40:55Z</time>
      </trkpt>
      <trkpt lat="44.51142" lon="6.103">
        <ele>968.6655273</ele>
        <time>2013-12-05T10:41:06Z</time>
      </trkpt>
      <trkpt lat="44.51142" lon="6.103">
        <ele>969.1462402</ele>
        <time>2013-12-05T10:41:18Z</time>
      </trkpt>
      <trkpt lat="44.51142" lon="6.103">
        <ele>970.5881348</ele>
        <time>2013-12-05T10:41:25Z</time>
      </trkpt>
      <trkpt lat="44.51144" lon="6.10298">
        <ele>968.6655273</ele>
        <time>2013-12-05T10:41:39Z</time>
      </trkpt>
      <trkpt lat="44.51144" lon="6.10298">
        <ele>971.0688477</ele>
        <time>2013-12-05T10:41:45Z</time>
      </trkpt>
      <trkpt lat="44.51144" lon="6.10298">
        <ele>970.5881348</ele>
        <time>2013-12-05T10:41:52Z</time>
      </trkpt>
      <trkpt lat="44.51141" lon="6.10302">
        <ele>969.1462402</ele>
        <time>2013-12-05T10:41:55Z</time>
      </trkpt>
      <trkpt lat="44.5114" lon="6.10304">
        <ele>966.7429199</ele>
        <time>2013-12-05T10:41:56Z</time>
      </trkpt>
      <trkpt lat="44.51129" lon="6.1032">
        <ele>966.262207</ele>
        <time>2013-12-05T10:42:00Z</time>
      </trkpt>
      <trkpt lat="44.51112" lon="6.10348">
        <ele>964.3395996</ele>
        <time>2013-12-05T10:42:04Z</time>
      </trkpt>
      <trkpt lat="44.51102" lon="6.10363">
        <ele>960.9750977</ele>
        <time>2013-12-05T10:42:06Z</time>
      </trkpt>
      <trkpt lat="44.51097" lon="6.10369">
        <ele>960.9750977</ele>
        <time>2013-12-05T10:42:07Z</time>
      </trkpt>
      <trkpt lat="44.51079" lon="6.10397">
        <ele>961.4558105</ele>
        <time>2013-12-05T10:42:10Z</time>
      </trkpt>
      <trkpt lat="44.51067" lon="6.10417">
        <ele>960.4943848</ele>
        <time>2013-12-05T10:42:13Z</time>
      </trkpt>
      <trkpt lat="44.51067" lon="6.1043">
        <ele>958.0913086</ele>
        <time>2013-12-05T10:42:15Z</time>
      </trkpt>
      <trkpt lat="44.51081" lon="6.10475">
        <ele>956.168457</ele>
        <time>2013-12-05T10:42:21Z</time>
      </trkpt>
      <trkpt lat="44.51089" lon="6.10502">
        <ele>954.7263184</ele>
        <time>2013-12-05T10:42:25Z</time>
      </trkpt>
      <trkpt lat="44.51099" lon="6.10533">
        <ele>949.9199219</ele>
        <time>2013-12-05T10:42:29Z</time>
      </trkpt>
      <trkpt lat="44.51102" lon="6.10542">
        <ele>949.9199219</ele>
        <time>2013-12-05T10:42:30Z</time>
      </trkpt>
      <trkpt lat="44.51056" lon="6.10625">
        <ele>947.9973145</ele>
        <time>2013-12-05T10:42:34Z</time>
      </trkpt>
      <trkpt lat="44.51042" lon="6.10658">
        <ele>944.6325684</ele>
        <time>2013-12-05T10:42:37Z</time>
      </trkpt>
      <trkpt lat="44.5103" lon="6.10679">
        <ele>943.1906738</ele>
        <time>2013-12-05T10:42:39Z</time>
      </trkpt>
      <trkpt lat="44.51017" lon="6.10701">
        <ele>941.2680664</ele>
        <time>2013-12-05T10:42:41Z</time>
      </trkpt>
      <trkpt lat="44.50982" lon="6.10756">
        <ele>938.8647461</ele>
        <time>2013-12-05T10:42:46Z</time>
      </trkpt>
      <trkpt lat="44.50952" lon="6.10805">
        <ele>935.9807129</ele>
        <time>2013-12-05T10:42:51Z</time>
      </trkpt>
      <trkpt lat="44.50929" lon="6.10839">
        <ele>934.5388184</ele>
        <time>2013-12-05T10:42:55Z</time>
      </trkpt>
      <trkpt lat="44.50902" lon="6.10875">
        <ele>932.135498</ele>
        <time>2013-12-05T10:43:00Z</time>
      </trkpt>
      <trkpt lat="44.50895" lon="6.10881">
        <ele>929.7321777</ele>
        <time>2013-12-05T10:43:01Z</time>
      </trkpt>
      <trkpt lat="44.50815" lon="6.10913">
        <ele>930.6936035</ele>
        <time>2013-12-05T10:43:12Z</time>
      </trkpt>
      <trkpt lat="44.50743" lon="6.10932">
        <ele>929.2514648</ele>
        <time>2013-12-05T10:43:24Z</time>
      </trkpt>
      <trkpt lat="44.50654" lon="6.10959">
        <ele>927.8095703</ele>
        <time>2013-12-05T10:43:41Z</time>
      </trkpt>
      <trkpt lat="44.50643" lon="6.10962">
        <ele>926.3676758</ele>
        <time>2013-12-05T10:43:43Z</time>
      </trkpt>
      <trkpt lat="44.50619" lon="6.10968">
        <ele>924.9257813</ele>
        <time>2013-12-05T10:43:47Z</time>
      </trkpt>
      <trkpt lat="44.50551" lon="6.10989">
        <ele>924.4450684</ele>
        <time>2013-12-05T10:43:59Z</time>
      </trkpt>
      <trkpt lat="44.50513" lon="6.11">
        <ele>924.9257813</ele>
        <time>2013-12-05T10:44:07Z</time>
      </trkpt>
      <trkpt lat="44.50466" lon="6.11012">
        <ele>921.560791</ele>
        <time>2013-12-05T10:44:17Z</time>
      </trkpt>
      <trkpt lat="44.50435" lon="6.11053">
        <ele>919.1577148</ele>
        <time>2013-12-05T10:44:25Z</time>
      </trkpt>
      <trkpt lat="44.50429" lon="6.1107">
        <ele>917.2351074</ele>
        <time>2013-12-05T10:44:27Z</time>
      </trkpt>
      <trkpt lat="44.50421" lon="6.1109">
        <ele>915.3125</ele>
        <time>2013-12-05T10:44:29Z</time>
      </trkpt>
      <trkpt lat="44.50418" lon="6.111">
        <ele>914.8317871</ele>
        <time>2013-12-05T10:44:30Z</time>
      </trkpt>
      <trkpt lat="44.50386" lon="6.11148">
        <ele>912.4284668</ele>
        <time>2013-12-05T10:44:36Z</time>
      </trkpt>
      <trkpt lat="44.50368" lon="6.11156">
        <ele>911.4672852</ele>
        <time>2013-12-05T10:44:39Z</time>
      </trkpt>
      <trkpt lat="44.50367" lon="6.11179">
        <ele>910.9865723</ele>
        <time>2013-12-05T10:44:41Z</time>
      </trkpt>
      <trkpt lat="44.50358" lon="6.1119">
        <ele>909.5446777</ele>
        <time>2013-12-05T10:44:43Z</time>
      </trkpt>
      <trkpt lat="44.50328" lon="6.11162">
        <ele>907.6218262</ele>
        <time>2013-12-05T10:44:45Z</time>
      </trkpt>
      <trkpt lat="44.50278" lon="6.1116">
        <ele>903.2958984</ele>
        <time>2013-12-05T10:44:51Z</time>
      </trkpt>
      <trkpt lat="44.50268" lon="6.1116">
        <ele>903.2958984</ele>
        <time>2013-12-05T10:44:52Z</time>
      </trkpt>
      <trkpt lat="44.5025" lon="6.11157">
        <ele>901.8540039</ele>
        <time>2013-12-05T10:44:54Z</time>
      </trkpt>
      <trkpt lat="44.50226" lon="6.11152">
        <ele>900.4121094</ele>
        <time>2013-12-05T10:44:57Z</time>
      </trkpt>
      <trkpt lat="44.5021" lon="6.11149">
        <ele>898.9699707</ele>
        <time>2013-12-05T10:44:59Z</time>
      </trkpt>
      <trkpt lat="44.50184" lon="6.11143">
        <ele>897.0473633</ele>
        <time>2013-12-05T10:45:02Z</time>
      </trkpt>
      <trkpt lat="44.50167" lon="6.1114">
        <ele>896.0861816</ele>
        <time>2013-12-05T10:45:04Z</time>
      </trkpt>
      <trkpt lat="44.5011" lon="6.11151">
        <ele>893.6828613</ele>
        <time>2013-12-05T10:45:11Z</time>
      </trkpt>
      <trkpt lat="44.50077" lon="6.11149">
        <ele>890.798584</ele>
        <time>2013-12-05T10:45:15Z</time>
      </trkpt>
      <trkpt lat="44.50037" lon="6.11142">
        <ele>887.9147949</ele>
        <time>2013-12-05T10:45:20Z</time>
      </trkpt>
      <trkpt lat="44.50024" lon="6.11142">
        <ele>887.434082</ele>
        <time>2013-12-05T10:45:22Z</time>
      </trkpt>
      <trkpt lat="44.50002" lon="6.11146">
        <ele>885.9921875</ele>
        <time>2013-12-05T10:45:25Z</time>
      </trkpt>
      <trkpt lat="44.49986" lon="6.11189">
        <ele>884.550293</ele>
        <time>2013-12-05T10:45:31Z</time>
      </trkpt>
      <trkpt lat="44.49997" lon="6.11214">
        <ele>883.1081543</ele>
        <time>2013-12-05T10:45:34Z</time>
      </trkpt>
      <trkpt lat="44.50009" lon="6.11228">
        <ele>881.185791</ele>
        <time>2013-12-05T10:45:36Z</time>
      </trkpt>
      <trkpt lat="44.50034" lon="6.11258">
        <ele>878.7824707</ele>
        <time>2013-12-05T10:45:40Z</time>
      </trkpt>
      <trkpt lat="44.50043" lon="6.11277">
        <ele>875.8981934</ele>
        <time>2013-12-05T10:45:42Z</time>
      </trkpt>
      <trkpt lat="44.50044" lon="6.11287">
        <ele>875.8981934</ele>
        <time>2013-12-05T10:45:43Z</time>
      </trkpt>
      <trkpt lat="44.5002" lon="6.11316">
        <ele>874.4562988</ele>
        <time>2013-12-05T10:45:48Z</time>
      </trkpt>
      <trkpt lat="44.50014" lon="6.11317">
        <ele>872.5336914</ele>
        <time>2013-12-05T10:45:49Z</time>
      </trkpt>
      <trkpt lat="44.49991" lon="6.11321">
        <ele>870.611084</ele>
        <time>2013-12-05T10:45:52Z</time>
      </trkpt>
      <trkpt lat="44.49965" lon="6.11322">
        <ele>868.2077637</ele>
        <time>2013-12-05T10:45:55Z</time>
      </trkpt>
      <trkpt lat="44.49889" lon="6.11345">
        <ele>866.7658691</ele>
        <time>2013-12-05T10:46:04Z</time>
      </trkpt>
      <trkpt lat="44.49881" lon="6.11348">
        <ele>862.4399414</ele>
        <time>2013-12-05T10:46:05Z</time>
      </trkpt>
      <trkpt lat="44.49819" lon="6.11403">
        <ele>860.517334</ele>
        <time>2013-12-05T10:46:13Z</time>
      </trkpt>
      <trkpt lat="44.49806" lon="6.11419">
        <ele>860.9980469</ele>
        <time>2013-12-05T10:46:15Z</time>
      </trkpt>
      <trkpt lat="44.49793" lon="6.11431">
        <ele>856.671875</ele>
        <time>2013-12-05T10:46:17Z</time>
      </trkpt>
      <trkpt lat="44.49785" lon="6.11431">
        <ele>856.671875</ele>
        <time>2013-12-05T10:46:18Z</time>
      </trkpt>
      <trkpt lat="44.49777" lon="6.1143">
        <ele>855.2299805</ele>
        <time>2013-12-05T10:46:19Z</time>
      </trkpt>
      <trkpt lat="44.49757" lon="6.11431">
        <ele>857.1525879</ele>
        <time>2013-12-05T10:46:22Z</time>
      </trkpt>
      <trkpt lat="44.4974" lon="6.11478">
        <ele>854.7492676</ele>
        <time>2013-12-05T10:46:29Z</time>
      </trkpt>
      <trkpt lat="44.49742" lon="6.1151">
        <ele>851.3847656</ele>
        <time>2013-12-05T10:46:32Z</time>
      </trkpt>
      <trkpt lat="44.49744" lon="6.11533">
        <ele>848.9814453</ele>
        <time>2013-12-05T10:46:34Z</time>
      </trkpt>
      <trkpt lat="44.49746" lon="6.11564">
        <ele>847.5395508</ele>
        <time>2013-12-05T10:46:37Z</time>
      </trkpt>
      <trkpt lat="44.49723" lon="6.11599">
        <ele>847.0588379</ele>
        <time>2013-12-05T10:46:43Z</time>
      </trkpt>
      <trkpt lat="44.49709" lon="6.11578">
        <ele>844.6555176</ele>
        <time>2013-12-05T10:46:46Z</time>
      </trkpt>
      <trkpt lat="44.49699" lon="6.11553">
        <ele>843.2133789</ele>
        <time>2013-12-05T10:46:49Z</time>
      </trkpt>
      <trkpt lat="44.49671" lon="6.11532">
        <ele>840.3295898</ele>
        <time>2013-12-05T10:46:53Z</time>
      </trkpt>
      <trkpt lat="44.49654" lon="6.11526">
        <ele>838.4069824</ele>
        <time>2013-12-05T10:46:55Z</time>
      </trkpt>
      <trkpt lat="44.49636" lon="6.11522">
        <ele>836.484375</ele>
        <time>2013-12-05T10:46:57Z</time>
      </trkpt>
      <trkpt lat="44.49607" lon="6.11515">
        <ele>834.0810547</ele>
        <time>2013-12-05T10:47:00Z</time>
      </trkpt>
      <trkpt lat="44.49566" lon="6.11474">
        <ele>831.6777344</ele>
        <time>2013-12-05T10:47:06Z</time>
      </trkpt>
      <trkpt lat="44.49556" lon="6.11453">
        <ele>830.7165527</ele>
        <time>2013-12-05T10:47:08Z</time>
      </trkpt>
      <trkpt lat="44.49537" lon="6.11429">
        <ele>829.2744141</ele>
        <time>2013-12-05T10:47:11Z</time>
      </trkpt>
      <trkpt lat="44.49529" lon="6.11422">
        <ele>827.8322754</ele>
        <time>2013-12-05T10:47:12Z</time>
      </trkpt>
      <trkpt lat="44.49504" lon="6.11401">
        <ele>823.5065918</ele>
        <time>2013-12-05T10:47:15Z</time>
      </trkpt>
      <trkpt lat="44.49495" lon="6.11396">
        <ele>823.5065918</ele>
        <time>2013-12-05T10:47:16Z</time>
      </trkpt>
      <trkpt lat="44.49444" lon="6.11366">
        <ele>820.6225586</ele>
        <time>2013-12-05T10:47:22Z</time>
      </trkpt>
      <trkpt lat="44.494" lon="6.11379">
        <ele>819.661377</ele>
        <time>2013-12-05T10:47:30Z</time>
      </trkpt>
      <trkpt lat="44.49406" lon="6.11427">
        <ele>817.7385254</ele>
        <time>2013-12-05T10:47:36Z</time>
      </trkpt>
      <trkpt lat="44.49411" lon="6.11444">
        <ele>816.7773438</ele>
        <time>2013-12-05T10:47:38Z</time>
      </trkpt>
      <trkpt lat="44.49416" lon="6.11473">
        <ele>814.3740234</ele>
        <time>2013-12-05T10:47:41Z</time>
      </trkpt>
      <trkpt lat="44.49414" lon="6.11506">
        <ele>812.451416</ele>
        <time>2013-12-05T10:47:44Z</time>
      </trkpt>
      <trkpt lat="44.49411" lon="6.11518">
        <ele>811.4899902</ele>
        <time>2013-12-05T10:47:45Z</time>
      </trkpt>
      <trkpt lat="44.49406" lon="6.11549">
        <ele>810.0478516</ele>
        <time>2013-12-05T10:47:48Z</time>
      </trkpt>
      <trkpt lat="44.49369" lon="6.11577">
        <ele>809.5673828</ele>
        <time>2013-12-05T10:47:56Z</time>
      </trkpt>
      <trkpt lat="44.49362" lon="6.11525">
        <ele>807.6447754</ele>
        <time>2013-12-05T10:48:02Z</time>
      </trkpt>
      <trkpt lat="44.49366" lon="6.11516">
        <ele>807.6447754</ele>
        <time>2013-12-05T10:48:03Z</time>
      </trkpt>
      <trkpt lat="44.49372" lon="6.11498">
        <ele>806.6833496</ele>
        <time>2013-12-05T10:48:05Z</time>
      </trkpt>
      <trkpt lat="44.49379" lon="6.1146">
        <ele>805.2414551</ele>
        <time>2013-12-05T10:48:09Z</time>
      </trkpt>
      <trkpt lat="44.4937" lon="6.11441">
        <ele>804.2802734</ele>
        <time>2013-12-05T10:48:11Z</time>
      </trkpt>
      <trkpt lat="44.49357" lon="6.11411">
        <ele>802.3574219</ele>
        <time>2013-12-05T10:48:14Z</time>
      </trkpt>
      <trkpt lat="44.49349" lon="6.1139">
        <ele>800.9155273</ele>
        <time>2013-12-05T10:48:16Z</time>
      </trkpt>
      <trkpt lat="44.49336" lon="6.11344">
        <ele>797.5510254</ele>
        <time>2013-12-05T10:48:20Z</time>
      </trkpt>
      <trkpt lat="44.49333" lon="6.11331">
        <ele>797.5510254</ele>
        <time>2013-12-05T10:48:21Z</time>
      </trkpt>
      <trkpt lat="44.49323" lon="6.11277">
        <ele>797.0703125</ele>
        <time>2013-12-05T10:48:26Z</time>
      </trkpt>
      <trkpt lat="44.49342" lon="6.1122">
        <ele>795.1474609</ele>
        <time>2013-12-05T10:48:33Z</time>
      </trkpt>
      <trkpt lat="44.49349" lon="6.11216">
        <ele>794.1862793</ele>
        <time>2013-12-05T10:48:34Z</time>
      </trkpt>
      <trkpt lat="44.49409" lon="6.11177">
        <ele>790.8215332</ele>
        <time>2013-12-05T10:48:42Z</time>
      </trkpt>
      <trkpt lat="44.4942" lon="6.11165">
        <ele>790.8215332</ele>
        <time>2013-12-05T10:48:44Z</time>
      </trkpt>
      <trkpt lat="44.49425" lon="6.11148">
        <ele>789.3796387</ele>
        <time>2013-12-05T10:48:46Z</time>
      </trkpt>
      <trkpt lat="44.4942" lon="6.11104">
        <ele>786.4958496</ele>
        <time>2013-12-05T10:48:51Z</time>
      </trkpt>
      <trkpt lat="44.49409" lon="6.11091">
        <ele>785.0539551</ele>
        <time>2013-12-05T10:48:53Z</time>
      </trkpt>
      <trkpt lat="44.49394" lon="6.11083">
        <ele>783.6118164</ele>
        <time>2013-12-05T10:48:55Z</time>
      </trkpt>
      <trkpt lat="44.49379" lon="6.11076">
        <ele>779.7663574</ele>
        <time>2013-12-05T10:48:57Z</time>
      </trkpt>
      <trkpt lat="44.49353" lon="6.11048">
        <ele>778.8051758</ele>
        <time>2013-12-05T10:49:01Z</time>
      </trkpt>
      <trkpt lat="44.49346" lon="6.11028">
        <ele>777.84375</ele>
        <time>2013-12-05T10:49:03Z</time>
      </trkpt>
      <trkpt lat="44.49312" lon="6.10997">
        <ele>775.9211426</ele>
        <time>2013-12-05T10:49:09Z</time>
      </trkpt>
      <trkpt lat="44.49289" lon="6.1101">
        <ele>772.5566406</ele>
        <time>2013-12-05T10:49:12Z</time>
      </trkpt>
      <trkpt lat="44.49257" lon="6.11031">
        <ele>770.1533203</ele>
        <time>2013-12-05T10:49:16Z</time>
      </trkpt>
      <trkpt lat="44.49248" lon="6.11035">
        <ele>768.7114258</ele>
        <time>2013-12-05T10:49:17Z</time>
      </trkpt>
      <trkpt lat="44.49212" lon="6.11039">
        <ele>765.8276367</ele>
        <time>2013-12-05T10:49:21Z</time>
      </trkpt>
      <trkpt lat="44.49194" lon="6.1103">
        <ele>764.385498</ele>
        <time>2013-12-05T10:49:23Z</time>
      </trkpt>
      <trkpt lat="44.49155" lon="6.11001">
        <ele>761.5014648</ele>
        <time>2013-12-05T10:49:28Z</time>
      </trkpt>
      <trkpt lat="44.49143" lon="6.10994">
        <ele>762.9433594</ele>
        <time>2013-12-05T10:49:30Z</time>
      </trkpt>
      <trkpt lat="44.4911" lon="6.10992">
        <ele>759.5788574</ele>
        <time>2013-12-05T10:49:35Z</time>
      </trkpt>
      <trkpt lat="44.49103" lon="6.10998">
        <ele>759.0981445</ele>
        <time>2013-12-05T10:49:36Z</time>
      </trkpt>
      <trkpt lat="44.4909" lon="6.11011">
        <ele>757.1755371</ele>
        <time>2013-12-05T10:49:38Z</time>
      </trkpt>
      <trkpt lat="44.4907" lon="6.11031">
        <ele>756.2141113</ele>
        <time>2013-12-05T10:49:41Z</time>
      </trkpt>
      <trkpt lat="44.49067" lon="6.11039">
        <ele>756.2141113</ele>
        <time>2013-12-05T10:49:42Z</time>
      </trkpt>
      <trkpt lat="44.49052" lon="6.11095">
        <ele>751.4077148</ele>
        <time>2013-12-05T10:49:48Z</time>
      </trkpt>
      <trkpt lat="44.49072" lon="6.11203">
        <ele>748.5236816</ele>
        <time>2013-12-05T10:49:57Z</time>
      </trkpt>
      <trkpt lat="44.49079" lon="6.11223">
        <ele>747.081543</ele>
        <time>2013-12-05T10:49:59Z</time>
      </trkpt>
      <trkpt lat="44.49091" lon="6.11239">
        <ele>746.1203613</ele>
        <time>2013-12-05T10:50:01Z</time>
      </trkpt>
      <trkpt lat="44.49113" lon="6.1126">
        <ele>743.2363281</ele>
        <time>2013-12-05T10:50:04Z</time>
      </trkpt>
      <trkpt lat="44.4913" lon="6.1128">
        <ele>743.717041</ele>
        <time>2013-12-05T10:50:07Z</time>
      </trkpt>
      <trkpt lat="44.49135" lon="6.11313">
        <ele>741.7944336</ele>
        <time>2013-12-05T10:50:12Z</time>
      </trkpt>
      <trkpt lat="44.49128" lon="6.11326">
        <ele>740.3525391</ele>
        <time>2013-12-05T10:50:14Z</time>
      </trkpt>
      <trkpt lat="44.49104" lon="6.11319">
        <ele>738.4299316</ele>
        <time>2013-12-05T10:50:18Z</time>
      </trkpt>
      <trkpt lat="44.49088" lon="6.11304">
        <ele>736.987793</ele>
        <time>2013-12-05T10:50:21Z</time>
      </trkpt>
      <trkpt lat="44.49073" lon="6.11304">
        <ele>736.0266113</ele>
        <time>2013-12-05T10:50:23Z</time>
      </trkpt>
      <trkpt lat="44.49047" lon="6.1131">
        <ele>732.6621094</ele>
        <time>2013-12-05T10:50:26Z</time>
      </trkpt>
      <trkpt lat="44.4903" lon="6.11312">
        <ele>731.7004395</ele>
        <time>2013-12-05T10:50:28Z</time>
      </trkpt>
      <trkpt lat="44.4902" lon="6.11313">
        <ele>730.2585449</ele>
        <time>2013-12-05T10:50:29Z</time>
      </trkpt>
      <trkpt lat="44.48994" lon="6.11344">
        <ele>732.1813965</ele>
        <time>2013-12-05T10:50:35Z</time>
      </trkpt>
      <trkpt lat="44.48995" lon="6.11361">
        <ele>730.7392578</ele>
        <time>2013-12-05T10:50:37Z</time>
      </trkpt>
      <trkpt lat="44.48998" lon="6.11369">
        <ele>729.777832</ele>
        <time>2013-12-05T10:50:38Z</time>
      </trkpt>
      <trkpt lat="44.49004" lon="6.11388">
        <ele>727.8552246</ele>
        <time>2013-12-05T10:50:40Z</time>
      </trkpt>
      <trkpt lat="44.49021" lon="6.11428">
        <ele>724.9714355</ele>
        <time>2013-12-05T10:50:44Z</time>
      </trkpt>
      <trkpt lat="44.49038" lon="6.11473">
        <ele>721.6066895</ele>
        <time>2013-12-05T10:50:48Z</time>
      </trkpt>
      <trkpt lat="44.49068" lon="6.11549">
        <ele>717.7614746</ele>
        <time>2013-12-05T10:50:55Z</time>
      </trkpt>
      <trkpt lat="44.49073" lon="6.1156">
        <ele>717.7614746</ele>
        <time>2013-12-05T10:50:56Z</time>
      </trkpt>
      <trkpt lat="44.49084" lon="6.1158">
        <ele>716.800293</ele>
        <time>2013-12-05T10:50:58Z</time>
      </trkpt>
      <trkpt lat="44.49122" lon="6.11629">
        <ele>713.4355469</ele>
        <time>2013-12-05T10:51:04Z</time>
      </trkpt>
      <trkpt lat="44.49128" lon="6.11636">
        <ele>713.4355469</ele>
        <time>2013-12-05T10:51:05Z</time>
      </trkpt>
      <trkpt lat="44.49161" lon="6.11669">
        <ele>710.5515137</ele>
        <time>2013-12-05T10:51:10Z</time>
      </trkpt>
      <trkpt lat="44.49178" lon="6.11688">
        <ele>709.1096191</ele>
        <time>2013-12-05T10:51:13Z</time>
      </trkpt>
      <trkpt lat="44.4919" lon="6.11723">
        <ele>707.6677246</ele>
        <time>2013-12-05T10:51:17Z</time>
      </trkpt>
      <trkpt lat="44.49191" lon="6.11734">
        <ele>705.7451172</ele>
        <time>2013-12-05T10:51:18Z</time>
      </trkpt>
      <trkpt lat="44.49197" lon="6.11792">
        <ele>703.3417969</ele>
        <time>2013-12-05T10:51:23Z</time>
      </trkpt>
      <trkpt lat="44.49199" lon="6.1183">
        <ele>701.4191895</ele>
        <time>2013-12-05T10:51:26Z</time>
      </trkpt>
      <trkpt lat="44.49201" lon="6.11856">
        <ele>699.4963379</ele>
        <time>2013-12-05T10:51:28Z</time>
      </trkpt>
      <trkpt lat="44.49208" lon="6.1191">
        <ele>696.1318359</ele>
        <time>2013-12-05T10:51:32Z</time>
      </trkpt>
      <trkpt lat="44.49212" lon="6.11922">
        <ele>696.1318359</ele>
        <time>2013-12-05T10:51:33Z</time>
      </trkpt>
      <trkpt lat="44.49219" lon="6.11948">
        <ele>694.6896973</ele>
        <time>2013-12-05T10:51:35Z</time>
      </trkpt>
      <trkpt lat="44.49222" lon="6.11958">
        <ele>693.7285156</ele>
        <time>2013-12-05T10:51:36Z</time>
      </trkpt>
      <trkpt lat="44.49225" lon="6.1201">
        <ele>690.8444824</ele>
        <time>2013-12-05T10:51:40Z</time>
      </trkpt>
      <trkpt lat="44.49231" lon="6.12065">
        <ele>688.4414063</ele>
        <time>2013-12-05T10:51:44Z</time>
      </trkpt>
      <trkpt lat="44.49237" lon="6.12106">
        <ele>686.0380859</ele>
        <time>2013-12-05T10:51:47Z</time>
      </trkpt>
      <trkpt lat="44.49241" lon="6.12133">
        <ele>684.5961914</ele>
        <time>2013-12-05T10:51:49Z</time>
      </trkpt>
      <trkpt lat="44.49249" lon="6.12185">
        <ele>681.2314453</ele>
        <time>2013-12-05T10:51:53Z</time>
      </trkpt>
      <trkpt lat="44.4925" lon="6.12198">
        <ele>681.2314453</ele>
        <time>2013-12-05T10:51:54Z</time>
      </trkpt>
      <trkpt lat="44.49248" lon="6.12221">
        <ele>680.7507324</ele>
        <time>2013-12-05T10:51:56Z</time>
      </trkpt>
      <trkpt lat="44.49243" lon="6.12251">
        <ele>679.7893066</ele>
        <time>2013-12-05T10:52:00Z</time>
      </trkpt>
      <trkpt lat="44.49237" lon="6.12267">
        <ele>678.3474121</ele>
        <time>2013-12-05T10:52:03Z</time>
      </trkpt>
      <trkpt lat="44.49234" lon="6.12272">
        <ele>678.3474121</ele>
        <time>2013-12-05T10:52:04Z</time>
      </trkpt>
      <trkpt lat="44.49228" lon="6.12282">
        <ele>678.828125</ele>
        <time>2013-12-05T10:52:06Z</time>
      </trkpt>
      <trkpt lat="44.49214" lon="6.12301">
        <ele>675.9440918</ele>
        <time>2013-12-05T10:52:10Z</time>
      </trkpt>
      <trkpt lat="44.49208" lon="6.12303">
        <ele>675.9440918</ele>
        <time>2013-12-05T10:52:11Z</time>
      </trkpt>
      <trkpt lat="44.49192" lon="6.12327">
        <ele>675.9440918</ele>
        <time>2013-12-05T10:52:15Z</time>
      </trkpt>
      <trkpt lat="44.49183" lon="6.12341">
        <ele>674.5021973</ele>
        <time>2013-12-05T10:52:17Z</time>
      </trkpt>
      <trkpt lat="44.49173" lon="6.12354">
        <ele>672.5795898</ele>
        <time>2013-12-05T10:52:19Z</time>
      </trkpt>
      <trkpt lat="44.4913" lon="6.12412">
        <ele>669.2150879</ele>
        <time>2013-12-05T10:52:27Z</time>
      </trkpt>
      <trkpt lat="44.49121" lon="6.12428">
        <ele>667.7727051</ele>
        <time>2013-12-05T10:52:29Z</time>
      </trkpt>
      <trkpt lat="44.49113" lon="6.12446">
        <ele>666.8115234</ele>
        <time>2013-12-05T10:52:31Z</time>
      </trkpt>
      <trkpt lat="44.4911" lon="6.12456">
        <ele>667.2922363</ele>
        <time>2013-12-05T10:52:32Z</time>
      </trkpt>
      <trkpt lat="44.49107" lon="6.12486">
        <ele>665.3696289</ele>
        <time>2013-12-05T10:52:35Z</time>
      </trkpt>
      <trkpt lat="44.49107" lon="6.12508">
        <ele>663.4470215</ele>
        <time>2013-12-05T10:52:37Z</time>
      </trkpt>
      <trkpt lat="44.49107" lon="6.1253">
        <ele>662.9663086</ele>
        <time>2013-12-05T10:52:39Z</time>
      </trkpt>
      <trkpt lat="44.49112" lon="6.12563">
        <ele>661.5244141</ele>
        <time>2013-12-05T10:52:42Z</time>
      </trkpt>
      <trkpt lat="44.49131" lon="6.12615">
        <ele>660.0822754</ele>
        <time>2013-12-05T10:52:48Z</time>
      </trkpt>
      <trkpt lat="44.49132" lon="6.12649">
        <ele>661.5244141</ele>
        <time>2013-12-05T10:52:54Z</time>
      </trkpt>
      <trkpt lat="44.4912" lon="6.1267">
        <ele>658.6403809</ele>
        <time>2013-12-05T10:52:58Z</time>
      </trkpt>
      <trkpt lat="44.49109" lon="6.12696">
        <ele>657.6791992</ele>
        <time>2013-12-05T10:53:08Z</time>
      </trkpt>
      <trkpt lat="44.49109" lon="6.12696">
        <ele>659.1210938</ele>
        <time>2013-12-05T10:53:19Z</time>
      </trkpt>
      <trkpt lat="44.49109" lon="6.12696">
        <ele>657.6791992</ele>
        <time>2013-12-05T10:54:16Z</time>
      </trkpt>
      <trkpt lat="44.49109" lon="6.12696">
        <ele>659.1210938</ele>
        <time>2013-12-05T10:54:18Z</time>
      </trkpt>
      <trkpt lat="44.49109" lon="6.12696">
        <ele>658.6403809</ele>
        <time>2013-12-05T10:54:23Z</time>
      </trkpt>
      <trkpt lat="44.49105" lon="6.12705">
        <ele>660.0822754</ele>
        <time>2013-12-05T10:54:25Z</time>
      </trkpt>
      <trkpt lat="44.49102" lon="6.12712">
        <ele>657.6791992</ele>
        <time>2013-12-05T10:54:27Z</time>
      </trkpt>
      <trkpt lat="44.49071" lon="6.12765">
        <ele>657.1984863</ele>
        <time>2013-12-05T10:54:39Z</time>
      </trkpt>
      <trkpt lat="44.49045" lon="6.1282">
        <ele>656.7177734</ele>
        <time>2013-12-05T10:54:52Z</time>
      </trkpt>
      <trkpt lat="44.49043" lon="6.12828">
        <ele>658.1599121</ele>
        <time>2013-12-05T10:54:54Z</time>
      </trkpt>
      <trkpt lat="44.49047" lon="6.12869">
        <ele>661.5244141</ele>
        <time>2013-12-05T10:55:07Z</time>
      </trkpt>
      <trkpt lat="44.49063" lon="6.1292">
        <ele>661.0437012</ele>
        <time>2013-12-05T10:55:22Z</time>
      </trkpt>
      <trkpt lat="44.49088" lon="6.1299">
        <ele>661.0437012</ele>
        <time>2013-12-05T10:55:38Z</time>
      </trkpt>
      <trkpt lat="44.49091" lon="6.13001">
        <ele>660.5629883</ele>
        <time>2013-12-05T10:55:40Z</time>
      </trkpt>
      <trkpt lat="44.491" lon="6.13031">
        <ele>659.1210938</ele>
        <time>2013-12-05T10:55:45Z</time>
      </trkpt>
      <trkpt lat="44.49149" lon="6.13154">
        <ele>658.6403809</ele>
        <time>2013-12-05T10:56:05Z</time>
      </trkpt>
      <trkpt lat="44.49188" lon="6.13255">
        <ele>658.6403809</ele>
        <time>2013-12-05T10:56:23Z</time>
      </trkpt>
      <trkpt lat="44.49234" lon="6.13362">
        <ele>660.5629883</ele>
        <time>2013-12-05T10:56:45Z</time>
      </trkpt>
      <trkpt lat="44.49252" lon="6.13403">
        <ele>661.5244141</ele>
        <time>2013-12-05T10:56:55Z</time>
      </trkpt>
      <trkpt lat="44.49275" lon="6.13462">
        <ele>661.5244141</ele>
        <time>2013-12-05T10:57:11Z</time>
      </trkpt>
      <trkpt lat="44.49301" lon="6.13524">
        <ele>661.5244141</ele>
        <time>2013-12-05T10:57:29Z</time>
      </trkpt>
      <trkpt lat="44.49311" lon="6.13562">
        <ele>662.9663086</ele>
        <time>2013-12-05T10:57:37Z</time>
      </trkpt>
      <trkpt lat="44.49312" lon="6.13572">
        <ele>661.0437012</ele>
        <time>2013-12-05T10:57:39Z</time>
      </trkpt>
      <trkpt lat="44.49316" lon="6.13655">
        <ele>662.9663086</ele>
        <time>2013-12-05T10:57:56Z</time>
      </trkpt>
      <trkpt lat="44.49319" lon="6.1374">
        <ele>663.9274902</ele>
        <time>2013-12-05T10:58:13Z</time>
      </trkpt>
      <trkpt lat="44.49331" lon="6.13808">
        <ele>664.4082031</ele>
        <time>2013-12-05T10:58:26Z</time>
      </trkpt>
      <trkpt lat="44.49353" lon="6.1388">
        <ele>664.888916</ele>
        <time>2013-12-05T10:58:44Z</time>
      </trkpt>
      <trkpt lat="44.4938" lon="6.13956">
        <ele>665.8503418</ele>
        <time>2013-12-05T10:59:00Z</time>
      </trkpt>
      <trkpt lat="44.49417" lon="6.14071">
        <ele>666.8115234</ele>
        <time>2013-12-05T10:59:24Z</time>
      </trkpt>
      <trkpt lat="44.49407" lon="6.14133">
        <ele>667.7727051</ele>
        <time>2013-12-05T10:59:37Z</time>
      </trkpt>
      <trkpt lat="44.49398" lon="6.14185">
        <ele>668.734375</ele>
        <time>2013-12-05T10:59:47Z</time>
      </trkpt>
      <trkpt lat="44.49413" lon="6.14275">
        <ele>669.2150879</ele>
        <time>2013-12-05T11:00:04Z</time>
      </trkpt>
      <trkpt lat="44.49431" lon="6.14354">
        <ele>670.6569824</ele>
        <time>2013-12-05T11:00:21Z</time>
      </trkpt>
      <trkpt lat="44.49458" lon="6.14466">
        <ele>672.5795898</ele>
        <time>2013-12-05T11:00:43Z</time>
      </trkpt>
      <trkpt lat="44.49467" lon="6.14513">
        <ele>672.098877</ele>
        <time>2013-12-05T11:00:54Z</time>
      </trkpt>
      <trkpt lat="44.49479" lon="6.14561">
        <ele>672.098877</ele>
        <time>2013-12-05T11:01:07Z</time>
      </trkpt>
      <trkpt lat="44.49481" lon="6.14567">
        <ele>672.098877</ele>
        <time>2013-12-05T11:01:08Z</time>
      </trkpt>
      <trkpt lat="44.495" lon="6.14622">
        <ele>673.5410156</ele>
        <time>2013-12-05T11:01:23Z</time>
      </trkpt>
      <trkpt lat="44.49519" lon="6.14648">
        <ele>675.9440918</ele>
        <time>2013-12-05T11:01:34Z</time>
      </trkpt>
      <trkpt lat="44.49535" lon="6.1469">
        <ele>678.828125</ele>
        <time>2013-12-05T11:01:46Z</time>
      </trkpt>
      <trkpt lat="44.49558" lon="6.14726">
        <ele>679.7893066</ele>
        <time>2013-12-05T11:01:57Z</time>
      </trkpt>
      <trkpt lat="44.49596" lon="6.1478">
        <ele>681.7119141</ele>
        <time>2013-12-05T11:02:15Z</time>
      </trkpt>
      <trkpt lat="44.49628" lon="6.14831">
        <ele>682.192627</ele>
        <time>2013-12-05T11:02:30Z</time>
      </trkpt>
      <trkpt lat="44.49682" lon="6.14934">
        <ele>680.7507324</ele>
        <time>2013-12-05T11:02:53Z</time>
      </trkpt>
      <trkpt lat="44.49741" lon="6.15072">
        <ele>680.2700195</ele>
        <time>2013-12-05T11:03:18Z</time>
      </trkpt>
      <trkpt lat="44.49776" lon="6.15123">
        <ele>679.3085938</ele>
        <time>2013-12-05T11:03:30Z</time>
      </trkpt>
      <trkpt lat="44.49782" lon="6.1513">
        <ele>681.2314453</ele>
        <time>2013-12-05T11:03:32Z</time>
      </trkpt>
      <trkpt lat="44.49816" lon="6.15167">
        <ele>681.7119141</ele>
        <time>2013-12-05T11:03:49Z</time>
      </trkpt>
      <trkpt lat="44.49816" lon="6.15167">
        <ele>680.2700195</ele>
        <time>2013-12-05T11:04:02Z</time>
      </trkpt>
      <trkpt lat="44.49816" lon="6.15167">
        <ele>681.2314453</ele>
        <time>2013-12-05T11:04:40Z</time>
      </trkpt>
      <trkpt lat="44.49816" lon="6.15167">
        <ele>680.7507324</ele>
        <time>2013-12-05T11:04:54Z</time>
      </trkpt>
      <trkpt lat="44.49844" lon="6.15127">
        <ele>680.7507324</ele>
        <time>2013-12-05T11:05:05Z</time>
      </trkpt>
      <trkpt lat="44.49849" lon="6.15121">
        <ele>682.192627</ele>
        <time>2013-12-05T11:05:07Z</time>
      </trkpt>
      <trkpt lat="44.49851" lon="6.15116">
        <ele>680.2700195</ele>
        <time>2013-12-05T11:05:08Z</time>
      </trkpt>
      <trkpt lat="44.49868" lon="6.15081">
        <ele>680.2700195</ele>
        <time>2013-12-05T11:05:15Z</time>
      </trkpt>
      <trkpt lat="44.49878" lon="6.15061">
        <ele>679.3085938</ele>
        <time>2013-12-05T11:05:18Z</time>
      </trkpt>
      <trkpt lat="44.49888" lon="6.15046">
        <ele>679.3085938</ele>
        <time>2013-12-05T11:05:21Z</time>
      </trkpt>
      <trkpt lat="44.49922" lon="6.14998">
        <ele>679.7893066</ele>
        <time>2013-12-05T11:05:33Z</time>
      </trkpt>
      <trkpt lat="44.49952" lon="6.1495">
        <ele>679.3085938</ele>
        <time>2013-12-05T11:05:47Z</time>
      </trkpt>
      <trkpt lat="44.49956" lon="6.14938">
        <ele>681.2314453</ele>
        <time>2013-12-05T11:05:51Z</time>
      </trkpt>
      <trkpt lat="44.49965" lon="6.14917">
        <ele>683.6345215</ele>
        <time>2013-12-05T11:05:58Z</time>
      </trkpt>
      <trkpt lat="44.49976" lon="6.14908">
        <ele>686.0380859</ele>
        <time>2013-12-05T11:06:04Z</time>
      </trkpt>
      <trkpt lat="44.49983" lon="6.14916">
        <ele>686.9992676</ele>
        <time>2013-12-05T11:06:07Z</time>
      </trkpt>
      <trkpt lat="44.49986" lon="6.14921">
        <ele>685.557373</ele>
        <time>2013-12-05T11:06:09Z</time>
      </trkpt>
      <trkpt lat="44.50031" lon="6.14962">
        <ele>686.5187988</ele>
        <time>2013-12-05T11:06:26Z</time>
      </trkpt>
      <trkpt lat="44.50077" lon="6.14997">
        <ele>686.5187988</ele>
        <time>2013-12-05T11:06:41Z</time>
      </trkpt>
      <trkpt lat="44.50129" lon="6.1503">
        <ele>686.0380859</ele>
        <time>2013-12-05T11:06:55Z</time>
      </trkpt>
      <trkpt lat="44.50154" lon="6.15059">
        <ele>686.5187988</ele>
        <time>2013-12-05T11:07:03Z</time>
      </trkpt>
      <trkpt lat="44.50158" lon="6.15071">
        <ele>685.557373</ele>
        <time>2013-12-05T11:07:05Z</time>
      </trkpt>
      <trkpt lat="44.50163" lon="6.15098">
        <ele>685.557373</ele>
        <time>2013-12-05T11:07:10Z</time>
      </trkpt>
      <trkpt lat="44.50169" lon="6.15134">
        <ele>685.557373</ele>
        <time>2013-12-05T11:07:16Z</time>
      </trkpt>
      <trkpt lat="44.50174" lon="6.15159">
        <ele>686.0380859</ele>
        <time>2013-12-05T11:07:20Z</time>
      </trkpt>
      <trkpt lat="44.50209" lon="6.15194">
        <ele>685.0769043</ele>
        <time>2013-12-05T11:07:31Z</time>
      </trkpt>
      <trkpt lat="44.5024" lon="6.15218">
        <ele>687.9606934</ele>
        <time>2013-12-05T11:07:39Z</time>
      </trkpt>
      <trkpt lat="44.50261" lon="6.15242">
        <ele>687.9606934</ele>
        <time>2013-12-05T11:07:45Z</time>
      </trkpt>
      <trkpt lat="44.50281" lon="6.15282">
        <ele>688.4414063</ele>
        <time>2013-12-05T11:07:53Z</time>
      </trkpt>
      <trkpt lat="44.50356" lon="6.15365">
        <ele>689.4025879</ele>
        <time>2013-12-05T11:08:14Z</time>
      </trkpt>
      <trkpt lat="44.50393" lon="6.15438">
        <ele>692.2866211</ele>
        <time>2013-12-05T11:08:32Z</time>
      </trkpt>
      <trkpt lat="44.50441" lon="6.15525">
        <ele>694.2092285</ele>
        <time>2013-12-05T11:08:53Z</time>
      </trkpt>
      <trkpt lat="44.50499" lon="6.15583">
        <ele>696.6125488</ele>
        <time>2013-12-05T11:09:13Z</time>
      </trkpt>
      <trkpt lat="44.50538" lon="6.15609">
        <ele>698.5349121</ele>
        <time>2013-12-05T11:09:28Z</time>
      </trkpt>
      <trkpt lat="44.50572" lon="6.15633">
        <ele>700.4580078</ele>
        <time>2013-12-05T11:09:42Z</time>
      </trkpt>
      <trkpt lat="44.50599" lon="6.15654">
        <ele>699.9770508</ele>
        <time>2013-12-05T11:09:51Z</time>
      </trkpt>
      <trkpt lat="44.50604" lon="6.15658">
        <ele>701.4191895</ele>
        <time>2013-12-05T11:09:53Z</time>
      </trkpt>
      <trkpt lat="44.5062" lon="6.15671">
        <ele>701.4191895</ele>
        <time>2013-12-05T11:10:07Z</time>
      </trkpt>
      <trkpt lat="44.5062" lon="6.15671">
        <ele>702.3803711</ele>
        <time>2013-12-05T11:10:18Z</time>
      </trkpt>
      <trkpt lat="44.5062" lon="6.15671">
        <ele>700.9384766</ele>
        <time>2013-12-05T11:10:38Z</time>
      </trkpt>
      <trkpt lat="44.5062" lon="6.15671">
        <ele>701.4191895</ele>
        <time>2013-12-05T11:10:41Z</time>
      </trkpt>
      <trkpt lat="44.50638" lon="6.15646">
        <ele>703.8225098</ele>
        <time>2013-12-05T11:10:50Z</time>
      </trkpt>
      <trkpt lat="44.5066" lon="6.15625">
        <ele>704.3032227</ele>
        <time>2013-12-05T11:11:00Z</time>
      </trkpt>
      <trkpt lat="44.50692" lon="6.15632">
        <ele>705.2644043</ele>
        <time>2013-12-05T11:11:12Z</time>
      </trkpt>
      <trkpt lat="44.50723" lon="6.15598">
        <ele>708.6289063</ele>
        <time>2013-12-05T11:11:27Z</time>
      </trkpt>
      <trkpt lat="44.50724" lon="6.15595">
        <ele>708.6289063</ele>
        <time>2013-12-05T11:11:28Z</time>
      </trkpt>
      <trkpt lat="44.50743" lon="6.1558">
        <ele>710.5515137</ele>
        <time>2013-12-05T11:11:40Z</time>
      </trkpt>
      <trkpt lat="44.50743" lon="6.1558">
        <ele>710.5515137</ele>
        <time>2013-12-05T11:11:55Z</time>
      </trkpt>
      <trkpt lat="44.50743" lon="6.1558">
        <ele>711.0322266</ele>
        <time>2013-12-05T11:11:59Z</time>
      </trkpt>
      <trkpt lat="44.50743" lon="6.1558">
        <ele>709.590332</ele>
        <time>2013-12-05T11:12:04Z</time>
      </trkpt>
      <trkpt lat="44.50761" lon="6.15582">
        <ele>709.1096191</ele>
        <time>2013-12-05T11:12:08Z</time>
      </trkpt>
      <trkpt lat="44.50787" lon="6.15639">
        <ele>706.7062988</ele>
        <time>2013-12-05T11:12:19Z</time>
      </trkpt>
      <trkpt lat="44.50796" lon="6.15643">
        <ele>705.2644043</ele>
        <time>2013-12-05T11:12:21Z</time>
      </trkpt>
      <trkpt lat="44.50801" lon="6.15646">
        <ele>706.7062988</ele>
        <time>2013-12-05T11:12:22Z</time>
      </trkpt>
      <trkpt lat="44.50818" lon="6.15659">
        <ele>706.2255859</ele>
        <time>2013-12-05T11:12:26Z</time>
      </trkpt>
      <trkpt lat="44.50831" lon="6.15657">
        <ele>705.2644043</ele>
        <time>2013-12-05T11:12:28Z</time>
      </trkpt>
      <trkpt lat="44.50846" lon="6.15654">
        <ele>703.8225098</ele>
        <time>2013-12-05T11:12:30Z</time>
      </trkpt>
      <trkpt lat="44.50893" lon="6.15651">
        <ele>704.7836914</ele>
        <time>2013-12-05T11:12:38Z</time>
      </trkpt>
      <trkpt lat="44.50927" lon="6.15654">
        <ele>704.7836914</ele>
        <time>2013-12-05T11:12:45Z</time>
      </trkpt>
      <trkpt lat="44.5095" lon="6.15667">
        <ele>704.7836914</ele>
        <time>2013-12-05T11:12:50Z</time>
      </trkpt>
      <trkpt lat="44.51035" lon="6.15738">
        <ele>705.7451172</ele>
        <time>2013-12-05T11:13:11Z</time>
      </trkpt>
      <trkpt lat="44.51046" lon="6.15745">
        <ele>704.3032227</ele>
        <time>2013-12-05T11:13:14Z</time>
      </trkpt>
      <trkpt lat="44.51057" lon="6.15752">
        <ele>706.2255859</ele>
        <time>2013-12-05T11:13:17Z</time>
      </trkpt>
      <trkpt lat="44.51069" lon="6.15771">
        <ele>704.7836914</ele>
        <time>2013-12-05T11:13:21Z</time>
      </trkpt>
      <trkpt lat="44.51086" lon="6.15802">
        <ele>706.7062988</ele>
        <time>2013-12-05T11:13:28Z</time>
      </trkpt>
      <trkpt lat="44.51105" lon="6.15814">
        <ele>706.2255859</ele>
        <time>2013-12-05T11:13:33Z</time>
      </trkpt>
      <trkpt lat="44.51142" lon="6.15839">
        <ele>704.7836914</ele>
        <time>2013-12-05T11:13:42Z</time>
      </trkpt>
      <trkpt lat="44.51159" lon="6.15856">
        <ele>707.6677246</ele>
        <time>2013-12-05T11:13:47Z</time>
      </trkpt>
      <trkpt lat="44.5118" lon="6.15873">
        <ele>708.1484375</ele>
        <time>2013-12-05T11:13:52Z</time>
      </trkpt>
      <trkpt lat="44.51202" lon="6.15883">
        <ele>707.6677246</ele>
        <time>2013-12-05T11:13:58Z</time>
      </trkpt>
      <trkpt lat="44.51224" lon="6.15889">
        <ele>708.1484375</ele>
        <time>2013-12-05T11:14:03Z</time>
      </trkpt>
      <trkpt lat="44.5125" lon="6.15898">
        <ele>705.7451172</ele>
        <time>2013-12-05T11:14:09Z</time>
      </trkpt>
      <trkpt lat="44.51282" lon="6.15921">
        <ele>705.7451172</ele>
        <time>2013-12-05T11:14:16Z</time>
      </trkpt>
      <trkpt lat="44.51298" lon="6.15935">
        <ele>706.2255859</ele>
        <time>2013-12-05T11:14:20Z</time>
      </trkpt>
      <trkpt lat="44.51331" lon="6.15962">
        <ele>705.7451172</ele>
        <time>2013-12-05T11:14:28Z</time>
      </trkpt>
      <trkpt lat="44.51345" lon="6.16002">
        <ele>705.7451172</ele>
        <time>2013-12-05T11:14:35Z</time>
      </trkpt>
      <trkpt lat="44.51345" lon="6.16015">
        <ele>705.2644043</ele>
        <time>2013-12-05T11:14:37Z</time>
      </trkpt>
      <trkpt lat="44.51376" lon="6.16043">
        <ele>705.7451172</ele>
        <time>2013-12-05T11:14:46Z</time>
      </trkpt>
      <trkpt lat="44.5139" lon="6.16043">
        <ele>705.7451172</ele>
        <time>2013-12-05T11:14:49Z</time>
      </trkpt>
      <trkpt lat="44.51414" lon="6.16057">
        <ele>705.2644043</ele>
        <time>2013-12-05T11:14:54Z</time>
      </trkpt>
      <trkpt lat="44.51453" lon="6.161">
        <ele>705.7451172</ele>
        <time>2013-12-05T11:15:04Z</time>
      </trkpt>
      <trkpt lat="44.51503" lon="6.16177">
        <ele>707.6677246</ele>
        <time>2013-12-05T11:15:22Z</time>
      </trkpt>
      <trkpt lat="44.51548" lon="6.16227">
        <ele>709.590332</ele>
        <time>2013-12-05T11:15:38Z</time>
      </trkpt>
      <trkpt lat="44.51605" lon="6.16283">
        <ele>712.954834</ele>
        <time>2013-12-05T11:16:00Z</time>
      </trkpt>
      <trkpt lat="44.51654" lon="6.16317">
        <ele>715.8388672</ele>
        <time>2013-12-05T11:16:19Z</time>
      </trkpt>
      <trkpt lat="44.5169" lon="6.16335">
        <ele>718.2421875</ele>
        <time>2013-12-05T11:16:33Z</time>
      </trkpt>
      <trkpt lat="44.51729" lon="6.16352">
        <ele>721.6066895</ele>
        <time>2013-12-05T11:16:49Z</time>
      </trkpt>
      <trkpt lat="44.51769" lon="6.16371">
        <ele>724.4907227</ele>
        <time>2013-12-05T11:17:05Z</time>
      </trkpt>
      <trkpt lat="44.51811" lon="6.16392">
        <ele>727.3747559</ele>
        <time>2013-12-05T11:17:24Z</time>
      </trkpt>
      <trkpt lat="44.51831" lon="6.16442">
        <ele>729.2971191</ele>
        <time>2013-12-05T11:17:39Z</time>
      </trkpt>
      <trkpt lat="44.51872" lon="6.16494">
        <ele>729.777832</ele>
        <time>2013-12-05T11:17:58Z</time>
      </trkpt>
      <trkpt lat="44.51924" lon="6.16528">
        <ele>730.7392578</ele>
        <time>2013-12-05T11:18:16Z</time>
      </trkpt>
      <trkpt lat="44.51929" lon="6.16531">
        <ele>729.2971191</ele>
        <time>2013-12-05T11:18:18Z</time>
      </trkpt>
      <trkpt lat="44.51933" lon="6.16534">
        <ele>730.7392578</ele>
        <time>2013-12-05T11:18:20Z</time>
      </trkpt>
      <trkpt lat="44.51938" lon="6.16537">
        <ele>732.1813965</ele>
        <time>2013-12-05T11:18:22Z</time>
      </trkpt>
      <trkpt lat="44.51977" lon="6.16563">
        <ele>731.7004395</ele>
        <time>2013-12-05T11:18:38Z</time>
      </trkpt>
      <trkpt lat="44.51977" lon="6.16563">
        <ele>732.6621094</ele>
        <time>2013-12-05T11:18:58Z</time>
      </trkpt>
      <trkpt lat="44.51977" lon="6.16563">
        <ele>731.2199707</ele>
        <time>2013-12-05T11:19:00Z</time>
      </trkpt>
      <trkpt lat="44.51977" lon="6.16563">
        <ele>732.6621094</ele>
        <time>2013-12-05T11:19:04Z</time>
      </trkpt>
      <trkpt lat="44.51977" lon="6.16563">
        <ele>731.7004395</ele>
        <time>2013-12-05T11:19:26Z</time>
      </trkpt>
      <trkpt lat="44.51977" lon="6.16563">
        <ele>733.1425781</ele>
        <time>2013-12-05T11:19:47Z</time>
      </trkpt>
      <trkpt lat="44.51977" lon="6.16563">
        <ele>731.2199707</ele>
        <time>2013-12-05T11:20:01Z</time>
      </trkpt>
      <trkpt lat="44.51977" lon="6.16563">
        <ele>732.1813965</ele>
        <time>2013-12-05T11:20:19Z</time>
      </trkpt>
      <trkpt lat="44.51977" lon="6.16563">
        <ele>731.7004395</ele>
        <time>2013-12-05T11:20:34Z</time>
      </trkpt>
      <trkpt lat="44.51977" lon="6.16563">
        <ele>731.7004395</ele>
        <time>2013-12-05T11:20:50Z</time>
      </trkpt>
      <trkpt lat="44.51977" lon="6.16563">
        <ele>733.1425781</ele>
        <time>2013-12-05T11:20:54Z</time>
      </trkpt>
      <trkpt lat="44.51977" lon="6.16563">
        <ele>733.1425781</ele>
        <time>2013-12-05T11:21:24Z</time>
      </trkpt>
      <trkpt lat="44.51977" lon="6.16563">
        <ele>731.7004395</ele>
        <time>2013-12-05T11:22:14Z</time>
      </trkpt>
      <trkpt lat="44.51984" lon="6.16569">
        <ele>733.1425781</ele>
        <time>2013-12-05T11:22:16Z</time>
      </trkpt>
      <trkpt lat="44.51985" lon="6.16564">
        <ele>733.1425781</ele>
        <time>2013-12-05T11:22:17Z</time>
      </trkpt>
      <trkpt lat="44.51992" lon="6.16528">
        <ele>735.0654297</ele>
        <time>2013-12-05T11:22:30Z</time>
      </trkpt>
      <trkpt lat="44.51993" lon="6.16526">
        <ele>735.0654297</ele>
        <time>2013-12-05T11:22:31Z</time>
      </trkpt>
      <trkpt lat="44.51994" lon="6.16517">
        <ele>734.5847168</ele>
        <time>2013-12-05T11:22:34Z</time>
      </trkpt>
      <trkpt lat="44.51999" lon="6.16491">
        <ele>737.4685059</ele>
        <time>2013-12-05T11:22:44Z</time>
      </trkpt>
      <trkpt lat="44.52008" lon="6.16438">
        <ele>740.3525391</ele>
        <time>2013-12-05T11:23:04Z</time>
      </trkpt>
      <trkpt lat="44.52008" lon="6.16436">
        <ele>740.3525391</ele>
        <time>2013-12-05T11:23:05Z</time>
      </trkpt>
      <trkpt lat="44.52011" lon="6.16419">
        <ele>741.3137207</ele>
        <time>2013-12-05T11:23:11Z</time>
      </trkpt>
      <trkpt lat="44.52016" lon="6.16392">
        <ele>741.7944336</ele>
        <time>2013-12-05T11:23:21Z</time>
      </trkpt>
      <trkpt lat="44.5202" lon="6.16372">
        <ele>742.2751465</ele>
        <time>2013-12-05T11:23:28Z</time>
      </trkpt>
      <trkpt lat="44.52026" lon="6.16338">
        <ele>744.1977539</ele>
        <time>2013-12-05T11:23:41Z</time>
      </trkpt>
      <trkpt lat="44.52034" lon="6.16295">
        <ele>746.6010742</ele>
        <time>2013-12-05T11:23:57Z</time>
      </trkpt>
      <trkpt lat="44.52042" lon="6.16253">
        <ele>749.4851074</ele>
        <time>2013-12-05T11:24:14Z</time>
      </trkpt>
      <trkpt lat="44.52055" lon="6.16215">
        <ele>752.3688965</ele>
        <time>2013-12-05T11:24:30Z</time>
      </trkpt>
      <trkpt lat="44.52046" lon="6.16187">
        <ele>753.8110352</ele>
        <time>2013-12-05T11:24:44Z</time>
      </trkpt>
      <trkpt lat="44.52017" lon="6.16193">
        <ele>756.2141113</ele>
        <time>2013-12-05T11:25:00Z</time>
      </trkpt>
      <trkpt lat="44.5198" lon="6.16199">
        <ele>759.5788574</ele>
        <time>2013-12-05T11:25:20Z</time>
      </trkpt>
      <trkpt lat="44.51961" lon="6.16194">
        <ele>761.020752</ele>
        <time>2013-12-05T11:25:30Z</time>
      </trkpt>
      <trkpt lat="44.51925" lon="6.16208">
        <ele>763.904541</ele>
        <time>2013-12-05T11:25:48Z</time>
      </trkpt>
      <trkpt lat="44.51899" lon="6.16196">
        <ele>767.2695313</ele>
        <time>2013-12-05T11:26:03Z</time>
      </trkpt>
      <trkpt lat="44.5188" lon="6.1618">
        <ele>769.1921387</ele>
        <time>2013-12-05T11:26:16Z</time>
      </trkpt>
      <trkpt lat="44.51861" lon="6.16156">
        <ele>771.5952148</ele>
        <time>2013-12-05T11:26:29Z</time>
      </trkpt>
      <trkpt lat="44.51845" lon="6.16129">
        <ele>774.479248</ele>
        <time>2013-12-05T11:26:43Z</time>
      </trkpt>
      <trkpt lat="44.51828" lon="6.16112">
        <ele>775.9211426</ele>
        <time>2013-12-05T11:26:54Z</time>
      </trkpt>
      <trkpt lat="44.51806" lon="6.161">
        <ele>778.3244629</ele>
        <time>2013-12-05T11:27:08Z</time>
      </trkpt>
      <trkpt lat="44.5178" lon="6.16088">
        <ele>781.2087402</ele>
        <time>2013-12-05T11:27:24Z</time>
      </trkpt>
      <trkpt lat="44.51751" lon="6.16069">
        <ele>783.6118164</ele>
        <time>2013-12-05T11:27:41Z</time>
      </trkpt>
      <trkpt lat="44.51725" lon="6.16045">
        <ele>786.4958496</ele>
        <time>2013-12-05T11:27:58Z</time>
      </trkpt>
      <trkpt lat="44.51699" lon="6.16018">
        <ele>789.3796387</ele>
        <time>2013-12-05T11:28:15Z</time>
      </trkpt>
      <trkpt lat="44.51677" lon="6.15996">
        <ele>791.782959</ele>
        <time>2013-12-05T11:28:30Z</time>
      </trkpt>
      <trkpt lat="44.51657" lon="6.15976">
        <ele>794.666748</ele>
        <time>2013-12-05T11:28:44Z</time>
      </trkpt>
      <trkpt lat="44.51631" lon="6.1595">
        <ele>797.5510254</ele>
        <time>2013-12-05T11:29:02Z</time>
      </trkpt>
      <trkpt lat="44.51611" lon="6.15926">
        <ele>799.4736328</ele>
        <time>2013-12-05T11:29:17Z</time>
      </trkpt>
      <trkpt lat="44.51585" lon="6.15913">
        <ele>801.3962402</ele>
        <time>2013-12-05T11:29:32Z</time>
      </trkpt>
      <trkpt lat="44.51564" lon="6.159">
        <ele>803.3188477</ele>
        <time>2013-12-05T11:29:45Z</time>
      </trkpt>
      <trkpt lat="44.51536" lon="6.15865">
        <ele>806.6833496</ele>
        <time>2013-12-05T11:30:06Z</time>
      </trkpt>
      <trkpt lat="44.51516" lon="6.15837">
        <ele>809.0866699</ele>
        <time>2013-12-05T11:30:22Z</time>
      </trkpt>
      <trkpt lat="44.51497" lon="6.15809">
        <ele>813.8933105</ele>
        <time>2013-12-05T11:30:38Z</time>
      </trkpt>
      <trkpt lat="44.51495" lon="6.15807">
        <ele>813.8933105</ele>
        <time>2013-12-05T11:30:39Z</time>
      </trkpt>
      <trkpt lat="44.51493" lon="6.15803">
        <ele>812.451416</ele>
        <time>2013-12-05T11:30:41Z</time>
      </trkpt>
      <trkpt lat="44.51477" lon="6.15785">
        <ele>814.8547363</ele>
        <time>2013-12-05T11:30:54Z</time>
      </trkpt>
      <trkpt lat="44.51453" lon="6.15765">
        <ele>815.8161621</ele>
        <time>2013-12-05T11:31:07Z</time>
      </trkpt>
      <trkpt lat="44.51445" lon="6.15742">
        <ele>816.7773438</ele>
        <time>2013-12-05T11:31:14Z</time>
      </trkpt>
      <trkpt lat="44.5146" lon="6.15737">
        <ele>817.7385254</ele>
        <time>2013-12-05T11:31:20Z</time>
      </trkpt>
      <trkpt lat="44.51479" lon="6.15761">
        <ele>820.1418457</ele>
        <time>2013-12-05T11:31:32Z</time>
      </trkpt>
      <trkpt lat="44.51504" lon="6.15779">
        <ele>820.6225586</ele>
        <time>2013-12-05T11:31:46Z</time>
      </trkpt>
      <trkpt lat="44.51525" lon="6.15799">
        <ele>822.545166</ele>
        <time>2013-12-05T11:32:01Z</time>
      </trkpt>
      <trkpt lat="44.51543" lon="6.15816">
        <ele>825.4289551</ele>
        <time>2013-12-05T11:32:14Z</time>
      </trkpt>
      <trkpt lat="44.51549" lon="6.15821">
        <ele>825.4289551</ele>
        <time>2013-12-05T11:32:17Z</time>
      </trkpt>
      <trkpt lat="44.51558" lon="6.15828">
        <ele>826.8710938</ele>
        <time>2013-12-05T11:32:24Z</time>
      </trkpt>
      <trkpt lat="44.51562" lon="6.1583">
        <ele>826.3903809</ele>
        <time>2013-12-05T11:32:26Z</time>
      </trkpt>
      <trkpt lat="44.51575" lon="6.1584">
        <ele>828.3132324</ele>
        <time>2013-12-05T11:32:35Z</time>
      </trkpt>
      <trkpt lat="44.51577" lon="6.15841">
        <ele>828.3132324</ele>
        <time>2013-12-05T11:32:36Z</time>
      </trkpt>
      <trkpt lat="44.51605" lon="6.15848">
        <ele>830.2358398</ele>
        <time>2013-12-05T11:32:52Z</time>
      </trkpt>
      <trkpt lat="44.5163" lon="6.15847">
        <ele>832.1584473</ele>
        <time>2013-12-05T11:33:06Z</time>
      </trkpt>
      <trkpt lat="44.51631" lon="6.15847">
        <ele>833.1196289</ele>
        <time>2013-12-05T11:33:08Z</time>
      </trkpt>
      <trkpt lat="44.51644" lon="6.15853">
        <ele>834.0810547</ele>
        <time>2013-12-05T11:33:15Z</time>
      </trkpt>
      <trkpt lat="44.51644" lon="6.15854">
        <ele>834.5617676</ele>
        <time>2013-12-05T11:33:17Z</time>
      </trkpt>
      <trkpt lat="44.51652" lon="6.15859">
        <ele>835.0424805</ele>
        <time>2013-12-05T11:33:21Z</time>
      </trkpt>
      <trkpt lat="44.51674" lon="6.15868">
        <ele>836.9648438</ele>
        <time>2013-12-05T11:33:34Z</time>
      </trkpt>
      <trkpt lat="44.51682" lon="6.15869">
        <ele>837.9262695</ele>
        <time>2013-12-05T11:33:39Z</time>
      </trkpt>
      <trkpt lat="44.51707" lon="6.15876">
        <ele>839.3681641</ele>
        <time>2013-12-05T11:33:52Z</time>
      </trkpt>
      <trkpt lat="44.51734" lon="6.15893">
        <ele>842.2521973</ele>
        <time>2013-12-05T11:34:08Z</time>
      </trkpt>
      <trkpt lat="44.51749" lon="6.159">
        <ele>843.6940918</ele>
        <time>2013-12-05T11:34:17Z</time>
      </trkpt>
      <trkpt lat="44.51775" lon="6.15909">
        <ele>845.6169434</ele>
        <time>2013-12-05T11:34:32Z</time>
      </trkpt>
      <trkpt lat="44.51801" lon="6.15921">
        <ele>848.0202637</ele>
        <time>2013-12-05T11:34:48Z</time>
      </trkpt>
      <trkpt lat="44.51826" lon="6.15931">
        <ele>850.423584</ele>
        <time>2013-12-05T11:35:03Z</time>
      </trkpt>
      <trkpt lat="44.51851" lon="6.15943">
        <ele>852.8266602</ele>
        <time>2013-12-05T11:35:18Z</time>
      </trkpt>
      <trkpt lat="44.51865" lon="6.15947">
        <ele>854.2687988</ele>
        <time>2013-12-05T11:35:27Z</time>
      </trkpt>
      <trkpt lat="44.51889" lon="6.15944">
        <ele>856.671875</ele>
        <time>2013-12-05T11:35:42Z</time>
      </trkpt>
      <trkpt lat="44.51895" lon="6.15942">
        <ele>857.1525879</ele>
        <time>2013-12-05T11:35:46Z</time>
      </trkpt>
      <trkpt lat="44.51922" lon="6.15924">
        <ele>859.5559082</ele>
        <time>2013-12-05T11:36:03Z</time>
      </trkpt>
      <trkpt lat="44.51937" lon="6.1591">
        <ele>861.4787598</ele>
        <time>2013-12-05T11:36:14Z</time>
      </trkpt>
      <trkpt lat="44.51948" lon="6.15898">
        <ele>862.9206543</ele>
        <time>2013-12-05T11:36:22Z</time>
      </trkpt>
      <trkpt lat="44.51954" lon="6.15893">
        <ele>863.4013672</ele>
        <time>2013-12-05T11:36:26Z</time>
      </trkpt>
      <trkpt lat="44.51966" lon="6.15885">
        <ele>864.8432617</ele>
        <time>2013-12-05T11:36:34Z</time>
      </trkpt>
      <trkpt lat="44.51988" lon="6.15871">
        <ele>866.7658691</ele>
        <time>2013-12-05T11:36:48Z</time>
      </trkpt>
      <trkpt lat="44.52" lon="6.15863">
        <ele>868.2077637</ele>
        <time>2013-12-05T11:36:58Z</time>
      </trkpt>
      <trkpt lat="44.52008" lon="6.15858">
        <ele>870.1303711</ele>
        <time>2013-12-05T11:37:05Z</time>
      </trkpt>
      <trkpt lat="44.52011" lon="6.15856">
        <ele>870.1303711</ele>
        <time>2013-12-05T11:37:07Z</time>
      </trkpt>
      <trkpt lat="44.52023" lon="6.15844">
        <ele>872.0529785</ele>
        <time>2013-12-05T11:37:20Z</time>
      </trkpt>
      <trkpt lat="44.52023" lon="6.15844">
        <ele>873.0144043</ele>
        <time>2013-12-05T11:37:54Z</time>
      </trkpt>
      <trkpt lat="44.52023" lon="6.15844">
        <ele>873.4951172</ele>
        <time>2013-12-05T11:38:06Z</time>
      </trkpt>
      <trkpt lat="44.52023" lon="6.15844">
        <ele>873.4951172</ele>
        <time>2013-12-05T11:38:37Z</time>
      </trkpt>
      <trkpt lat="44.52023" lon="6.15844">
        <ele>872.5336914</ele>
        <time>2013-12-05T11:38:54Z</time>
      </trkpt>
      <trkpt lat="44.52037" lon="6.15825">
        <ele>873.4951172</ele>
        <time>2013-12-05T11:38:56Z</time>
      </trkpt>
      <trkpt lat="44.52054" lon="6.15795">
        <ele>875.8981934</ele>
        <time>2013-12-05T11:39:09Z</time>
      </trkpt>
      <trkpt lat="44.52064" lon="6.15776">
        <ele>878.3017578</ele>
        <time>2013-12-05T11:39:18Z</time>
      </trkpt>
      <trkpt lat="44.52066" lon="6.15771">
        <ele>877.8210449</ele>
        <time>2013-12-05T11:39:21Z</time>
      </trkpt>
      <trkpt lat="44.52069" lon="6.15762">
        <ele>877.8210449</ele>
        <time>2013-12-05T11:39:26Z</time>
      </trkpt>
      <trkpt lat="44.5207" lon="6.15758">
        <ele>877.8210449</ele>
        <time>2013-12-05T11:39:28Z</time>
      </trkpt>
      <trkpt lat="44.52079" lon="6.15715">
        <ele>879.7436523</ele>
        <time>2013-12-05T11:39:44Z</time>
      </trkpt>
      <trkpt lat="44.52084" lon="6.15662">
        <ele>878.7824707</ele>
        <time>2013-12-05T11:39:56Z</time>
      </trkpt>
      <trkpt lat="44.52088" lon="6.1563">
        <ele>877.8210449</ele>
        <time>2013-12-05T11:40:01Z</time>
      </trkpt>
      <trkpt lat="44.52095" lon="6.15565">
        <ele>876.8598633</ele>
        <time>2013-12-05T11:40:14Z</time>
      </trkpt>
      <trkpt lat="44.52094" lon="6.15509">
        <ele>876.8598633</ele>
        <time>2013-12-05T11:40:27Z</time>
      </trkpt>
      <trkpt lat="44.52112" lon="6.15453">
        <ele>878.3017578</ele>
        <time>2013-12-05T11:40:40Z</time>
      </trkpt>
      <trkpt lat="44.52113" lon="6.15451">
        <ele>878.3017578</ele>
        <time>2013-12-05T11:40:41Z</time>
      </trkpt>
      <trkpt lat="44.52116" lon="6.15442">
        <ele>877.8210449</ele>
        <time>2013-12-05T11:40:44Z</time>
      </trkpt>
      <trkpt lat="44.52129" lon="6.15404">
        <ele>880.2243652</ele>
        <time>2013-12-05T11:40:59Z</time>
      </trkpt>
      <trkpt lat="44.5213" lon="6.154">
        <ele>881.185791</ele>
        <time>2013-12-05T11:41:07Z</time>
      </trkpt>
      <trkpt lat="44.5211" lon="6.1539">
        <ele>880.7050781</ele>
        <time>2013-12-05T11:41:17Z</time>
      </trkpt>
      <trkpt lat="44.52107" lon="6.15386">
        <ele>881.6662598</ele>
        <time>2013-12-05T11:41:20Z</time>
      </trkpt>
      <trkpt lat="44.521" lon="6.15378">
        <ele>882.1469727</ele>
        <time>2013-12-05T11:41:24Z</time>
      </trkpt>
      <trkpt lat="44.52095" lon="6.15373">
        <ele>882.6276855</ele>
        <time>2013-12-05T11:41:27Z</time>
      </trkpt>
      <trkpt lat="44.52072" lon="6.15346">
        <ele>884.550293</ele>
        <time>2013-12-05T11:41:44Z</time>
      </trkpt>
      <trkpt lat="44.52064" lon="6.15338">
        <ele>885.5114746</ele>
        <time>2013-12-05T11:41:49Z</time>
      </trkpt>
      <trkpt lat="44.5205" lon="6.15324">
        <ele>886.9533691</ele>
        <time>2013-12-05T11:41:58Z</time>
      </trkpt>
      <trkpt lat="44.52023" lon="6.15303">
        <ele>890.3181152</ele>
        <time>2013-12-05T11:42:18Z</time>
      </trkpt>
      <trkpt lat="44.52002" lon="6.15291">
        <ele>888.8762207</ele>
        <time>2013-12-05T11:42:30Z</time>
      </trkpt>
      <trkpt lat="44.51958" lon="6.15264">
        <ele>886.9533691</ele>
        <time>2013-12-05T11:42:44Z</time>
      </trkpt>
      <trkpt lat="44.51917" lon="6.15245">
        <ele>885.9921875</ele>
        <time>2013-12-05T11:42:54Z</time>
      </trkpt>
      <trkpt lat="44.51898" lon="6.15216">
        <ele>885.9921875</ele>
        <time>2013-12-05T11:43:01Z</time>
      </trkpt>
      <trkpt lat="44.51886" lon="6.1515">
        <ele>887.434082</ele>
        <time>2013-12-05T11:43:17Z</time>
      </trkpt>
      <trkpt lat="44.51876" lon="6.15127">
        <ele>886.9533691</ele>
        <time>2013-12-05T11:43:23Z</time>
      </trkpt>
      <trkpt lat="44.51864" lon="6.15123">
        <ele>885.0310059</ele>
        <time>2013-12-05T11:43:26Z</time>
      </trkpt>
      <trkpt lat="44.51859" lon="6.15123">
        <ele>885.5114746</ele>
        <time>2013-12-05T11:43:27Z</time>
      </trkpt>
      <trkpt lat="44.51844" lon="6.15121">
        <ele>885.5114746</ele>
        <time>2013-12-05T11:43:30Z</time>
      </trkpt>
      <trkpt lat="44.51819" lon="6.15096">
        <ele>887.434082</ele>
        <time>2013-12-05T11:43:41Z</time>
      </trkpt>
      <trkpt lat="44.51802" lon="6.15069">
        <ele>890.798584</ele>
        <time>2013-12-05T11:43:52Z</time>
      </trkpt>
      <trkpt lat="44.51784" lon="6.1503">
        <ele>890.3181152</ele>
        <time>2013-12-05T11:44:06Z</time>
      </trkpt>
      <trkpt lat="44.51794" lon="6.15002">
        <ele>889.3566895</ele>
        <time>2013-12-05T11:44:12Z</time>
      </trkpt>
      <trkpt lat="44.51797" lon="6.1498">
        <ele>889.3566895</ele>
        <time>2013-12-05T11:44:16Z</time>
      </trkpt>
      <trkpt lat="44.51792" lon="6.1495">
        <ele>891.2792969</ele>
        <time>2013-12-05T11:44:26Z</time>
      </trkpt>
      <trkpt lat="44.51791" lon="6.14949">
        <ele>892.2409668</ele>
        <time>2013-12-05T11:44:29Z</time>
      </trkpt>
      <trkpt lat="44.51787" lon="6.14945">
        <ele>891.7600098</ele>
        <time>2013-12-05T11:44:30Z</time>
      </trkpt>
      <trkpt lat="44.51772" lon="6.14943">
        <ele>893.2021484</ele>
        <time>2013-12-05T11:44:37Z</time>
      </trkpt>
      <trkpt lat="44.51766" lon="6.14946">
        <ele>893.6828613</ele>
        <time>2013-12-05T11:44:40Z</time>
      </trkpt>
      <trkpt lat="44.51753" lon="6.14951">
        <ele>895.1247559</ele>
        <time>2013-12-05T11:44:47Z</time>
      </trkpt>
      <trkpt lat="44.51751" lon="6.14951">
        <ele>895.1247559</ele>
        <time>2013-12-05T11:44:49Z</time>
      </trkpt>
      <trkpt lat="44.51749" lon="6.14935">
        <ele>896.0861816</ele>
        <time>2013-12-05T11:44:54Z</time>
      </trkpt>
      <trkpt lat="44.51755" lon="6.14899">
        <ele>898.0087891</ele>
        <time>2013-12-05T11:45:09Z</time>
      </trkpt>
      <trkpt lat="44.51762" lon="6.1488">
        <ele>897.5280762</ele>
        <time>2013-12-05T11:45:17Z</time>
      </trkpt>
      <trkpt lat="44.51762" lon="6.14868">
        <ele>898.4892578</ele>
        <time>2013-12-05T11:45:21Z</time>
      </trkpt>
      <trkpt lat="44.51745" lon="6.14861">
        <ele>898.4892578</ele>
        <time>2013-12-05T11:45:30Z</time>
      </trkpt>
      <trkpt lat="44.51734" lon="6.14865">
        <ele>900.4121094</ele>
        <time>2013-12-05T11:45:35Z</time>
      </trkpt>
      <trkpt lat="44.5173" lon="6.14867">
        <ele>898.4892578</ele>
        <time>2013-12-05T11:45:37Z</time>
      </trkpt>
      <trkpt lat="44.51715" lon="6.14869">
        <ele>899.4506836</ele>
        <time>2013-12-05T11:45:44Z</time>
      </trkpt>
      <trkpt lat="44.51705" lon="6.14874">
        <ele>900.4121094</ele>
        <time>2013-12-05T11:45:48Z</time>
      </trkpt>
      <trkpt lat="44.51699" lon="6.14876">
        <ele>898.9699707</ele>
        <time>2013-12-05T11:45:50Z</time>
      </trkpt>
      <trkpt lat="44.51658" lon="6.14873">
        <ele>895.1247559</ele>
        <time>2013-12-05T11:46:00Z</time>
      </trkpt>
      <trkpt lat="44.51638" lon="6.14877">
        <ele>893.6828613</ele>
        <time>2013-12-05T11:46:03Z</time>
      </trkpt>
      <trkpt lat="44.51623" lon="6.1488">
        <ele>891.7600098</ele>
        <time>2013-12-05T11:46:06Z</time>
      </trkpt>
      <trkpt lat="44.51607" lon="6.14872">
        <ele>889.3566895</ele>
        <time>2013-12-05T11:46:10Z</time>
      </trkpt>
      <trkpt lat="44.51596" lon="6.14843">
        <ele>887.434082</ele>
        <time>2013-12-05T11:46:13Z</time>
      </trkpt>
      <trkpt lat="44.51597" lon="6.14824">
        <ele>885.5114746</ele>
        <time>2013-12-05T11:46:15Z</time>
      </trkpt>
      <trkpt lat="44.51596" lon="6.14774">
        <ele>885.0310059</ele>
        <time>2013-12-05T11:46:20Z</time>
      </trkpt>
      <trkpt lat="44.51594" lon="6.14757">
        <ele>885.0310059</ele>
        <time>2013-12-05T11:46:22Z</time>
      </trkpt>
      <trkpt lat="44.51581" lon="6.14742">
        <ele>884.550293</ele>
        <time>2013-12-05T11:46:31Z</time>
      </trkpt>
      <trkpt lat="44.51567" lon="6.14762">
        <ele>885.9921875</ele>
        <time>2013-12-05T11:46:41Z</time>
      </trkpt>
      <trkpt lat="44.51546" lon="6.14792">
        <ele>887.434082</ele>
        <time>2013-12-05T11:46:53Z</time>
      </trkpt>
      <trkpt lat="44.51537" lon="6.14806">
        <ele>889.8374023</ele>
        <time>2013-12-05T11:46:59Z</time>
      </trkpt>
      <trkpt lat="44.51532" lon="6.14814">
        <ele>888.8762207</ele>
        <time>2013-12-05T11:47:03Z</time>
      </trkpt>
      <trkpt lat="44.51527" lon="6.14823">
        <ele>890.3181152</ele>
        <time>2013-12-05T11:47:08Z</time>
      </trkpt>
      <trkpt lat="44.51511" lon="6.14847">
        <ele>892.2409668</ele>
        <time>2013-12-05T11:47:21Z</time>
      </trkpt>
      <trkpt lat="44.51505" lon="6.1485">
        <ele>892.2409668</ele>
        <time>2013-12-05T11:47:25Z</time>
      </trkpt>
      <trkpt lat="44.51498" lon="6.14851">
        <ele>893.2021484</ele>
        <time>2013-12-05T11:47:29Z</time>
      </trkpt>
      <trkpt lat="44.51496" lon="6.1485">
        <ele>893.2021484</ele>
        <time>2013-12-05T11:47:30Z</time>
      </trkpt>
      <trkpt lat="44.51488" lon="6.14844">
        <ele>895.1247559</ele>
        <time>2013-12-05T11:47:36Z</time>
      </trkpt>
      <trkpt lat="44.51478" lon="6.14835">
        <ele>894.644043</ele>
        <time>2013-12-05T11:47:41Z</time>
      </trkpt>
      <trkpt lat="44.51475" lon="6.14833">
        <ele>895.6054688</ele>
        <time>2013-12-05T11:47:43Z</time>
      </trkpt>
      <trkpt lat="44.51459" lon="6.1482">
        <ele>897.0473633</ele>
        <time>2013-12-05T11:47:52Z</time>
      </trkpt>
      <trkpt lat="44.51434" lon="6.14802">
        <ele>898.4892578</ele>
        <time>2013-12-05T11:48:08Z</time>
      </trkpt>
      <trkpt lat="44.5142" lon="6.14781">
        <ele>899.4506836</ele>
        <time>2013-12-05T11:48:18Z</time>
      </trkpt>
      <trkpt lat="44.5143" lon="6.14736">
        <ele>902.3344727</ele>
        <time>2013-12-05T11:48:36Z</time>
      </trkpt>
      <trkpt lat="44.51418" lon="6.14705">
        <ele>903.7766113</ele>
        <time>2013-12-05T11:48:49Z</time>
      </trkpt>
      <trkpt lat="44.51398" lon="6.14676">
        <ele>907.6218262</ele>
        <time>2013-12-05T11:49:06Z</time>
      </trkpt>
      <trkpt lat="44.51392" lon="6.1467">
        <ele>907.6218262</ele>
        <time>2013-12-05T11:49:10Z</time>
      </trkpt>
      <trkpt lat="44.51371" lon="6.14646">
        <ele>909.5446777</ele>
        <time>2013-12-05T11:49:26Z</time>
      </trkpt>
      <trkpt lat="44.51351" lon="6.1462">
        <ele>911.4672852</ele>
        <time>2013-12-05T11:49:41Z</time>
      </trkpt>
      <trkpt lat="44.51329" lon="6.1459">
        <ele>913.8703613</ele>
        <time>2013-12-05T11:49:58Z</time>
      </trkpt>
      <trkpt lat="44.51317" lon="6.14549">
        <ele>915.3125</ele>
        <time>2013-12-05T11:50:15Z</time>
      </trkpt>
      <trkpt lat="44.51295" lon="6.14535">
        <ele>917.2351074</ele>
        <time>2013-12-05T11:50:25Z</time>
      </trkpt>
      <trkpt lat="44.51309" lon="6.14533">
        <ele>918.677002</ele>
        <time>2013-12-05T11:50:34Z</time>
      </trkpt>
      <trkpt lat="44.51312" lon="6.14539">
        <ele>918.677002</ele>
        <time>2013-12-05T11:50:36Z</time>
      </trkpt>
      <trkpt lat="44.51316" lon="6.14546">
        <ele>919.1577148</ele>
        <time>2013-12-05T11:50:39Z</time>
      </trkpt>
      <trkpt lat="44.51335" lon="6.14572">
        <ele>921.560791</ele>
        <time>2013-12-05T11:50:54Z</time>
      </trkpt>
      <trkpt lat="44.51344" lon="6.14579">
        <ele>922.0415039</ele>
        <time>2013-12-05T11:51:00Z</time>
      </trkpt>
      <trkpt lat="44.51362" lon="6.14592">
        <ele>923.9641113</ele>
        <time>2013-12-05T11:51:11Z</time>
      </trkpt>
      <trkpt lat="44.51387" lon="6.14605">
        <ele>926.3676758</ele>
        <time>2013-12-05T11:51:27Z</time>
      </trkpt>
      <trkpt lat="44.51388" lon="6.14606">
        <ele>926.8483887</ele>
        <time>2013-12-05T11:51:28Z</time>
      </trkpt>
      <trkpt lat="44.51395" lon="6.14608">
        <ele>926.8483887</ele>
        <time>2013-12-05T11:51:33Z</time>
      </trkpt>
      <trkpt lat="44.51409" lon="6.14614">
        <ele>927.8095703</ele>
        <time>2013-12-05T11:51:41Z</time>
      </trkpt>
      <trkpt lat="44.51414" lon="6.14616">
        <ele>928.7709961</ele>
        <time>2013-12-05T11:51:44Z</time>
      </trkpt>
      <trkpt lat="44.51433" lon="6.14622">
        <ele>930.6936035</ele>
        <time>2013-12-05T11:51:58Z</time>
      </trkpt>
      <trkpt lat="44.51445" lon="6.1462">
        <ele>932.135498</ele>
        <time>2013-12-05T11:52:06Z</time>
      </trkpt>
      <trkpt lat="44.51448" lon="6.14618">
        <ele>932.135498</ele>
        <time>2013-12-05T11:52:08Z</time>
      </trkpt>
      <trkpt lat="44.51448" lon="6.14618">
        <ele>932.6162109</ele>
        <time>2013-12-05T11:52:13Z</time>
      </trkpt>
      <trkpt lat="44.51459" lon="6.14614">
        <ele>934.0581055</ele>
        <time>2013-12-05T11:52:23Z</time>
      </trkpt>
      <trkpt lat="44.5148" lon="6.14599">
        <ele>935.0195313</ele>
        <time>2013-12-05T11:52:29Z</time>
      </trkpt>
      <trkpt lat="44.51476" lon="6.14594">
        <ele>935.5</ele>
        <time>2013-12-05T11:52:33Z</time>
      </trkpt>
      <trkpt lat="44.51449" lon="6.14601">
        <ele>937.9033203</ele>
        <time>2013-12-05T11:52:50Z</time>
      </trkpt>
      <trkpt lat="44.51432" lon="6.14595">
        <ele>939.8259277</ele>
        <time>2013-12-05T11:53:02Z</time>
      </trkpt>
      <trkpt lat="44.51414" lon="6.14576">
        <ele>941.7487793</ele>
        <time>2013-12-05T11:53:16Z</time>
      </trkpt>
      <trkpt lat="44.51404" lon="6.14563">
        <ele>943.6713867</ele>
        <time>2013-12-05T11:53:25Z</time>
      </trkpt>
      <trkpt lat="44.51401" lon="6.14549">
        <ele>944.6325684</ele>
        <time>2013-12-05T11:53:31Z</time>
      </trkpt>
      <trkpt lat="44.51412" lon="6.14538">
        <ele>946.074707</ele>
        <time>2013-12-05T11:53:39Z</time>
      </trkpt>
      <trkpt lat="44.51416" lon="6.14536">
        <ele>947.0358887</ele>
        <time>2013-12-05T11:53:45Z</time>
      </trkpt>
      <trkpt lat="44.51441" lon="6.14518">
        <ele>949.439209</ele>
        <time>2013-12-05T11:54:01Z</time>
      </trkpt>
      <trkpt lat="44.51453" lon="6.14511">
        <ele>951.8425293</ele>
        <time>2013-12-05T11:54:14Z</time>
      </trkpt>
      <trkpt lat="44.51465" lon="6.14514">
        <ele>951.8425293</ele>
        <time>2013-12-05T11:54:16Z</time>
      </trkpt>
      <trkpt lat="44.51488" lon="6.14529">
        <ele>954.7263184</ele>
        <time>2013-12-05T11:54:31Z</time>
      </trkpt>
      <trkpt lat="44.51493" lon="6.14532">
        <ele>955.2070313</ele>
        <time>2013-12-05T11:54:36Z</time>
      </trkpt>
      <trkpt lat="44.51496" lon="6.14534">
        <ele>955.2070313</ele>
        <time>2013-12-05T11:54:42Z</time>
      </trkpt>
      <trkpt lat="44.51505" lon="6.1454">
        <ele>956.168457</ele>
        <time>2013-12-05T11:54:44Z</time>
      </trkpt>
      <trkpt lat="44.51529" lon="6.14555">
        <ele>958.5717773</ele>
        <time>2013-12-05T11:54:59Z</time>
      </trkpt>
      <trkpt lat="44.5153" lon="6.14555">
        <ele>958.5717773</ele>
        <time>2013-12-05T11:55:01Z</time>
      </trkpt>
      <trkpt lat="44.51542" lon="6.14559">
        <ele>960.0136719</ele>
        <time>2013-12-05T11:55:09Z</time>
      </trkpt>
      <trkpt lat="44.51563" lon="6.14554">
        <ele>960.4943848</ele>
        <time>2013-12-05T11:55:19Z</time>
      </trkpt>
      <trkpt lat="44.51563" lon="6.14546">
        <ele>961.4558105</ele>
        <time>2013-12-05T11:55:23Z</time>
      </trkpt>
      <trkpt lat="44.51548" lon="6.1453">
        <ele>963.378418</ele>
        <time>2013-12-05T11:55:33Z</time>
      </trkpt>
      <trkpt lat="44.51541" lon="6.14505">
        <ele>964.8203125</ele>
        <time>2013-12-05T11:55:44Z</time>
      </trkpt>
      <trkpt lat="44.5154" lon="6.14501">
        <ele>965.3010254</ele>
        <time>2013-12-05T11:55:47Z</time>
      </trkpt>
      <trkpt lat="44.51539" lon="6.14499">
        <ele>965.7817383</ele>
        <time>2013-12-05T11:55:49Z</time>
      </trkpt>
      <trkpt lat="44.51538" lon="6.14496">
        <ele>965.7817383</ele>
        <time>2013-12-05T11:55:51Z</time>
      </trkpt>
      <trkpt lat="44.51536" lon="6.1449">
        <ele>966.262207</ele>
        <time>2013-12-05T11:55:55Z</time>
      </trkpt>
      <trkpt lat="44.51533" lon="6.14482">
        <ele>966.7429199</ele>
        <time>2013-12-05T11:55:58Z</time>
      </trkpt>
      <trkpt lat="44.5153" lon="6.14474">
        <ele>967.2236328</ele>
        <time>2013-12-05T11:56:02Z</time>
      </trkpt>
      <trkpt lat="44.51527" lon="6.14466">
        <ele>967.7041016</ele>
        <time>2013-12-05T11:56:05Z</time>
      </trkpt>
      <trkpt lat="44.51521" lon="6.14439">
        <ele>969.1462402</ele>
        <time>2013-12-05T11:56:17Z</time>
      </trkpt>
      <trkpt lat="44.5153" lon="6.14411">
        <ele>972.0302734</ele>
        <time>2013-12-05T11:56:31Z</time>
      </trkpt>
      <trkpt lat="44.51538" lon="6.14407">
        <ele>972.9916992</ele>
        <time>2013-12-05T11:56:37Z</time>
      </trkpt>
      <trkpt lat="44.51539" lon="6.14407">
        <ele>972.9916992</ele>
        <time>2013-12-05T11:56:40Z</time>
      </trkpt>
      <trkpt lat="44.51554" lon="6.14399">
        <ele>975.3947754</ele>
        <time>2013-12-05T11:56:50Z</time>
      </trkpt>
      <trkpt lat="44.51557" lon="6.14396">
        <ele>975.3947754</ele>
        <time>2013-12-05T11:56:53Z</time>
      </trkpt>
      <trkpt lat="44.51565" lon="6.14383">
        <ele>976.3562012</ele>
        <time>2013-12-05T11:56:57Z</time>
      </trkpt>
      <trkpt lat="44.51569" lon="6.14339">
        <ele>978.2788086</ele>
        <time>2013-12-05T11:57:12Z</time>
      </trkpt>
      <trkpt lat="44.51584" lon="6.14301">
        <ele>979.7207031</ele>
        <time>2013-12-05T11:57:28Z</time>
      </trkpt>
      <trkpt lat="44.51589" lon="6.14272">
        <ele>980.201416</ele>
        <time>2013-12-05T11:57:39Z</time>
      </trkpt>
      <trkpt lat="44.51589" lon="6.1427">
        <ele>980.201416</ele>
        <time>2013-12-05T11:57:41Z</time>
      </trkpt>
      <trkpt lat="44.51565" lon="6.14275">
        <ele>982.1240234</ele>
        <time>2013-12-05T11:57:54Z</time>
      </trkpt>
      <trkpt lat="44.51555" lon="6.14284">
        <ele>982.6047363</ele>
        <time>2013-12-05T11:58:00Z</time>
      </trkpt>
      <trkpt lat="44.51555" lon="6.1428">
        <ele>983.565918</ele>
        <time>2013-12-05T11:58:03Z</time>
      </trkpt>
      <trkpt lat="44.51553" lon="6.14281">
        <ele>984.0466309</ele>
        <time>2013-12-05T11:58:05Z</time>
      </trkpt>
      <trkpt lat="44.5155" lon="6.14281">
        <ele>984.0466309</ele>
        <time>2013-12-05T11:58:07Z</time>
      </trkpt>
      <trkpt lat="44.51543" lon="6.14285">
        <ele>985.0080566</ele>
        <time>2013-12-05T11:58:12Z</time>
      </trkpt>
      <trkpt lat="44.51537" lon="6.14285">
        <ele>985.4885254</ele>
        <time>2013-12-05T11:58:14Z</time>
      </trkpt>
      <trkpt lat="44.51502" lon="6.14298">
        <ele>986.9304199</ele>
        <time>2013-12-05T11:58:34Z</time>
      </trkpt>
      <trkpt lat="44.51489" lon="6.14286">
        <ele>988.8535156</ele>
        <time>2013-12-05T11:58:43Z</time>
      </trkpt>
      <trkpt lat="44.51485" lon="6.14283">
        <ele>988.8535156</ele>
        <time>2013-12-05T11:58:46Z</time>
      </trkpt>
      <trkpt lat="44.51476" lon="6.14275">
        <ele>989.8146973</ele>
        <time>2013-12-05T11:58:54Z</time>
      </trkpt>
      <trkpt lat="44.51466" lon="6.14268">
        <ele>990.2954102</ele>
        <time>2013-12-05T11:59:01Z</time>
      </trkpt>
      <trkpt lat="44.51459" lon="6.14257">
        <ele>990.7758789</ele>
        <time>2013-12-05T11:59:06Z</time>
      </trkpt>
      <trkpt lat="44.51454" lon="6.14255">
        <ele>991.2565918</ele>
        <time>2013-12-05T11:59:09Z</time>
      </trkpt>
      <trkpt lat="44.51445" lon="6.14242">
        <ele>992.6987305</ele>
        <time>2013-12-05T11:59:14Z</time>
      </trkpt>
      <trkpt lat="44.51439" lon="6.14237">
        <ele>993.1791992</ele>
        <time>2013-12-05T11:59:17Z</time>
      </trkpt>
      <trkpt lat="44.51429" lon="6.14237">
        <ele>993.1791992</ele>
        <time>2013-12-05T11:59:22Z</time>
      </trkpt>
      <trkpt lat="44.51419" lon="6.14238">
        <ele>994.6210938</ele>
        <time>2013-12-05T11:59:28Z</time>
      </trkpt>
      <trkpt lat="44.51398" lon="6.14231">
        <ele>996.5439453</ele>
        <time>2013-12-05T11:59:43Z</time>
      </trkpt>
      <trkpt lat="44.51396" lon="6.1423">
        <ele>996.5439453</ele>
        <time>2013-12-05T11:59:44Z</time>
      </trkpt>
      <trkpt lat="44.5139" lon="6.14222">
        <ele>997.505127</ele>
        <time>2013-12-05T11:59:49Z</time>
      </trkpt>
      <trkpt lat="44.51377" lon="6.14218">
        <ele>998.4663086</ele>
        <time>2013-12-05T11:59:58Z</time>
      </trkpt>
      <trkpt lat="44.51371" lon="6.1421">
        <ele>999.4277344</ele>
        <time>2013-12-05T12:00:02Z</time>
      </trkpt>
      <trkpt lat="44.51364" lon="6.14205">
        <ele>999.9084473</ele>
        <time>2013-12-05T12:00:05Z</time>
      </trkpt>
      <trkpt lat="44.51359" lon="6.14202">
        <ele>1000.3891602</ele>
        <time>2013-12-05T12:00:09Z</time>
      </trkpt>
      <trkpt lat="44.51348" lon="6.14193">
        <ele>1001.8310547</ele>
        <time>2013-12-05T12:00:17Z</time>
      </trkpt>
      <trkpt lat="44.51343" lon="6.1419">
        <ele>1002.3115234</ele>
        <time>2013-12-05T12:00:21Z</time>
      </trkpt>
      <trkpt lat="44.51318" lon="6.14184">
        <ele>1004.7150879</ele>
        <time>2013-12-05T12:00:36Z</time>
      </trkpt>
      <trkpt lat="44.51306" lon="6.14182">
        <ele>1005.1958008</ele>
        <time>2013-12-05T12:00:42Z</time>
      </trkpt>
      <trkpt lat="44.51298" lon="6.14181">
        <ele>1006.1569824</ele>
        <time>2013-12-05T12:00:47Z</time>
      </trkpt>
      <trkpt lat="44.51276" lon="6.14175">
        <ele>1008.079834</ele>
        <time>2013-12-05T12:01:00Z</time>
      </trkpt>
      <trkpt lat="44.51251" lon="6.14169">
        <ele>1010.0021973</ele>
        <time>2013-12-05T12:01:14Z</time>
      </trkpt>
      <trkpt lat="44.51241" lon="6.14154">
        <ele>1010.4829102</ele>
        <time>2013-12-05T12:01:20Z</time>
      </trkpt>
      <trkpt lat="44.51235" lon="6.14151">
        <ele>1010.963623</ele>
        <time>2013-12-05T12:01:24Z</time>
      </trkpt>
      <trkpt lat="44.5123" lon="6.14143">
        <ele>1011.4443359</ele>
        <time>2013-12-05T12:01:27Z</time>
      </trkpt>
      <trkpt lat="44.51212" lon="6.1411">
        <ele>1013.8474121</ele>
        <time>2013-12-05T12:01:41Z</time>
      </trkpt>
      <trkpt lat="44.51194" lon="6.14066">
        <ele>1016.7314453</ele>
        <time>2013-12-05T12:01:59Z</time>
      </trkpt>
      <trkpt lat="44.51191" lon="6.14025">
        <ele>1018.1733398</ele>
        <time>2013-12-05T12:02:14Z</time>
      </trkpt>
      <trkpt lat="44.51195" lon="6.14005">
        <ele>1019.1347656</ele>
        <time>2013-12-05T12:02:22Z</time>
      </trkpt>
      <trkpt lat="44.51207" lon="6.13975">
        <ele>1021.0576172</ele>
        <time>2013-12-05T12:02:37Z</time>
      </trkpt>
      <trkpt lat="44.51222" lon="6.1394">
        <ele>1022.9802246</ele>
        <time>2013-12-05T12:02:53Z</time>
      </trkpt>
      <trkpt lat="44.51238" lon="6.13895">
        <ele>1025.8640137</ele>
        <time>2013-12-05T12:03:12Z</time>
      </trkpt>
      <trkpt lat="44.5124" lon="6.13889">
        <ele>1025.8640137</ele>
        <time>2013-12-05T12:03:15Z</time>
      </trkpt>
      <trkpt lat="44.51242" lon="6.13882">
        <ele>1026.3447266</ele>
        <time>2013-12-05T12:03:18Z</time>
      </trkpt>
      <trkpt lat="44.51244" lon="6.13855">
        <ele>1027.3061523</ele>
        <time>2013-12-05T12:03:27Z</time>
      </trkpt>
      <trkpt lat="44.51236" lon="6.13813">
        <ele>1028.7480469</ele>
        <time>2013-12-05T12:03:43Z</time>
      </trkpt>
      <trkpt lat="44.51229" lon="6.1378">
        <ele>1030.6706543</ele>
        <time>2013-12-05T12:03:56Z</time>
      </trkpt>
      <trkpt lat="44.51224" lon="6.13767">
        <ele>1031.6318359</ele>
        <time>2013-12-05T12:04:02Z</time>
      </trkpt>
      <trkpt lat="44.51224" lon="6.13758">
        <ele>1032.1125488</ele>
        <time>2013-12-05T12:04:06Z</time>
      </trkpt>
      <trkpt lat="44.51224" lon="6.13748">
        <ele>1032.5932617</ele>
        <time>2013-12-05T12:04:10Z</time>
      </trkpt>
      <trkpt lat="44.51222" lon="6.13738">
        <ele>1033.0737305</ele>
        <time>2013-12-05T12:04:14Z</time>
      </trkpt>
      <trkpt lat="44.5121" lon="6.13694">
        <ele>1035.9577637</ele>
        <time>2013-12-05T12:04:33Z</time>
      </trkpt>
      <trkpt lat="44.51204" lon="6.13689">
        <ele>1036.4387207</ele>
        <time>2013-12-05T12:04:36Z</time>
      </trkpt>
      <trkpt lat="44.51194" lon="6.13647">
        <ele>1038.3613281</ele>
        <time>2013-12-05T12:04:54Z</time>
      </trkpt>
      <trkpt lat="44.51193" lon="6.13617">
        <ele>1040.2839355</ele>
        <time>2013-12-05T12:05:07Z</time>
      </trkpt>
      <trkpt lat="44.51196" lon="6.13606">
        <ele>1039.3225098</ele>
        <time>2013-12-05T12:05:11Z</time>
      </trkpt>
      <trkpt lat="44.51196" lon="6.13601">
        <ele>1041.7258301</ele>
        <time>2013-12-05T12:05:13Z</time>
      </trkpt>
      <trkpt lat="44.51196" lon="6.13562">
        <ele>1045.090332</ele>
        <time>2013-12-05T12:05:27Z</time>
      </trkpt>
      <trkpt lat="44.51196" lon="6.13561">
        <ele>1045.090332</ele>
        <time>2013-12-05T12:05:28Z</time>
      </trkpt>
      <trkpt lat="44.51197" lon="6.13556">
        <ele>1043.6484375</ele>
        <time>2013-12-05T12:05:30Z</time>
      </trkpt>
      <trkpt lat="44.51202" lon="6.13521">
        <ele>1044.6096191</ele>
        <time>2013-12-05T12:05:45Z</time>
      </trkpt>
      <trkpt lat="44.51204" lon="6.13517">
        <ele>1045.5710449</ele>
        <time>2013-12-05T12:05:47Z</time>
      </trkpt>
      <trkpt lat="44.51213" lon="6.13499">
        <ele>1046.5324707</ele>
        <time>2013-12-05T12:06:00Z</time>
      </trkpt>
      <trkpt lat="44.51215" lon="6.13495">
        <ele>1047.0129395</ele>
        <time>2013-12-05T12:06:20Z</time>
      </trkpt>
      <trkpt lat="44.51215" lon="6.13492">
        <ele>1047.0129395</ele>
        <time>2013-12-05T12:06:27Z</time>
      </trkpt>
      <trkpt lat="44.51214" lon="6.13492">
        <ele>1047.0129395</ele>
        <time>2013-12-05T12:07:27Z</time>
      </trkpt>
      <trkpt lat="44.51225" lon="6.13468">
        <ele>1045.090332</ele>
        <time>2013-12-05T12:07:35Z</time>
      </trkpt>
      <trkpt lat="44.51229" lon="6.13451">
        <ele>1041.7258301</ele>
        <time>2013-12-05T12:07:38Z</time>
      </trkpt>
      <trkpt lat="44.51231" lon="6.13444">
        <ele>1041.7258301</ele>
        <time>2013-12-05T12:07:39Z</time>
      </trkpt>
      <trkpt lat="44.51234" lon="6.13431">
        <ele>1041.7258301</ele>
        <time>2013-12-05T12:07:41Z</time>
      </trkpt>
      <trkpt lat="44.5125" lon="6.13389">
        <ele>1037.8806152</ele>
        <time>2013-12-05T12:07:46Z</time>
      </trkpt>
      <trkpt lat="44.51257" lon="6.13376">
        <ele>1036.4387207</ele>
        <time>2013-12-05T12:07:48Z</time>
      </trkpt>
      <trkpt lat="44.51267" lon="6.13354">
        <ele>1034.996582</ele>
        <time>2013-12-05T12:07:51Z</time>
      </trkpt>
      <trkpt lat="44.51276" lon="6.13341">
        <ele>1034.996582</ele>
        <time>2013-12-05T12:07:53Z</time>
      </trkpt>
      <trkpt lat="44.51293" lon="6.13321">
        <ele>1032.1125488</ele>
        <time>2013-12-05T12:07:57Z</time>
      </trkpt>
      <trkpt lat="44.51304" lon="6.1331">
        <ele>1030.6706543</ele>
        <time>2013-12-05T12:07:59Z</time>
      </trkpt>
      <trkpt lat="44.51313" lon="6.13309">
        <ele>1029.2285156</ele>
        <time>2013-12-05T12:08:01Z</time>
      </trkpt>
      <trkpt lat="44.5133" lon="6.13307">
        <ele>1029.7092285</ele>
        <time>2013-12-05T12:08:04Z</time>
      </trkpt>
      <trkpt lat="44.51341" lon="6.13308">
        <ele>1028.267334</ele>
        <time>2013-12-05T12:08:06Z</time>
      </trkpt>
      <trkpt lat="44.51347" lon="6.1331">
        <ele>1028.267334</ele>
        <time>2013-12-05T12:08:07Z</time>
      </trkpt>
      <trkpt lat="44.51358" lon="6.13308">
        <ele>1025.8640137</ele>
        <time>2013-12-05T12:08:09Z</time>
      </trkpt>
      <trkpt lat="44.51378" lon="6.13307">
        <ele>1024.4221191</ele>
        <time>2013-12-05T12:08:13Z</time>
      </trkpt>
      <trkpt lat="44.51402" lon="6.13319">
        <ele>1023.4609375</ele>
        <time>2013-12-05T12:08:17Z</time>
      </trkpt>
      <trkpt lat="44.51417" lon="6.13324">
        <ele>1020.5769043</ele>
        <time>2013-12-05T12:08:21Z</time>
      </trkpt>
      <trkpt lat="44.51426" lon="6.13314">
        <ele>1020.0961914</ele>
        <time>2013-12-05T12:08:23Z</time>
      </trkpt>
      <trkpt lat="44.51453" lon="6.13318">
        <ele>1018.6540527</ele>
        <time>2013-12-05T12:08:28Z</time>
      </trkpt>
      <trkpt lat="44.51466" lon="6.13337">
        <ele>1015.7702637</ele>
        <time>2013-12-05T12:08:32Z</time>
      </trkpt>
      <trkpt lat="44.5147" lon="6.13342">
        <ele>1015.2895508</ele>
        <time>2013-12-05T12:08:33Z</time>
      </trkpt>
      <trkpt lat="44.51493" lon="6.13368">
        <ele>1012.4055176</ele>
        <time>2013-12-05T12:08:41Z</time>
      </trkpt>
      <trkpt lat="44.51511" lon="6.13352">
        <ele>1011.4443359</ele>
        <time>2013-12-05T12:08:46Z</time>
      </trkpt>
      <trkpt lat="44.51508" lon="6.13335">
        <ele>1007.5991211</ele>
        <time>2013-12-05T12:08:50Z</time>
      </trkpt>
      <trkpt lat="44.51508" lon="6.13328">
        <ele>1007.5991211</ele>
        <time>2013-12-05T12:08:51Z</time>
      </trkpt>
      <trkpt lat="44.51498" lon="6.13302">
        <ele>1007.5991211</ele>
        <time>2013-12-05T12:08:54Z</time>
      </trkpt>
      <trkpt lat="44.51488" lon="6.13281">
        <ele>1004.7150879</ele>
        <time>2013-12-05T12:08:57Z</time>
      </trkpt>
      <trkpt lat="44.51483" lon="6.13274">
        <ele>1004.7150879</ele>
        <time>2013-12-05T12:08:58Z</time>
      </trkpt>
      <trkpt lat="44.51481" lon="6.13264">
        <ele>1005.1958008</ele>
        <time>2013-12-05T12:08:59Z</time>
      </trkpt>
      <trkpt lat="44.51477" lon="6.13245">
        <ele>1002.7922363</ele>
        <time>2013-12-05T12:09:02Z</time>
      </trkpt>
      <trkpt lat="44.51474" lon="6.13233">
        <ele>1000.3891602</ele>
        <time>2013-12-05T12:09:05Z</time>
      </trkpt>
      <trkpt lat="44.51468" lon="6.13222">
        <ele>997.0244141</ele>
        <time>2013-12-05T12:09:08Z</time>
      </trkpt>
      <trkpt lat="44.51464" lon="6.1322">
        <ele>997.0244141</ele>
        <time>2013-12-05T12:09:09Z</time>
      </trkpt>
      <trkpt lat="44.51455" lon="6.13218">
        <ele>998.4663086</ele>
        <time>2013-12-05T12:09:11Z</time>
      </trkpt>
      <trkpt lat="44.51452" lon="6.13218">
        <ele>996.5439453</ele>
        <time>2013-12-05T12:09:12Z</time>
      </trkpt>
      <trkpt lat="44.51442" lon="6.13203">
        <ele>995.1018066</ele>
        <time>2013-12-05T12:09:16Z</time>
      </trkpt>
      <trkpt lat="44.51437" lon="6.13197">
        <ele>996.5439453</ele>
        <time>2013-12-05T12:09:18Z</time>
      </trkpt>
      <trkpt lat="44.51434" lon="6.13198">
        <ele>992.6987305</ele>
        <time>2013-12-05T12:09:20Z</time>
      </trkpt>
      <trkpt lat="44.51433" lon="6.13196">
        <ele>992.6987305</ele>
        <time>2013-12-05T12:09:21Z</time>
      </trkpt>
      <trkpt lat="44.51425" lon="6.13183">
        <ele>990.7758789</ele>
        <time>2013-12-05T12:09:25Z</time>
      </trkpt>
      <trkpt lat="44.51422" lon="6.13164">
        <ele>989.3339844</ele>
        <time>2013-12-05T12:09:28Z</time>
      </trkpt>
      <trkpt lat="44.51419" lon="6.13148">
        <ele>985.9692383</ele>
        <time>2013-12-05T12:09:31Z</time>
      </trkpt>
      <trkpt lat="44.51405" lon="6.13142">
        <ele>985.9692383</ele>
        <time>2013-12-05T12:09:32Z</time>
      </trkpt>
      <trkpt lat="44.51396" lon="6.13114">
        <ele>983.0852051</ele>
        <time>2013-12-05T12:09:35Z</time>
      </trkpt>
      <trkpt lat="44.51394" lon="6.13091">
        <ele>981.1628418</ele>
        <time>2013-12-05T12:09:37Z</time>
      </trkpt>
      <trkpt lat="44.51391" lon="6.1307">
        <ele>978.2788086</ele>
        <time>2013-12-05T12:09:40Z</time>
      </trkpt>
      <trkpt lat="44.51388" lon="6.13043">
        <ele>980.201416</ele>
        <time>2013-12-05T12:09:44Z</time>
      </trkpt>
      <trkpt lat="44.51388" lon="6.13037">
        <ele>976.8369141</ele>
        <time>2013-12-05T12:09:45Z</time>
      </trkpt>
      <trkpt lat="44.51388" lon="6.13024">
        <ele>976.8369141</ele>
        <time>2013-12-05T12:09:46Z</time>
      </trkpt>
      <trkpt lat="44.51389" lon="6.13002">
        <ele>978.7595215</ele>
        <time>2013-12-05T12:09:48Z</time>
      </trkpt>
      <trkpt lat="44.51394" lon="6.12943">
        <ele>975.8754883</ele>
        <time>2013-12-05T12:09:55Z</time>
      </trkpt>
      <trkpt lat="44.5139" lon="6.12933">
        <ele>977.7980957</ele>
        <time>2013-12-05T12:09:56Z</time>
      </trkpt>
      <trkpt lat="44.51388" lon="6.12917">
        <ele>978.7595215</ele>
        <time>2013-12-05T12:09:58Z</time>
      </trkpt>
      <trkpt lat="44.51406" lon="6.12883">
        <ele>977.317627</ele>
        <time>2013-12-05T12:10:02Z</time>
      </trkpt>
      <trkpt lat="44.51421" lon="6.12879">
        <ele>972.9916992</ele>
        <time>2013-12-05T12:10:05Z</time>
      </trkpt>
      <trkpt lat="44.51429" lon="6.12873">
        <ele>971.5493164</ele>
        <time>2013-12-05T12:10:07Z</time>
      </trkpt>
      <trkpt lat="44.51438" lon="6.12864">
        <ele>970.1074219</ele>
        <time>2013-12-05T12:10:09Z</time>
      </trkpt>
      <trkpt lat="44.51443" lon="6.12858">
        <ele>967.7041016</ele>
        <time>2013-12-05T12:10:10Z</time>
      </trkpt>
      <trkpt lat="44.51457" lon="6.12834">
        <ele>965.7817383</ele>
        <time>2013-12-05T12:10:14Z</time>
      </trkpt>
      <trkpt lat="44.51472" lon="6.12806">
        <ele>962.4169922</ele>
        <time>2013-12-05T12:10:18Z</time>
      </trkpt>
      <trkpt lat="44.51476" lon="6.12803">
        <ele>962.4169922</ele>
        <time>2013-12-05T12:10:19Z</time>
      </trkpt>
      <trkpt lat="44.5149" lon="6.12779">
        <ele>961.4558105</ele>
        <time>2013-12-05T12:10:23Z</time>
      </trkpt>
      <trkpt lat="44.51497" lon="6.12769">
        <ele>958.0913086</ele>
        <time>2013-12-05T12:10:25Z</time>
      </trkpt>
      <trkpt lat="44.51498" lon="6.12767">
        <ele>958.0913086</ele>
        <time>2013-12-05T12:10:26Z</time>
      </trkpt>
      <trkpt lat="44.51508" lon="6.12745">
        <ele>957.6105957</ele>
        <time>2013-12-05T12:10:28Z</time>
      </trkpt>
      <trkpt lat="44.51508" lon="6.12745">
        <ele>955.6877441</ele>
        <time>2013-12-05T12:10:30Z</time>
      </trkpt>
      <trkpt lat="44.51534" lon="6.12696">
        <ele>953.2844238</ele>
        <time>2013-12-05T12:10:38Z</time>
      </trkpt>
      <trkpt lat="44.51537" lon="6.12691">
        <ele>953.2844238</ele>
        <time>2013-12-05T12:10:49Z</time>
      </trkpt>
      <trkpt lat="44.51537" lon="6.12691">
        <ele>953.2844238</ele>
        <time>2013-12-05T12:11:04Z</time>
      </trkpt>
      <trkpt lat="44.51538" lon="6.1268">
        <ele>953.2844238</ele>
        <time>2013-12-05T12:11:17Z</time>
      </trkpt>
      <trkpt lat="44.51538" lon="6.1268">
        <ele>952.8037109</ele>
        <time>2013-12-05T12:11:37Z</time>
      </trkpt>
      <trkpt lat="44.51538" lon="6.1268">
        <ele>952.322998</ele>
        <time>2013-12-05T12:11:58Z</time>
      </trkpt>
      <trkpt lat="44.51538" lon="6.1268">
        <ele>951.3618164</ele>
        <time>2013-12-05T12:12:23Z</time>
      </trkpt>
      <trkpt lat="44.51538" lon="6.1268">
        <ele>952.8037109</ele>
        <time>2013-12-05T12:12:25Z</time>
      </trkpt>
      <trkpt lat="44.51538" lon="6.1268">
        <ele>952.8037109</ele>
        <time>2013-12-05T12:12:49Z</time>
      </trkpt>
      <trkpt lat="44.51538" lon="6.1268">
        <ele>951.3618164</ele>
        <time>2013-12-05T12:13:06Z</time>
      </trkpt>
      <trkpt lat="44.51538" lon="6.1268">
        <ele>952.322998</ele>
        <time>2013-12-05T12:13:25Z</time>
      </trkpt>
      <trkpt lat="44.51524" lon="6.12607">
        <ele>953.2844238</ele>
        <time>2013-12-05T12:13:29Z</time>
      </trkpt>
      <trkpt lat="44.51505" lon="6.12564">
        <ele>954.7263184</ele>
        <time>2013-12-05T12:13:42Z</time>
      </trkpt>
      <trkpt lat="44.51495" lon="6.12519">
        <ele>957.1298828</ele>
        <time>2013-12-05T12:13:56Z</time>
      </trkpt>
      <trkpt lat="44.51493" lon="6.12463">
        <ele>958.0913086</ele>
        <time>2013-12-05T12:14:11Z</time>
      </trkpt>
      <trkpt lat="44.51492" lon="6.12415">
        <ele>959.5332031</ele>
        <time>2013-12-05T12:14:25Z</time>
      </trkpt>
      <trkpt lat="44.51497" lon="6.12384">
        <ele>960.0136719</ele>
        <time>2013-12-05T12:14:33Z</time>
      </trkpt>
      <trkpt lat="44.51507" lon="6.12347">
        <ele>960.9750977</ele>
        <time>2013-12-05T12:14:44Z</time>
      </trkpt>
      <trkpt lat="44.51508" lon="6.12344">
        <ele>960.4943848</ele>
        <time>2013-12-05T12:14:45Z</time>
      </trkpt>
      <trkpt lat="44.51527" lon="6.12319">
        <ele>960.4943848</ele>
        <time>2013-12-05T12:14:57Z</time>
      </trkpt>
      <trkpt lat="44.51542" lon="6.1231">
        <ele>960.4943848</ele>
        <time>2013-12-05T12:15:06Z</time>
      </trkpt>
      <trkpt lat="44.51547" lon="6.12309">
        <ele>960.4943848</ele>
        <time>2013-12-05T12:15:09Z</time>
      </trkpt>
      <trkpt lat="44.51544" lon="6.12291">
        <ele>960.9750977</ele>
        <time>2013-12-05T12:15:16Z</time>
      </trkpt>
      <trkpt lat="44.51526" lon="6.1225">
        <ele>962.8977051</ele>
        <time>2013-12-05T12:15:31Z</time>
      </trkpt>
      <trkpt lat="44.51506" lon="6.12194">
        <ele>964.3395996</ele>
        <time>2013-12-05T12:15:45Z</time>
      </trkpt>
      <trkpt lat="44.5151" lon="6.12151">
        <ele>963.378418</ele>
        <time>2013-12-05T12:15:54Z</time>
      </trkpt>
      <trkpt lat="44.51507" lon="6.12132">
        <ele>963.378418</ele>
        <time>2013-12-05T12:15:58Z</time>
      </trkpt>
      <trkpt lat="44.51475" lon="6.12086">
        <ele>967.2236328</ele>
        <time>2013-12-05T12:16:14Z</time>
      </trkpt>
      <trkpt lat="44.51463" lon="6.12052">
        <ele>967.7041016</ele>
        <time>2013-12-05T12:16:26Z</time>
      </trkpt>
      <trkpt lat="44.51449" lon="6.12009">
        <ele>970.5881348</ele>
        <time>2013-12-05T12:16:40Z</time>
      </trkpt>
      <trkpt lat="44.51436" lon="6.11965">
        <ele>972.5109863</ele>
        <time>2013-12-05T12:16:54Z</time>
      </trkpt>
      <trkpt lat="44.51422" lon="6.1191">
        <ele>973.4724121</ele>
        <time>2013-12-05T12:17:12Z</time>
      </trkpt>
      <trkpt lat="44.5141" lon="6.11856">
        <ele>976.3562012</ele>
        <time>2013-12-05T12:17:30Z</time>
      </trkpt>
      <trkpt lat="44.51406" lon="6.11833">
        <ele>977.317627</ele>
        <time>2013-12-05T12:17:39Z</time>
      </trkpt>
      <trkpt lat="44.51402" lon="6.11786">
        <ele>980.6821289</ele>
        <time>2013-12-05T12:17:56Z</time>
      </trkpt>
      <trkpt lat="44.51396" lon="6.11732">
        <ele>978.2788086</ele>
        <time>2013-12-05T12:18:10Z</time>
      </trkpt>
      <trkpt lat="44.51397" lon="6.11718">
        <ele>978.2788086</ele>
        <time>2013-12-05T12:18:12Z</time>
      </trkpt>
      <trkpt lat="44.51416" lon="6.11639">
        <ele>977.317627</ele>
        <time>2013-12-05T12:18:27Z</time>
      </trkpt>
      <trkpt lat="44.51397" lon="6.11594">
        <ele>980.201416</ele>
        <time>2013-12-05T12:18:37Z</time>
      </trkpt>
      <trkpt lat="44.51349" lon="6.11573">
        <ele>980.201416</ele>
        <time>2013-12-05T12:18:51Z</time>
      </trkpt>
      <trkpt lat="44.51321" lon="6.11562">
        <ele>982.1240234</ele>
        <time>2013-12-05T12:18:59Z</time>
      </trkpt>
      <trkpt lat="44.51282" lon="6.11548">
        <ele>985.4885254</ele>
        <time>2013-12-05T12:19:12Z</time>
      </trkpt>
      <trkpt lat="44.51261" lon="6.11537">
        <ele>987.4111328</ele>
        <time>2013-12-05T12:19:26Z</time>
      </trkpt>
      <trkpt lat="44.51229" lon="6.11542">
        <ele>985.4885254</ele>
        <time>2013-12-05T12:19:32Z</time>
      </trkpt>
      <trkpt lat="44.51212" lon="6.11447">
        <ele>984.0466309</ele>
        <time>2013-12-05T12:19:40Z</time>
      </trkpt>
      <trkpt lat="44.51184" lon="6.11416">
        <ele>984.0466309</ele>
        <time>2013-12-05T12:19:47Z</time>
      </trkpt>
      <trkpt lat="44.51154" lon="6.11395">
        <ele>984.0466309</ele>
        <time>2013-12-05T12:19:55Z</time>
      </trkpt>
      <trkpt lat="44.51128" lon="6.11387">
        <ele>982.6047363</ele>
        <time>2013-12-05T12:20:01Z</time>
      </trkpt>
      <trkpt lat="44.51088" lon="6.11378">
        <ele>980.201416</ele>
        <time>2013-12-05T12:20:09Z</time>
      </trkpt>
      <trkpt lat="44.51052" lon="6.11357">
        <ele>978.7595215</ele>
        <time>2013-12-05T12:20:15Z</time>
      </trkpt>
      <trkpt lat="44.51033" lon="6.11345">
        <ele>977.317627</ele>
        <time>2013-12-05T12:20:18Z</time>
      </trkpt>
      <trkpt lat="44.50993" lon="6.11327">
        <ele>974.4335938</ele>
        <time>2013-12-05T12:20:23Z</time>
      </trkpt>
      <trkpt lat="44.50902" lon="6.11292">
        <ele>972.5109863</ele>
        <time>2013-12-05T12:20:35Z</time>
      </trkpt>
      <trkpt lat="44.50868" lon="6.11254">
        <ele>970.1074219</ele>
        <time>2013-12-05T12:20:44Z</time>
      </trkpt>
      <trkpt lat="44.5086" lon="6.11239">
        <ele>968.6655273</ele>
        <time>2013-12-05T12:20:46Z</time>
      </trkpt>
      <trkpt lat="44.50829" lon="6.11211">
        <ele>966.262207</ele>
        <time>2013-12-05T12:20:51Z</time>
      </trkpt>
      <trkpt lat="44.50811" lon="6.11201">
        <ele>963.8588867</ele>
        <time>2013-12-05T12:20:53Z</time>
      </trkpt>
      <trkpt lat="44.5078" lon="6.11184">
        <ele>959.5332031</ele>
        <time>2013-12-05T12:20:56Z</time>
      </trkpt>
      <trkpt lat="44.5077" lon="6.11178">
        <ele>959.5332031</ele>
        <time>2013-12-05T12:20:57Z</time>
      </trkpt>
      <trkpt lat="44.5076" lon="6.11172">
        <ele>955.2070313</ele>
        <time>2013-12-05T12:20:58Z</time>
      </trkpt>
      <trkpt lat="44.50743" lon="6.11161">
        <ele>953.7651367</ele>
        <time>2013-12-05T12:21:00Z</time>
      </trkpt>
      <trkpt lat="44.50686" lon="6.11125">
        <ele>949.9199219</ele>
        <time>2013-12-05T12:21:08Z</time>
      </trkpt>
      <trkpt lat="44.50678" lon="6.1112">
        <ele>949.9199219</ele>
        <time>2013-12-05T12:21:09Z</time>
      </trkpt>
      <trkpt lat="44.50644" lon="6.111">
        <ele>945.5939941</ele>
        <time>2013-12-05T12:21:13Z</time>
      </trkpt>
      <trkpt lat="44.50634" lon="6.11094">
        <ele>945.5939941</ele>
        <time>2013-12-05T12:21:14Z</time>
      </trkpt>
      <trkpt lat="44.50613" lon="6.1108">
        <ele>942.7102051</ele>
        <time>2013-12-05T12:21:16Z</time>
      </trkpt>
      <trkpt lat="44.50594" lon="6.11068">
        <ele>940.7873535</ele>
        <time>2013-12-05T12:21:18Z</time>
      </trkpt>
      <trkpt lat="44.50566" lon="6.11051">
        <ele>938.3840332</ele>
        <time>2013-12-05T12:21:21Z</time>
      </trkpt>
      <trkpt lat="44.5055" lon="6.11041">
        <ele>936.9418945</ele>
        <time>2013-12-05T12:21:23Z</time>
      </trkpt>
      <trkpt lat="44.50518" lon="6.11022">
        <ele>934.0581055</ele>
        <time>2013-12-05T12:21:28Z</time>
      </trkpt>
      <trkpt lat="44.50507" lon="6.11016">
        <ele>932.6162109</ele>
        <time>2013-12-05T12:21:31Z</time>
      </trkpt>
      <trkpt lat="44.50508" lon="6.11001">
        <ele>930.6936035</ele>
        <time>2013-12-05T12:21:34Z</time>
      </trkpt>
      <trkpt lat="44.50509" lon="6.11001">
        <ele>929.2514648</ele>
        <time>2013-12-05T12:21:36Z</time>
      </trkpt>
      <trkpt lat="44.50527" lon="6.10996">
        <ele>930.2128906</ele>
        <time>2013-12-05T12:21:43Z</time>
      </trkpt>
      <trkpt lat="44.50529" lon="6.10996">
        <ele>929.2514648</ele>
        <time>2013-12-05T12:21:47Z</time>
      </trkpt>
      <trkpt lat="44.5054" lon="6.10992">
        <ele>930.2128906</ele>
        <time>2013-12-05T12:21:52Z</time>
      </trkpt>
      <trkpt lat="44.50546" lon="6.10991">
        <ele>930.6936035</ele>
        <time>2013-12-05T12:21:56Z</time>
      </trkpt>
      <trkpt lat="44.50554" lon="6.10989">
        <ele>931.1743164</ele>
        <time>2013-12-05T12:21:59Z</time>
      </trkpt>
      <trkpt lat="44.50565" lon="6.10985">
        <ele>931.6547852</ele>
        <time>2013-12-05T12:22:04Z</time>
      </trkpt>
      <trkpt lat="44.50591" lon="6.10977">
        <ele>933.0966797</ele>
        <time>2013-12-05T12:22:18Z</time>
      </trkpt>
      <trkpt lat="44.50621" lon="6.10967">
        <ele>935.9807129</ele>
        <time>2013-12-05T12:22:31Z</time>
      </trkpt>
      <trkpt lat="44.50647" lon="6.10961">
        <ele>936.9418945</ele>
        <time>2013-12-05T12:22:41Z</time>
      </trkpt>
      <trkpt lat="44.50719" lon="6.10938">
        <ele>936.9418945</ele>
        <time>2013-12-05T12:22:55Z</time>
      </trkpt>
      <trkpt lat="44.50787" lon="6.1092">
        <ele>936.9418945</ele>
        <time>2013-12-05T12:23:09Z</time>
      </trkpt>
      <trkpt lat="44.50806" lon="6.10915">
        <ele>936.9418945</ele>
        <time>2013-12-05T12:23:17Z</time>
      </trkpt>
      <trkpt lat="44.50851" lon="6.10901">
        <ele>937.9033203</ele>
        <time>2013-12-05T12:23:29Z</time>
      </trkpt>
      <trkpt lat="44.50886" lon="6.10887">
        <ele>938.8647461</ele>
        <time>2013-12-05T12:23:42Z</time>
      </trkpt>
      <trkpt lat="44.50922" lon="6.1085">
        <ele>940.3068848</ele>
        <time>2013-12-05T12:23:57Z</time>
      </trkpt>
      <trkpt lat="44.5093" lon="6.10838">
        <ele>941.7487793</ele>
        <time>2013-12-05T12:24:02Z</time>
      </trkpt>
      <trkpt lat="44.50954" lon="6.10803">
        <ele>943.1906738</ele>
        <time>2013-12-05T12:24:17Z</time>
      </trkpt>
      <trkpt lat="44.5098" lon="6.10761">
        <ele>946.074707</ele>
        <time>2013-12-05T12:24:36Z</time>
      </trkpt>
      <trkpt lat="44.51008" lon="6.10715">
        <ele>948.4777832</ele>
        <time>2013-12-05T12:24:57Z</time>
      </trkpt>
      <trkpt lat="44.51021" lon="6.10694">
        <ele>949.9199219</ele>
        <time>2013-12-05T12:25:07Z</time>
      </trkpt>
      <trkpt lat="44.51035" lon="6.10671">
        <ele>950.8811035</ele>
        <time>2013-12-05T12:25:18Z</time>
      </trkpt>
      <trkpt lat="44.51048" lon="6.10647">
        <ele>952.8037109</ele>
        <time>2013-12-05T12:25:29Z</time>
      </trkpt>
      <trkpt lat="44.51059" lon="6.10614">
        <ele>954.7263184</ele>
        <time>2013-12-05T12:25:43Z</time>
      </trkpt>
      <trkpt lat="44.51063" lon="6.10562">
        <ele>956.6491699</ele>
        <time>2013-12-05T12:26:01Z</time>
      </trkpt>
      <trkpt lat="44.51059" lon="6.10511">
        <ele>959.5332031</ele>
        <time>2013-12-05T12:26:19Z</time>
      </trkpt>
      <trkpt lat="44.51059" lon="6.10449">
        <ele>962.4169922</ele>
        <time>2013-12-05T12:26:41Z</time>
      </trkpt>
      <trkpt lat="44.51072" lon="6.10409">
        <ele>963.378418</ele>
        <time>2013-12-05T12:26:56Z</time>
      </trkpt>
      <trkpt lat="44.51081" lon="6.10393">
        <ele>964.8203125</ele>
        <time>2013-12-05T12:27:03Z</time>
      </trkpt>
      <trkpt lat="44.51085" lon="6.10388">
        <ele>965.3010254</ele>
        <time>2013-12-05T12:27:06Z</time>
      </trkpt>
      <trkpt lat="44.5111" lon="6.1035">
        <ele>967.7041016</ele>
        <time>2013-12-05T12:27:24Z</time>
      </trkpt>
      <trkpt lat="44.51137" lon="6.10308">
        <ele>970.5881348</ele>
        <time>2013-12-05T12:27:45Z</time>
      </trkpt>
      <trkpt lat="44.51144" lon="6.10297">
        <ele>971.5493164</ele>
        <time>2013-12-05T12:27:51Z</time>
      </trkpt>
      <trkpt lat="44.51165" lon="6.10266">
        <ele>973.4724121</ele>
        <time>2013-12-05T12:28:08Z</time>
      </trkpt>
      <trkpt lat="44.51203" lon="6.10232">
        <ele>974.4335938</ele>
        <time>2013-12-05T12:28:29Z</time>
      </trkpt>
      <trkpt lat="44.51229" lon="6.10203">
        <ele>974.9143066</ele>
        <time>2013-12-05T12:28:46Z</time>
      </trkpt>
      <trkpt lat="44.51229" lon="6.10203">
        <ele>975.3947754</ele>
        <time>2013-12-05T12:29:08Z</time>
      </trkpt>
      <trkpt lat="44.51229" lon="6.10203">
        <ele>976.3562012</ele>
        <time>2013-12-05T12:29:43Z</time>
      </trkpt>
      <trkpt lat="44.51235" lon="6.10195">
        <ele>975.8754883</ele>
        <time>2013-12-05T12:30:00Z</time>
      </trkpt>
      <trkpt lat="44.51238" lon="6.1019">
        <ele>974.4335938</ele>
        <time>2013-12-05T12:30:02Z</time>
      </trkpt>
      <trkpt lat="44.51266" lon="6.10132">
        <ele>974.4335938</ele>
        <time>2013-12-05T12:30:18Z</time>
      </trkpt>
      <trkpt lat="44.51267" lon="6.10128">
        <ele>974.4335938</ele>
        <time>2013-12-05T12:30:19Z</time>
      </trkpt>
      <trkpt lat="44.51297" lon="6.1007">
        <ele>974.4335938</ele>
        <time>2013-12-05T12:30:35Z</time>
      </trkpt>
      <trkpt lat="44.51318" lon="6.10045">
        <ele>973.4724121</ele>
        <time>2013-12-05T12:30:41Z</time>
      </trkpt>
      <trkpt lat="44.51347" lon="6.10019">
        <ele>969.6269531</ele>
        <time>2013-12-05T12:30:46Z</time>
      </trkpt>
      <trkpt lat="44.51361" lon="6.1001">
        <ele>967.7041016</ele>
        <time>2013-12-05T12:30:48Z</time>
      </trkpt>
      <trkpt lat="44.51375" lon="6.1">
        <ele>965.3010254</ele>
        <time>2013-12-05T12:30:50Z</time>
      </trkpt>
      <trkpt lat="44.51391" lon="6.0999">
        <ele>963.378418</ele>
        <time>2013-12-05T12:30:52Z</time>
      </trkpt>
      <trkpt lat="44.51415" lon="6.09976">
        <ele>960.9750977</ele>
        <time>2013-12-05T12:30:55Z</time>
      </trkpt>
      <trkpt lat="44.51432" lon="6.09968">
        <ele>959.5332031</ele>
        <time>2013-12-05T12:30:57Z</time>
      </trkpt>
      <trkpt lat="44.51441" lon="6.09965">
        <ele>959.0524902</ele>
        <time>2013-12-05T12:30:58Z</time>
      </trkpt>
      <trkpt lat="44.51487" lon="6.09956">
        <ele>954.2458496</ele>
        <time>2013-12-05T12:31:03Z</time>
      </trkpt>
      <trkpt lat="44.51496" lon="6.09955">
        <ele>954.2458496</ele>
        <time>2013-12-05T12:31:04Z</time>
      </trkpt>
      <trkpt lat="44.51528" lon="6.09957">
        <ele>952.8037109</ele>
        <time>2013-12-05T12:31:08Z</time>
      </trkpt>
      <trkpt lat="44.51587" lon="6.09964">
        <ele>949.9199219</ele>
        <time>2013-12-05T12:31:15Z</time>
      </trkpt>
      <trkpt lat="44.51595" lon="6.09965">
        <ele>946.074707</ele>
        <time>2013-12-05T12:31:16Z</time>
      </trkpt>
      <trkpt lat="44.51603" lon="6.09966">
        <ele>947.0358887</ele>
        <time>2013-12-05T12:31:17Z</time>
      </trkpt>
      <trkpt lat="44.51627" lon="6.09974">
        <ele>946.5554199</ele>
        <time>2013-12-05T12:31:20Z</time>
      </trkpt>
      <trkpt lat="44.51656" lon="6.09993">
        <ele>942.2294922</ele>
        <time>2013-12-05T12:31:24Z</time>
      </trkpt>
      <trkpt lat="44.51663" lon="6.09999">
        <ele>942.2294922</ele>
        <time>2013-12-05T12:31:25Z</time>
      </trkpt>
      <trkpt lat="44.51689" lon="6.10016">
        <ele>943.1906738</ele>
        <time>2013-12-05T12:31:29Z</time>
      </trkpt>
      <trkpt lat="44.51709" lon="6.10022">
        <ele>940.3068848</ele>
        <time>2013-12-05T12:31:32Z</time>
      </trkpt>
      <trkpt lat="44.51722" lon="6.10028">
        <ele>937.9033203</ele>
        <time>2013-12-05T12:31:34Z</time>
      </trkpt>
      <trkpt lat="44.51734" lon="6.10033">
        <ele>935.9807129</ele>
        <time>2013-12-05T12:31:36Z</time>
      </trkpt>
      <trkpt lat="44.51752" lon="6.10053">
        <ele>933.5773926</ele>
        <time>2013-12-05T12:31:39Z</time>
      </trkpt>
      <trkpt lat="44.51757" lon="6.10065">
        <ele>932.135498</ele>
        <time>2013-12-05T12:31:41Z</time>
      </trkpt>
      <trkpt lat="44.51764" lon="6.10088">
        <ele>933.0966797</ele>
        <time>2013-12-05T12:31:44Z</time>
      </trkpt>
      <trkpt lat="44.51771" lon="6.10111">
        <ele>929.2514648</ele>
        <time>2013-12-05T12:31:47Z</time>
      </trkpt>
      <trkpt lat="44.51781" lon="6.10139">
        <ele>931.1743164</ele>
        <time>2013-12-05T12:31:50Z</time>
      </trkpt>
      <trkpt lat="44.51786" lon="6.10157">
        <ele>928.7709961</ele>
        <time>2013-12-05T12:31:52Z</time>
      </trkpt>
      <trkpt lat="44.5179" lon="6.10175">
        <ele>931.1743164</ele>
        <time>2013-12-05T12:31:54Z</time>
      </trkpt>
      <trkpt lat="44.518" lon="6.10209">
        <ele>929.7321777</ele>
        <time>2013-12-05T12:31:58Z</time>
      </trkpt>
      <trkpt lat="44.51812" lon="6.10226">
        <ele>931.1743164</ele>
        <time>2013-12-05T12:32:01Z</time>
      </trkpt>
      <trkpt lat="44.51851" lon="6.10209">
        <ele>927.3291016</ele>
        <time>2013-12-05T12:32:08Z</time>
      </trkpt>
      <trkpt lat="44.51856" lon="6.10204">
        <ele>927.3291016</ele>
        <time>2013-12-05T12:32:09Z</time>
      </trkpt>
      <trkpt lat="44.51862" lon="6.10191">
        <ele>925.8869629</ele>
        <time>2013-12-05T12:32:11Z</time>
      </trkpt>
      <trkpt lat="44.51856" lon="6.10128">
        <ele>924.9257813</ele>
        <time>2013-12-05T12:32:18Z</time>
      </trkpt>
      <trkpt lat="44.51859" lon="6.1009">
        <ele>923.9641113</ele>
        <time>2013-12-05T12:32:21Z</time>
      </trkpt>
      <trkpt lat="44.51876" lon="6.10048">
        <ele>922.0415039</ele>
        <time>2013-12-05T12:32:25Z</time>
      </trkpt>
      <trkpt lat="44.5188" lon="6.10039">
        <ele>921.0803223</ele>
        <time>2013-12-05T12:32:26Z</time>
      </trkpt>
      <trkpt lat="44.51892" lon="6.09997">
        <ele>916.7543945</ele>
        <time>2013-12-05T12:32:30Z</time>
      </trkpt>
      <trkpt lat="44.51892" lon="6.09986">
        <ele>916.7543945</ele>
        <time>2013-12-05T12:32:31Z</time>
      </trkpt>
      <trkpt lat="44.51892" lon="6.09966">
        <ele>917.2351074</ele>
        <time>2013-12-05T12:32:33Z</time>
      </trkpt>
      <trkpt lat="44.51897" lon="6.09942">
        <ele>916.2736816</ele>
        <time>2013-12-05T12:32:36Z</time>
      </trkpt>
      <trkpt lat="44.51902" lon="6.09937">
        <ele>912.9091797</ele>
        <time>2013-12-05T12:32:37Z</time>
      </trkpt>
      <trkpt lat="44.51913" lon="6.09932">
        <ele>911.4672852</ele>
        <time>2013-12-05T12:32:39Z</time>
      </trkpt>
      <trkpt lat="44.51932" lon="6.09938">
        <ele>907.6218262</ele>
        <time>2013-12-05T12:32:42Z</time>
      </trkpt>
      <trkpt lat="44.51938" lon="6.09941">
        <ele>907.6218262</ele>
        <time>2013-12-05T12:32:43Z</time>
      </trkpt>
      <trkpt lat="44.51979" lon="6.09958">
        <ele>903.2958984</ele>
        <time>2013-12-05T12:32:49Z</time>
      </trkpt>
      <trkpt lat="44.51986" lon="6.0996">
        <ele>903.2958984</ele>
        <time>2013-12-05T12:32:50Z</time>
      </trkpt>
      <trkpt lat="44.51994" lon="6.09962">
        <ele>905.6992188</ele>
        <time>2013-12-05T12:32:51Z</time>
      </trkpt>
      <trkpt lat="44.52017" lon="6.0996">
        <ele>901.8540039</ele>
        <time>2013-12-05T12:32:54Z</time>
      </trkpt>
      <trkpt lat="44.52024" lon="6.09956">
        <ele>901.8540039</ele>
        <time>2013-12-05T12:32:55Z</time>
      </trkpt>
      <trkpt lat="44.52037" lon="6.09947">
        <ele>898.9699707</ele>
        <time>2013-12-05T12:32:57Z</time>
      </trkpt>
      <trkpt lat="44.52066" lon="6.09946">
        <ele>898.0087891</ele>
        <time>2013-12-05T12:33:01Z</time>
      </trkpt>
      <trkpt lat="44.52105" lon="6.09957">
        <ele>896.5668945</ele>
        <time>2013-12-05T12:33:06Z</time>
      </trkpt>
      <trkpt lat="44.52171" lon="6.0997">
        <ele>894.644043</ele>
        <time>2013-12-05T12:33:13Z</time>
      </trkpt>
      <trkpt lat="44.52202" lon="6.09978">
        <ele>891.7600098</ele>
        <time>2013-12-05T12:33:16Z</time>
      </trkpt>
      <trkpt lat="44.52222" lon="6.09982">
        <ele>890.3181152</ele>
        <time>2013-12-05T12:33:18Z</time>
      </trkpt>
      <trkpt lat="44.52232" lon="6.09983">
        <ele>889.8374023</ele>
        <time>2013-12-05T12:33:19Z</time>
      </trkpt>
      <trkpt lat="44.52267" lon="6.09973">
        <ele>887.434082</ele>
        <time>2013-12-05T12:33:23Z</time>
      </trkpt>
      <trkpt lat="44.52284" lon="6.09963">
        <ele>885.9921875</ele>
        <time>2013-12-05T12:33:25Z</time>
      </trkpt>
      <trkpt lat="44.52292" lon="6.09958">
        <ele>882.6276855</ele>
        <time>2013-12-05T12:33:26Z</time>
      </trkpt>
      <trkpt lat="44.52301" lon="6.09954">
        <ele>882.6276855</ele>
        <time>2013-12-05T12:33:27Z</time>
      </trkpt>
      <trkpt lat="44.52354" lon="6.09932">
        <ele>878.7824707</ele>
        <time>2013-12-05T12:33:33Z</time>
      </trkpt>
      <trkpt lat="44.52362" lon="6.0993">
        <ele>878.7824707</ele>
        <time>2013-12-05T12:33:34Z</time>
      </trkpt>
      <trkpt lat="44.52384" lon="6.09923">
        <ele>877.3405762</ele>
        <time>2013-12-05T12:33:37Z</time>
      </trkpt>
      <trkpt lat="44.52401" lon="6.0992">
        <ele>875.4174805</ele>
        <time>2013-12-05T12:33:40Z</time>
      </trkpt>
      <trkpt lat="44.52434" lon="6.09922">
        <ele>873.0144043</ele>
        <time>2013-12-05T12:33:45Z</time>
      </trkpt>
      <trkpt lat="44.52456" lon="6.09933">
        <ele>875.8981934</ele>
        <time>2013-12-05T12:33:48Z</time>
      </trkpt>
      <trkpt lat="44.52462" lon="6.09937">
        <ele>870.611084</ele>
        <time>2013-12-05T12:33:49Z</time>
      </trkpt>
      <trkpt lat="44.52486" lon="6.0996">
        <ele>868.2077637</ele>
        <time>2013-12-05T12:33:53Z</time>
      </trkpt>
      <trkpt lat="44.52516" lon="6.1">
        <ele>867.246582</ele>
        <time>2013-12-05T12:33:59Z</time>
      </trkpt>
      <trkpt lat="44.52526" lon="6.10024">
        <ele>864.8432617</ele>
        <time>2013-12-05T12:34:02Z</time>
      </trkpt>
      <trkpt lat="44.52528" lon="6.10031">
        <ele>865.3239746</ele>
        <time>2013-12-05T12:34:03Z</time>
      </trkpt>
      <trkpt lat="44.52533" lon="6.10073">
        <ele>860.517334</ele>
        <time>2013-12-05T12:34:08Z</time>
      </trkpt>
      <trkpt lat="44.52533" lon="6.10081">
        <ele>860.517334</ele>
        <time>2013-12-05T12:34:09Z</time>
      </trkpt>
      <trkpt lat="44.52533" lon="6.10089">
        <ele>859.5559082</ele>
        <time>2013-12-05T12:34:10Z</time>
      </trkpt>
      <trkpt lat="44.52527" lon="6.10138">
        <ele>861.4787598</ele>
        <time>2013-12-05T12:34:16Z</time>
      </trkpt>
      <trkpt lat="44.52527" lon="6.1016">
        <ele>861.4787598</ele>
        <time>2013-12-05T12:34:19Z</time>
      </trkpt>
      <trkpt lat="44.52529" lon="6.10175">
        <ele>862.9206543</ele>
        <time>2013-12-05T12:34:21Z</time>
      </trkpt>
      <trkpt lat="44.52552" lon="6.10185">
        <ele>862.9206543</ele>
        <time>2013-12-05T12:34:26Z</time>
      </trkpt>
      <trkpt lat="44.52562" lon="6.10181">
        <ele>862.9206543</ele>
        <time>2013-12-05T12:34:28Z</time>
      </trkpt>
      <trkpt lat="44.5258" lon="6.10152">
        <ele>862.4399414</ele>
        <time>2013-12-05T12:34:34Z</time>
      </trkpt>
      <trkpt lat="44.52585" lon="6.10127">
        <ele>860.517334</ele>
        <time>2013-12-05T12:34:37Z</time>
      </trkpt>
      <trkpt lat="44.52598" lon="6.09993">
        <ele>855.7106934</ele>
        <time>2013-12-05T12:34:50Z</time>
      </trkpt>
      <trkpt lat="44.52598" lon="6.09981">
        <ele>855.7106934</ele>
        <time>2013-12-05T12:34:51Z</time>
      </trkpt>
      <trkpt lat="44.52581" lon="6.09883">
        <ele>855.2299805</ele>
        <time>2013-12-05T12:35:00Z</time>
      </trkpt>
      <trkpt lat="44.5258" lon="6.09843">
        <ele>851.8654785</ele>
        <time>2013-12-05T12:35:04Z</time>
      </trkpt>
      <trkpt lat="44.52589" lon="6.0979">
        <ele>849.9428711</ele>
        <time>2013-12-05T12:35:09Z</time>
      </trkpt>
      <trkpt lat="44.52618" lon="6.09761">
        <ele>847.0588379</ele>
        <time>2013-12-05T12:35:15Z</time>
      </trkpt>
      <trkpt lat="44.52639" lon="6.09753">
        <ele>844.6555176</ele>
        <time>2013-12-05T12:35:18Z</time>
      </trkpt>
      <trkpt lat="44.52689" lon="6.09733">
        <ele>842.7329102</ele>
        <time>2013-12-05T12:35:25Z</time>
      </trkpt>
      <trkpt lat="44.52785" lon="6.09665">
        <ele>841.7714844</ele>
        <time>2013-12-05T12:35:40Z</time>
      </trkpt>
      <trkpt lat="44.52861" lon="6.09616">
        <ele>838.4069824</ele>
        <time>2013-12-05T12:35:54Z</time>
      </trkpt>
      <trkpt lat="44.52893" lon="6.09586">
        <ele>836.9648438</ele>
        <time>2013-12-05T12:36:01Z</time>
      </trkpt>
      <trkpt lat="44.52926" lon="6.09593">
        <ele>835.0424805</ele>
        <time>2013-12-05T12:36:07Z</time>
      </trkpt>
      <trkpt lat="44.52933" lon="6.09606">
        <ele>834.5617676</ele>
        <time>2013-12-05T12:36:09Z</time>
      </trkpt>
      <trkpt lat="44.52953" lon="6.09633">
        <ele>833.6003418</ele>
        <time>2013-12-05T12:36:13Z</time>
      </trkpt>
      <trkpt lat="44.52965" lon="6.09644">
        <ele>830.2358398</ele>
        <time>2013-12-05T12:36:15Z</time>
      </trkpt>
      <trkpt lat="44.52972" lon="6.09648">
        <ele>830.2358398</ele>
        <time>2013-12-05T12:36:16Z</time>
      </trkpt>
      <trkpt lat="44.53017" lon="6.09639">
        <ele>830.7165527</ele>
        <time>2013-12-05T12:36:23Z</time>
      </trkpt>
      <trkpt lat="44.53026" lon="6.09629">
        <ele>830.2358398</ele>
        <time>2013-12-05T12:36:25Z</time>
      </trkpt>
      <trkpt lat="44.53041" lon="6.09609">
        <ele>828.7939453</ele>
        <time>2013-12-05T12:36:28Z</time>
      </trkpt>
      <trkpt lat="44.53051" lon="6.09594">
        <ele>828.3132324</ele>
        <time>2013-12-05T12:36:30Z</time>
      </trkpt>
      <trkpt lat="44.53067" lon="6.09558">
        <ele>826.3903809</ele>
        <time>2013-12-05T12:36:34Z</time>
      </trkpt>
      <trkpt lat="44.53074" lon="6.09509">
        <ele>826.3903809</ele>
        <time>2013-12-05T12:36:39Z</time>
      </trkpt>
      <trkpt lat="44.53106" lon="6.09487">
        <ele>823.5065918</ele>
        <time>2013-12-05T12:36:46Z</time>
      </trkpt>
      <trkpt lat="44.53112" lon="6.0949">
        <ele>823.0258789</ele>
        <time>2013-12-05T12:36:47Z</time>
      </trkpt>
      <trkpt lat="44.53123" lon="6.09498">
        <ele>822.0644531</ele>
        <time>2013-12-05T12:36:49Z</time>
      </trkpt>
      <trkpt lat="44.53128" lon="6.09502">
        <ele>821.5837402</ele>
        <time>2013-12-05T12:36:50Z</time>
      </trkpt>
      <trkpt lat="44.53156" lon="6.0953">
        <ele>819.661377</ele>
        <time>2013-12-05T12:36:56Z</time>
      </trkpt>
      <trkpt lat="44.53186" lon="6.09592">
        <ele>817.2580566</ele>
        <time>2013-12-05T12:37:03Z</time>
      </trkpt>
      <trkpt lat="44.53201" lon="6.0963">
        <ele>817.2580566</ele>
        <time>2013-12-05T12:37:08Z</time>
      </trkpt>
      <trkpt lat="44.53214" lon="6.09653">
        <ele>817.2580566</ele>
        <time>2013-12-05T12:37:12Z</time>
      </trkpt>
      <trkpt lat="44.53235" lon="6.0963">
        <ele>817.7385254</ele>
        <time>2013-12-05T12:37:19Z</time>
      </trkpt>
      <trkpt lat="44.5324" lon="6.09567">
        <ele>820.6225586</ele>
        <time>2013-12-05T12:37:33Z</time>
      </trkpt>
      <trkpt lat="44.53267" lon="6.09534">
        <ele>822.0644531</ele>
        <time>2013-12-05T12:37:46Z</time>
      </trkpt>
      <trkpt lat="44.53294" lon="6.09529">
        <ele>823.9870605</ele>
        <time>2013-12-05T12:37:58Z</time>
      </trkpt>
      <trkpt lat="44.53311" lon="6.09527">
        <ele>824.9484863</ele>
        <time>2013-12-05T12:38:05Z</time>
      </trkpt>
      <trkpt lat="44.53316" lon="6.09506">
        <ele>826.3903809</ele>
        <time>2013-12-05T12:38:13Z</time>
      </trkpt>
      <trkpt lat="44.53305" lon="6.09449">
        <ele>828.7939453</ele>
        <time>2013-12-05T12:38:31Z</time>
      </trkpt>
      <trkpt lat="44.53302" lon="6.0939">
        <ele>831.6777344</ele>
        <time>2013-12-05T12:38:50Z</time>
      </trkpt>
      <trkpt lat="44.53301" lon="6.09332">
        <ele>834.5617676</ele>
        <time>2013-12-05T12:39:08Z</time>
      </trkpt>
      <trkpt lat="44.53302" lon="6.09329">
        <ele>834.5617676</ele>
        <time>2013-12-05T12:39:09Z</time>
      </trkpt>
      <trkpt lat="44.53329" lon="6.09289">
        <ele>836.0036621</ele>
        <time>2013-12-05T12:39:25Z</time>
      </trkpt>
      <trkpt lat="44.53369" lon="6.09268">
        <ele>837.4455566</ele>
        <time>2013-12-05T12:39:42Z</time>
      </trkpt>
      <trkpt lat="44.53418" lon="6.09245">
        <ele>838.8876953</ele>
        <time>2013-12-05T12:39:59Z</time>
      </trkpt>
      <trkpt lat="44.53457" lon="6.09222">
        <ele>836.484375</ele>
        <time>2013-12-05T12:40:10Z</time>
      </trkpt>
      <trkpt lat="44.53491" lon="6.09174">
        <ele>835.0424805</ele>
        <time>2013-12-05T12:40:21Z</time>
      </trkpt>
      <trkpt lat="44.53556" lon="6.09121">
        <ele>833.6003418</ele>
        <time>2013-12-05T12:40:38Z</time>
      </trkpt>
      <trkpt lat="44.53578" lon="6.09105">
        <ele>833.6003418</ele>
        <time>2013-12-05T12:40:44Z</time>
      </trkpt>
      <trkpt lat="44.5359" lon="6.09097">
        <ele>834.0810547</ele>
        <time>2013-12-05T12:40:47Z</time>
      </trkpt>
      <trkpt lat="44.53649" lon="6.09054">
        <ele>834.0810547</ele>
        <time>2013-12-05T12:41:03Z</time>
      </trkpt>
      <trkpt lat="44.53716" lon="6.09009">
        <ele>832.1584473</ele>
        <time>2013-12-05T12:41:19Z</time>
      </trkpt>
      <trkpt lat="44.53738" lon="6.08999">
        <ele>830.2358398</ele>
        <time>2013-12-05T12:41:23Z</time>
      </trkpt>
      <trkpt lat="44.53787" lon="6.09001">
        <ele>827.3518066</ele>
        <time>2013-12-05T12:41:30Z</time>
      </trkpt>
      <trkpt lat="44.53811" lon="6.09004">
        <ele>823.5065918</ele>
        <time>2013-12-05T12:41:33Z</time>
      </trkpt>
      <trkpt lat="44.53819" lon="6.09005">
        <ele>823.5065918</ele>
        <time>2013-12-05T12:41:34Z</time>
      </trkpt>
      <trkpt lat="44.53835" lon="6.09008">
        <ele>821.5837402</ele>
        <time>2013-12-05T12:41:36Z</time>
      </trkpt>
      <trkpt lat="44.53852" lon="6.09012">
        <ele>823.0258789</ele>
        <time>2013-12-05T12:41:38Z</time>
      </trkpt>
      <trkpt lat="44.53875" lon="6.09025">
        <ele>821.5837402</ele>
        <time>2013-12-05T12:41:41Z</time>
      </trkpt>
      <trkpt lat="44.53898" lon="6.09038">
        <ele>819.661377</ele>
        <time>2013-12-05T12:41:44Z</time>
      </trkpt>
      <trkpt lat="44.53924" lon="6.09048">
        <ele>817.7385254</ele>
        <time>2013-12-05T12:41:47Z</time>
      </trkpt>
      <trkpt lat="44.53967" lon="6.09052">
        <ele>815.3354492</ele>
        <time>2013-12-05T12:41:52Z</time>
      </trkpt>
      <trkpt lat="44.54011" lon="6.09071">
        <ele>811.9707031</ele>
        <time>2013-12-05T12:41:57Z</time>
      </trkpt>
      <trkpt lat="44.54035" lon="6.0909">
        <ele>809.5673828</ele>
        <time>2013-12-05T12:42:00Z</time>
      </trkpt>
      <trkpt lat="44.54055" lon="6.09108">
        <ele>810.5285645</ele>
        <time>2013-12-05T12:42:03Z</time>
      </trkpt>
      <trkpt lat="44.54104" lon="6.09108">
        <ele>809.5673828</ele>
        <time>2013-12-05T12:42:10Z</time>
      </trkpt>
      <trkpt lat="44.54127" lon="6.09096">
        <ele>806.2026367</ele>
        <time>2013-12-05T12:42:13Z</time>
      </trkpt>
      <trkpt lat="44.54135" lon="6.09091">
        <ele>806.2026367</ele>
        <time>2013-12-05T12:42:14Z</time>
      </trkpt>
      <trkpt lat="44.54152" lon="6.09081">
        <ele>805.2414551</ele>
        <time>2013-12-05T12:42:16Z</time>
      </trkpt>
      <trkpt lat="44.54168" lon="6.09071">
        <ele>802.8381348</ele>
        <time>2013-12-05T12:42:18Z</time>
      </trkpt>
      <trkpt lat="44.54193" lon="6.09057">
        <ele>800.4350586</ele>
        <time>2013-12-05T12:42:21Z</time>
      </trkpt>
      <trkpt lat="44.54229" lon="6.09037">
        <ele>800.4350586</ele>
        <time>2013-12-05T12:42:25Z</time>
      </trkpt>
      <trkpt lat="44.54257" lon="6.09033">
        <ele>796.5898438</ele>
        <time>2013-12-05T12:42:28Z</time>
      </trkpt>
      <trkpt lat="44.54268" lon="6.09035">
        <ele>795.6281738</ele>
        <time>2013-12-05T12:42:29Z</time>
      </trkpt>
      <trkpt lat="44.54297" lon="6.09046">
        <ele>793.2248535</ele>
        <time>2013-12-05T12:42:32Z</time>
      </trkpt>
      <trkpt lat="44.54327" lon="6.09057">
        <ele>790.8215332</ele>
        <time>2013-12-05T12:42:35Z</time>
      </trkpt>
      <trkpt lat="44.54365" lon="6.09072">
        <ele>790.3410645</ele>
        <time>2013-12-05T12:42:39Z</time>
      </trkpt>
      <trkpt lat="44.5439" lon="6.09094">
        <ele>786.9763184</ele>
        <time>2013-12-05T12:42:42Z</time>
      </trkpt>
      <trkpt lat="44.54419" lon="6.09139">
        <ele>786.9763184</ele>
        <time>2013-12-05T12:42:47Z</time>
      </trkpt>
      <trkpt lat="44.54464" lon="6.09143">
        <ele>784.5732422</ele>
        <time>2013-12-05T12:42:54Z</time>
      </trkpt>
      <trkpt lat="44.54473" lon="6.09109">
        <ele>783.6118164</ele>
        <time>2013-12-05T12:42:57Z</time>
      </trkpt>
      <trkpt lat="44.54478" lon="6.09069">
        <ele>782.1699219</ele>
        <time>2013-12-05T12:43:00Z</time>
      </trkpt>
      <trkpt lat="44.54481" lon="6.09043">
        <ele>780.2473145</ele>
        <time>2013-12-05T12:43:02Z</time>
      </trkpt>
      <trkpt lat="44.54486" lon="6.09004">
        <ele>778.8051758</ele>
        <time>2013-12-05T12:43:05Z</time>
      </trkpt>
      <trkpt lat="44.54493" lon="6.08951">
        <ele>777.84375</ele>
        <time>2013-12-05T12:43:09Z</time>
      </trkpt>
      <trkpt lat="44.54503" lon="6.08871">
        <ele>774.479248</ele>
        <time>2013-12-05T12:43:15Z</time>
      </trkpt>
      <trkpt lat="44.54505" lon="6.08858">
        <ele>774.479248</ele>
        <time>2013-12-05T12:43:16Z</time>
      </trkpt>
      <trkpt lat="44.5452" lon="6.08741">
        <ele>770.6340332</ele>
        <time>2013-12-05T12:43:25Z</time>
      </trkpt>
      <trkpt lat="44.54522" lon="6.0873">
        <ele>770.6340332</ele>
        <time>2013-12-05T12:43:26Z</time>
      </trkpt>
      <trkpt lat="44.54523" lon="6.08718">
        <ele>770.1533203</ele>
        <time>2013-12-05T12:43:27Z</time>
      </trkpt>
      <trkpt lat="44.54538" lon="6.08687">
        <ele>768.7114258</ele>
        <time>2013-12-05T12:43:30Z</time>
      </trkpt>
      <trkpt lat="44.5455" lon="6.08666">
        <ele>766.7888184</ele>
        <time>2013-12-05T12:43:32Z</time>
      </trkpt>
      <trkpt lat="44.54571" lon="6.08632">
        <ele>765.8276367</ele>
        <time>2013-12-05T12:43:36Z</time>
      </trkpt>
      <trkpt lat="44.54609" lon="6.08566">
        <ele>764.8662109</ele>
        <time>2013-12-05T12:43:48Z</time>
      </trkpt>
      <trkpt lat="44.54611" lon="6.08561">
        <ele>764.8662109</ele>
        <time>2013-12-05T12:43:49Z</time>
      </trkpt>
      <trkpt lat="44.54621" lon="6.0851">
        <ele>767.2695313</ele>
        <time>2013-12-05T12:44:01Z</time>
      </trkpt>
      <trkpt lat="44.54616" lon="6.08462">
        <ele>769.6728516</ele>
        <time>2013-12-05T12:44:13Z</time>
      </trkpt>
      <trkpt lat="44.54606" lon="6.08417">
        <ele>771.1147461</ele>
        <time>2013-12-05T12:44:26Z</time>
      </trkpt>
      <trkpt lat="44.54597" lon="6.08368">
        <ele>773.5180664</ele>
        <time>2013-12-05T12:44:40Z</time>
      </trkpt>
      <trkpt lat="44.54591" lon="6.08337">
        <ele>775.4404297</ele>
        <time>2013-12-05T12:44:51Z</time>
      </trkpt>
      <trkpt lat="44.54582" lon="6.08289">
        <ele>776.8825684</ele>
        <time>2013-12-05T12:45:04Z</time>
      </trkpt>
      <trkpt lat="44.54572" lon="6.0824">
        <ele>778.3244629</ele>
        <time>2013-12-05T12:45:18Z</time>
      </trkpt>
      <trkpt lat="44.54564" lon="6.08198">
        <ele>780.7280273</ele>
        <time>2013-12-05T12:45:31Z</time>
      </trkpt>
      <trkpt lat="44.54555" lon="6.08157">
        <ele>783.1311035</ele>
        <time>2013-12-05T12:45:45Z</time>
      </trkpt>
      <trkpt lat="44.54548" lon="6.08106">
        <ele>785.0539551</ele>
        <time>2013-12-05T12:46:00Z</time>
      </trkpt>
      <trkpt lat="44.54543" lon="6.08046">
        <ele>786.4958496</ele>
        <time>2013-12-05T12:46:15Z</time>
      </trkpt>
      <trkpt lat="44.54525" lon="6.07978">
        <ele>787.4570313</ele>
        <time>2013-12-05T12:46:30Z</time>
      </trkpt>
      <trkpt lat="44.545" lon="6.07884">
        <ele>788.8991699</ele>
        <time>2013-12-05T12:46:50Z</time>
      </trkpt>
      <trkpt lat="44.54497" lon="6.07868">
        <ele>788.418457</ele>
        <time>2013-12-05T12:46:53Z</time>
      </trkpt>
      <trkpt lat="44.54499" lon="6.07825">
        <ele>785.5344238</ele>
        <time>2013-12-05T12:46:59Z</time>
      </trkpt>
      <trkpt lat="44.54505" lon="6.07808">
        <ele>784.0925293</ele>
        <time>2013-12-05T12:47:01Z</time>
      </trkpt>
      <trkpt lat="44.54516" lon="6.07796">
        <ele>782.6506348</ele>
        <time>2013-12-05T12:47:03Z</time>
      </trkpt>
      <trkpt lat="44.5453" lon="6.07786">
        <ele>782.1699219</ele>
        <time>2013-12-05T12:47:05Z</time>
      </trkpt>
      <trkpt lat="44.54551" lon="6.07771">
        <ele>778.3244629</ele>
        <time>2013-12-05T12:47:08Z</time>
      </trkpt>
      <trkpt lat="44.54586" lon="6.07746">
        <ele>777.84375</ele>
        <time>2013-12-05T12:47:13Z</time>
      </trkpt>
      <trkpt lat="44.54616" lon="6.07747">
        <ele>774.479248</ele>
        <time>2013-12-05T12:47:17Z</time>
      </trkpt>
      <trkpt lat="44.54625" lon="6.0775">
        <ele>773.0373535</ele>
        <time>2013-12-05T12:47:18Z</time>
      </trkpt>
      <trkpt lat="44.5466" lon="6.07765">
        <ele>771.1147461</ele>
        <time>2013-12-05T12:47:22Z</time>
      </trkpt>
      <trkpt lat="44.54679" lon="6.07773">
        <ele>768.2307129</ele>
        <time>2013-12-05T12:47:24Z</time>
      </trkpt>
      <trkpt lat="44.54688" lon="6.07776">
        <ele>764.8662109</ele>
        <time>2013-12-05T12:47:25Z</time>
      </trkpt>
      <trkpt lat="44.54697" lon="6.07779">
        <ele>764.8662109</ele>
        <time>2013-12-05T12:47:26Z</time>
      </trkpt>
      <trkpt lat="44.54735" lon="6.07796">
        <ele>761.5014648</ele>
        <time>2013-12-05T12:47:30Z</time>
      </trkpt>
      <trkpt lat="44.54802" lon="6.0784">
        <ele>758.6174316</ele>
        <time>2013-12-05T12:47:38Z</time>
      </trkpt>
      <trkpt lat="44.54833" lon="6.07861">
        <ele>757.1755371</ele>
        <time>2013-12-05T12:47:42Z</time>
      </trkpt>
      <trkpt lat="44.54855" lon="6.0787">
        <ele>754.7722168</ele>
        <time>2013-12-05T12:47:45Z</time>
      </trkpt>
      <trkpt lat="44.54873" lon="6.07866">
        <ele>753.3303223</ele>
        <time>2013-12-05T12:47:47Z</time>
      </trkpt>
      <trkpt lat="44.54899" lon="6.07844">
        <ele>752.8496094</ele>
        <time>2013-12-05T12:47:50Z</time>
      </trkpt>
      <trkpt lat="44.54919" lon="6.07824">
        <ele>752.8496094</ele>
        <time>2013-12-05T12:47:53Z</time>
      </trkpt>
      <trkpt lat="44.54939" lon="6.07816">
        <ele>751.4077148</ele>
        <time>2013-12-05T12:47:56Z</time>
      </trkpt>
      <trkpt lat="44.54955" lon="6.07819">
        <ele>747.081543</ele>
        <time>2013-12-05T12:47:58Z</time>
      </trkpt>
      <trkpt lat="44.55012" lon="6.0784">
        <ele>741.7944336</ele>
        <time>2013-12-05T12:48:05Z</time>
      </trkpt>
      <trkpt lat="44.55021" lon="6.07842">
        <ele>741.7944336</ele>
        <time>2013-12-05T12:48:06Z</time>
      </trkpt>
      <trkpt lat="44.5503" lon="6.07845">
        <ele>740.8330078</ele>
        <time>2013-12-05T12:48:07Z</time>
      </trkpt>
      <trkpt lat="44.55058" lon="6.07853">
        <ele>739.3911133</ele>
        <time>2013-12-05T12:48:10Z</time>
      </trkpt>
      <trkpt lat="44.55076" lon="6.07857">
        <ele>737.9492188</ele>
        <time>2013-12-05T12:48:12Z</time>
      </trkpt>
      <trkpt lat="44.55104" lon="6.07863">
        <ele>736.0266113</ele>
        <time>2013-12-05T12:48:15Z</time>
      </trkpt>
      <trkpt lat="44.55157" lon="6.07862">
        <ele>734.1040039</ele>
        <time>2013-12-05T12:48:21Z</time>
      </trkpt>
      <trkpt lat="44.55176" lon="6.0786">
        <ele>730.7392578</ele>
        <time>2013-12-05T12:48:23Z</time>
      </trkpt>
      <trkpt lat="44.55185" lon="6.07859">
        <ele>730.7392578</ele>
        <time>2013-12-05T12:48:24Z</time>
      </trkpt>
      <trkpt lat="44.55223" lon="6.0787">
        <ele>725.9326172</ele>
        <time>2013-12-05T12:48:28Z</time>
      </trkpt>
      <trkpt lat="44.55232" lon="6.07873">
        <ele>725.9326172</ele>
        <time>2013-12-05T12:48:29Z</time>
      </trkpt>
      <trkpt lat="44.5525" lon="6.07879">
        <ele>726.894043</ele>
        <time>2013-12-05T12:48:31Z</time>
      </trkpt>
      <trkpt lat="44.55265" lon="6.07885">
        <ele>727.8552246</ele>
        <time>2013-12-05T12:48:33Z</time>
      </trkpt>
      <trkpt lat="44.55283" lon="6.07884">
        <ele>726.894043</ele>
        <time>2013-12-05T12:48:35Z</time>
      </trkpt>
      <trkpt lat="44.55334" lon="6.07874">
        <ele>724.4907227</ele>
        <time>2013-12-05T12:48:45Z</time>
      </trkpt>
      <trkpt lat="44.55355" lon="6.07872">
        <ele>723.0488281</ele>
        <time>2013-12-05T12:48:50Z</time>
      </trkpt>
      <trkpt lat="44.55367" lon="6.07873">
        <ele>721.6066895</ele>
        <time>2013-12-05T12:48:52Z</time>
      </trkpt>
      <trkpt lat="44.55396" lon="6.07882">
        <ele>718.7229004</ele>
        <time>2013-12-05T12:48:57Z</time>
      </trkpt>
      <trkpt lat="44.55417" lon="6.07886">
        <ele>716.800293</ele>
        <time>2013-12-05T12:49:00Z</time>
      </trkpt>
      <trkpt lat="44.55475" lon="6.07898">
        <ele>715.8388672</ele>
        <time>2013-12-05T12:49:08Z</time>
      </trkpt>
      <trkpt lat="44.55524" lon="6.0791">
        <ele>712.954834</ele>
        <time>2013-12-05T12:49:15Z</time>
      </trkpt>
      <trkpt lat="44.55531" lon="6.07911">
        <ele>712.4741211</ele>
        <time>2013-12-05T12:49:16Z</time>
      </trkpt>
      <trkpt lat="44.55559" lon="6.07898">
        <ele>713.4355469</ele>
        <time>2013-12-05T12:49:22Z</time>
      </trkpt>
      <trkpt lat="44.55572" lon="6.07883">
        <ele>715.3581543</ele>
        <time>2013-12-05T12:49:26Z</time>
      </trkpt>
      <trkpt lat="44.55581" lon="6.0787">
        <ele>716.800293</ele>
        <time>2013-12-05T12:49:38Z</time>
      </trkpt>
      <trkpt lat="44.55588" lon="6.07875">
        <ele>716.3195801</ele>
        <time>2013-12-05T12:50:07Z</time>
      </trkpt>
      <trkpt lat="44.55595" lon="6.07859">
        <ele>717.2810059</ele>
        <time>2013-12-05T12:50:14Z</time>
      </trkpt>
      <trkpt lat="44.55595" lon="6.07853">
        <ele>717.2810059</ele>
        <time>2013-12-05T12:50:15Z</time>
      </trkpt>
      <trkpt lat="44.55593" lon="6.0784">
        <ele>716.3195801</ele>
        <time>2013-12-05T12:50:17Z</time>
      </trkpt>
      <trkpt lat="44.55596" lon="6.07829">
        <ele>715.8388672</ele>
        <time>2013-12-05T12:50:20Z</time>
      </trkpt>
      <trkpt lat="44.55599" lon="6.07819">
        <ele>716.3195801</ele>
        <time>2013-12-05T12:50:24Z</time>
      </trkpt>
      <trkpt lat="44.55601" lon="6.07812">
        <ele>716.3195801</ele>
        <time>2013-12-05T12:50:26Z</time>
      </trkpt>
      <trkpt lat="44.55605" lon="6.07801">
        <ele>718.2421875</ele>
        <time>2013-12-05T12:50:29Z</time>
      </trkpt>
      <trkpt lat="44.55612" lon="6.07781">
        <ele>717.2810059</ele>
        <time>2013-12-05T12:50:35Z</time>
      </trkpt>
      <trkpt lat="44.55616" lon="6.07772">
        <ele>718.7229004</ele>
        <time>2013-12-05T12:50:39Z</time>
      </trkpt>
      <trkpt lat="44.55637" lon="6.07735">
        <ele>721.1262207</ele>
        <time>2013-12-05T12:50:52Z</time>
      </trkpt>
      <trkpt lat="44.55644" lon="6.07728">
        <ele>720.6455078</ele>
        <time>2013-12-05T12:50:57Z</time>
      </trkpt>
      <trkpt lat="44.55667" lon="6.07759">
        <ele>722.5681152</ele>
        <time>2013-12-05T12:51:03Z</time>
      </trkpt>
      <trkpt lat="44.55705" lon="6.07748">
        <ele>721.1262207</ele>
        <time>2013-12-05T12:51:06Z</time>
      </trkpt>
      <trkpt lat="44.55705" lon="6.07748">
        <ele>721.1262207</ele>
        <time>2013-12-05T12:51:11Z</time>
      </trkpt>
      <trkpt lat="44.55707" lon="6.07746">
        <ele>722.5681152</ele>
        <time>2013-12-05T12:51:15Z</time>
      </trkpt>
      <trkpt lat="44.55718" lon="6.07734">
        <ele>722.5681152</ele>
        <time>2013-12-05T12:51:21Z</time>
      </trkpt>
      <trkpt lat="44.55729" lon="6.07722">
        <ele>724.4907227</ele>
        <time>2013-12-05T12:51:32Z</time>
      </trkpt>
      <trkpt lat="44.55738" lon="6.07713">
        <ele>724.9714355</ele>
        <time>2013-12-05T12:51:39Z</time>
      </trkpt>
      <trkpt lat="44.5575" lon="6.07703">
        <ele>724.9714355</ele>
        <time>2013-12-05T12:51:48Z</time>
      </trkpt>
      <trkpt lat="44.55751" lon="6.07703">
        <ele>725.9326172</ele>
        <time>2013-12-05T12:51:58Z</time>
      </trkpt>
      <trkpt lat="44.55767" lon="6.0771">
        <ele>727.3747559</ele>
        <time>2013-12-05T12:52:04Z</time>
      </trkpt>
      <trkpt lat="44.55778" lon="6.07718">
        <ele>727.3747559</ele>
        <time>2013-12-05T12:52:12Z</time>
      </trkpt>
      <trkpt lat="44.55799" lon="6.07741">
        <ele>728.3359375</ele>
        <time>2013-12-05T12:52:24Z</time>
      </trkpt>
      <trkpt lat="44.55818" lon="6.07696">
        <ele>726.894043</ele>
        <time>2013-12-05T12:52:32Z</time>
      </trkpt>
      <trkpt lat="44.55818" lon="6.07696">
        <ele>730.7392578</ele>
        <time>2013-12-05T12:52:33Z</time>
      </trkpt>
      <trkpt lat="44.55818" lon="6.07696">
        <ele>730.7392578</ele>
        <time>2013-12-05T12:52:34Z</time>
      </trkpt>
      <trkpt lat="44.55822" lon="6.07679">
        <ele>730.7392578</ele>
        <time>2013-12-05T12:52:43Z</time>
      </trkpt>
      <trkpt lat="44.55867" lon="6.0766">
        <ele>733.623291</ele>
        <time>2013-12-05T12:52:55Z</time>
      </trkpt>
      <trkpt lat="44.55874" lon="6.07664">
        <ele>733.623291</ele>
        <time>2013-12-05T12:52:58Z</time>
      </trkpt>
      <trkpt lat="44.5587" lon="6.07662">
        <ele>736.5073242</ele>
        <time>2013-12-05T12:53:10Z</time>
      </trkpt>
      <trkpt lat="44.5587" lon="6.07662">
        <ele>736.5073242</ele>
        <time>2013-12-05T12:53:21Z</time>
      </trkpt>
      <trkpt lat="44.5587" lon="6.07662">
        <ele>735.5458984</ele>
        <time>2013-12-05T12:53:24Z</time>
      </trkpt>
      <trkpt lat="44.55912" lon="6.07634">
        <ele>735.5458984</ele>
        <time>2013-12-05T12:53:28Z</time>
      </trkpt>
      <trkpt lat="44.55867" lon="6.07609">
        <ele>735.0654297</ele>
        <time>2013-12-05T12:53:39Z</time>
      </trkpt>
      <trkpt lat="44.55853" lon="6.07597">
        <ele>735.0654297</ele>
        <time>2013-12-05T12:53:45Z</time>
      </trkpt>
      <trkpt lat="44.55857" lon="6.07601">
        <ele>735.0654297</ele>
        <time>2013-12-05T12:53:49Z</time>
      </trkpt>
      <trkpt lat="44.55879" lon="6.07496">
        <ele>733.623291</ele>
        <time>2013-12-05T12:54:01Z</time>
      </trkpt>
      <trkpt lat="44.55879" lon="6.07496">
        <ele>732.1813965</ele>
        <time>2013-12-05T12:54:05Z</time>
      </trkpt>
      <trkpt lat="44.55879" lon="6.07496">
        <ele>735.0654297</ele>
        <time>2013-12-05T12:54:08Z</time>
      </trkpt>
      <trkpt lat="44.55879" lon="6.07496">
        <ele>733.1425781</ele>
        <time>2013-12-05T12:54:21Z</time>
      </trkpt>
    </trkseg>
  </trk>
</gpx>